<?xml version="1.0" encoding="UTF-8" standalone="no" ?>
<gpx xmlns="http://www.topografix.com/GPX/1/1" xmlns:xsi="http://www.w3.org/2001/XMLSchema-instance" xsi:schemaLocation="http://www.topografix.com/GPX/1/1 http://www.topografix.com/GPX/1/1/gpx.xsd" version="1.1" creator="VisuGPX - https://www.visugpx.com">
  <metadata>
    <name>Tour Nantes OE</name>
  </metadata>
  <trk>
    <name><![CDATA[6480690-Tour Nantes Vinc]]></name>
    <trkseg>
      <trkpt lat="47.17848" lon="-1.59074">
        <ele>23</ele>
        <time>2022-10-19T16:17:33Z</time>
      </trkpt>
      <trkpt lat="47.17856" lon="-1.59126">
        <ele>23</ele>
        <time>2022-10-19T16:17:39Z</time>
      </trkpt>
      <trkpt lat="47.17827" lon="-1.59166">
        <ele>23</ele>
        <time>2022-10-19T16:17:47Z</time>
      </trkpt>
      <trkpt lat="47.17823" lon="-1.59182">
        <ele>23</ele>
        <time>2022-10-19T16:17:49Z</time>
      </trkpt>
      <trkpt lat="47.17848" lon="-1.59211">
        <ele>23</ele>
        <time>2022-10-19T16:17:54Z</time>
      </trkpt>
      <trkpt lat="47.17881" lon="-1.59261">
        <ele>23</ele>
        <time>2022-10-19T16:18:03Z</time>
      </trkpt>
      <trkpt lat="47.17913" lon="-1.59298">
        <ele>24</ele>
        <time>2022-10-19T16:18:10Z</time>
      </trkpt>
      <trkpt lat="47.17936" lon="-1.59336">
        <ele>24</ele>
        <time>2022-10-19T16:18:16Z</time>
      </trkpt>
      <trkpt lat="47.17948" lon="-1.59351">
        <ele>24</ele>
        <time>2022-10-19T16:18:19Z</time>
      </trkpt>
      <trkpt lat="47.17965" lon="-1.59367">
        <ele>24</ele>
        <time>2022-10-19T16:18:22Z</time>
      </trkpt>
      <trkpt lat="47.17999" lon="-1.5939">
        <ele>24</ele>
        <time>2022-10-19T16:18:29Z</time>
      </trkpt>
      <trkpt lat="47.18047" lon="-1.59403">
        <ele>23</ele>
        <time>2022-10-19T16:18:38Z</time>
      </trkpt>
      <trkpt lat="47.18067" lon="-1.59405">
        <ele>22</ele>
        <time>2022-10-19T16:18:41Z</time>
      </trkpt>
      <trkpt lat="47.18069" lon="-1.59416">
        <ele>22</ele>
        <time>2022-10-19T16:18:43Z</time>
      </trkpt>
      <trkpt lat="47.18063" lon="-1.59428">
        <ele>22</ele>
        <time>2022-10-19T16:18:45Z</time>
      </trkpt>
      <trkpt lat="47.18052" lon="-1.5943">
        <ele>23</ele>
        <time>2022-10-19T16:18:47Z</time>
      </trkpt>
      <trkpt lat="47.18042" lon="-1.59451">
        <ele>23</ele>
        <time>2022-10-19T16:18:50Z</time>
      </trkpt>
      <trkpt lat="47.18009" lon="-1.59568">
        <ele>22</ele>
        <time>2022-10-19T16:19:05Z</time>
      </trkpt>
      <trkpt lat="47.17969" lon="-1.59725">
        <ele>17</ele>
        <time>2022-10-19T16:19:25Z</time>
      </trkpt>
      <trkpt lat="47.17947" lon="-1.59831">
        <ele>12</ele>
        <time>2022-10-19T16:19:39Z</time>
      </trkpt>
      <trkpt lat="47.17943" lon="-1.59862">
        <ele>10</ele>
        <time>2022-10-19T16:19:42Z</time>
      </trkpt>
      <trkpt lat="47.17931" lon="-1.59906">
        <ele>9</ele>
        <time>2022-10-19T16:19:48Z</time>
      </trkpt>
      <trkpt lat="47.1793" lon="-1.59926">
        <ele>8</ele>
        <time>2022-10-19T16:19:51Z</time>
      </trkpt>
      <trkpt lat="47.17924" lon="-1.59941">
        <ele>9</ele>
        <time>2022-10-19T16:19:53Z</time>
      </trkpt>
      <trkpt lat="47.179" lon="-1.59942">
        <ele>10</ele>
        <time>2022-10-19T16:19:57Z</time>
      </trkpt>
      <trkpt lat="47.17884" lon="-1.59953">
        <ele>9</ele>
        <time>2022-10-19T16:20:00Z</time>
      </trkpt>
      <trkpt lat="47.17769" lon="-1.60155">
        <ele>14</ele>
        <time>2022-10-19T16:20:32Z</time>
      </trkpt>
      <trkpt lat="47.17759" lon="-1.60177">
        <ele>15</ele>
        <time>2022-10-19T16:20:35Z</time>
      </trkpt>
      <trkpt lat="47.1775" lon="-1.60208">
        <ele>16</ele>
        <time>2022-10-19T16:20:39Z</time>
      </trkpt>
      <trkpt lat="47.17739" lon="-1.60259">
        <ele>18</ele>
        <time>2022-10-19T16:20:46Z</time>
      </trkpt>
      <trkpt lat="47.17728" lon="-1.60281">
        <ele>18</ele>
        <time>2022-10-19T16:20:49Z</time>
      </trkpt>
      <trkpt lat="47.17708" lon="-1.60304">
        <ele>19</ele>
        <time>2022-10-19T16:20:54Z</time>
      </trkpt>
      <trkpt lat="47.17665" lon="-1.60363">
        <ele>20</ele>
        <time>2022-10-19T16:21:04Z</time>
      </trkpt>
      <trkpt lat="47.17546" lon="-1.60555">
        <ele>17</ele>
        <time>2022-10-19T16:21:35Z</time>
      </trkpt>
      <trkpt lat="47.17512" lon="-1.60614">
        <ele>15</ele>
        <time>2022-10-19T16:21:45Z</time>
      </trkpt>
      <trkpt lat="47.17437" lon="-1.60728">
        <ele>17</ele>
        <time>2022-10-19T16:22:04Z</time>
      </trkpt>
      <trkpt lat="47.17424" lon="-1.60752">
        <ele>16</ele>
        <time>2022-10-19T16:22:08Z</time>
      </trkpt>
      <trkpt lat="47.17407" lon="-1.60801">
        <ele>13</ele>
        <time>2022-10-19T16:22:14Z</time>
      </trkpt>
      <trkpt lat="47.17401" lon="-1.60829">
        <ele>11</ele>
        <time>2022-10-19T16:22:18Z</time>
      </trkpt>
      <trkpt lat="47.17394" lon="-1.60911">
        <ele>7</ele>
        <time>2022-10-19T16:22:28Z</time>
      </trkpt>
      <trkpt lat="47.17399" lon="-1.60973">
        <ele>4</ele>
        <time>2022-10-19T16:22:35Z</time>
      </trkpt>
      <trkpt lat="47.17413" lon="-1.60982">
        <ele>4</ele>
        <time>2022-10-19T16:22:38Z</time>
      </trkpt>
      <trkpt lat="47.17419" lon="-1.60992">
        <ele>3</ele>
        <time>2022-10-19T16:22:40Z</time>
      </trkpt>
      <trkpt lat="47.17419" lon="-1.6102">
        <ele>4</ele>
        <time>2022-10-19T16:22:43Z</time>
      </trkpt>
      <trkpt lat="47.17425" lon="-1.61047">
        <ele>5</ele>
        <time>2022-10-19T16:22:47Z</time>
      </trkpt>
      <trkpt lat="47.17501" lon="-1.61237">
        <ele>11</ele>
        <time>2022-10-19T16:23:13Z</time>
      </trkpt>
      <trkpt lat="47.1752" lon="-1.61271">
        <ele>12</ele>
        <time>2022-10-19T16:23:19Z</time>
      </trkpt>
      <trkpt lat="47.17533" lon="-1.61284">
        <ele>12</ele>
        <time>2022-10-19T16:23:21Z</time>
      </trkpt>
      <trkpt lat="47.17542" lon="-1.61284">
        <ele>12</ele>
        <time>2022-10-19T16:23:23Z</time>
      </trkpt>
      <trkpt lat="47.17558" lon="-1.61301">
        <ele>12</ele>
        <time>2022-10-19T16:23:27Z</time>
      </trkpt>
      <trkpt lat="47.17566" lon="-1.61347">
        <ele>13</ele>
        <time>2022-10-19T16:23:32Z</time>
      </trkpt>
      <trkpt lat="47.17587" lon="-1.61379">
        <ele>12</ele>
        <time>2022-10-19T16:23:38Z</time>
      </trkpt>
      <trkpt lat="47.17612" lon="-1.61401">
        <ele>12</ele>
        <time>2022-10-19T16:23:43Z</time>
      </trkpt>
      <trkpt lat="47.17663" lon="-1.61461">
        <ele>13</ele>
        <time>2022-10-19T16:23:54Z</time>
      </trkpt>
      <trkpt lat="47.17676" lon="-1.61496">
        <ele>13</ele>
        <time>2022-10-19T16:23:59Z</time>
      </trkpt>
      <trkpt lat="47.17689" lon="-1.61548">
        <ele>14</ele>
        <time>2022-10-19T16:24:06Z</time>
      </trkpt>
      <trkpt lat="47.17694" lon="-1.61608">
        <ele>16</ele>
        <time>2022-10-19T16:24:13Z</time>
      </trkpt>
      <trkpt lat="47.17695" lon="-1.61666">
        <ele>18</ele>
        <time>2022-10-19T16:24:20Z</time>
      </trkpt>
      <trkpt lat="47.1769" lon="-1.61763">
        <ele>22</ele>
        <time>2022-10-19T16:24:32Z</time>
      </trkpt>
      <trkpt lat="47.17682" lon="-1.6186">
        <ele>24</ele>
        <time>2022-10-19T16:24:44Z</time>
      </trkpt>
      <trkpt lat="47.17663" lon="-1.61941">
        <ele>24</ele>
        <time>2022-10-19T16:24:54Z</time>
      </trkpt>
      <trkpt lat="47.17659" lon="-1.61981">
        <ele>25</ele>
        <time>2022-10-19T16:24:59Z</time>
      </trkpt>
      <trkpt lat="47.1765" lon="-1.62009">
        <ele>25</ele>
        <time>2022-10-19T16:25:03Z</time>
      </trkpt>
      <trkpt lat="47.17642" lon="-1.62023">
        <ele>25</ele>
        <time>2022-10-19T16:25:05Z</time>
      </trkpt>
      <trkpt lat="47.17578" lon="-1.62204">
        <ele>21</ele>
        <time>2022-10-19T16:25:30Z</time>
      </trkpt>
      <trkpt lat="47.17548" lon="-1.62279">
        <ele>20</ele>
        <time>2022-10-19T16:25:40Z</time>
      </trkpt>
      <trkpt lat="47.17522" lon="-1.62354">
        <ele>20</ele>
        <time>2022-10-19T16:25:50Z</time>
      </trkpt>
      <trkpt lat="47.17522" lon="-1.6237">
        <ele>20</ele>
        <time>2022-10-19T16:25:52Z</time>
      </trkpt>
      <trkpt lat="47.17532" lon="-1.62383">
        <ele>20</ele>
        <time>2022-10-19T16:25:55Z</time>
      </trkpt>
      <trkpt lat="47.17552" lon="-1.62399">
        <ele>20</ele>
        <time>2022-10-19T16:25:59Z</time>
      </trkpt>
      <trkpt lat="47.17592" lon="-1.62463">
        <ele>22</ele>
        <time>2022-10-19T16:26:09Z</time>
      </trkpt>
      <trkpt lat="47.17644" lon="-1.62538">
        <ele>22</ele>
        <time>2022-10-19T16:26:22Z</time>
      </trkpt>
      <trkpt lat="47.17673" lon="-1.62577">
        <ele>21</ele>
        <time>2022-10-19T16:26:29Z</time>
      </trkpt>
      <trkpt lat="47.17687" lon="-1.62586">
        <ele>21</ele>
        <time>2022-10-19T16:26:32Z</time>
      </trkpt>
      <trkpt lat="47.17699" lon="-1.62619">
        <ele>20</ele>
        <time>2022-10-19T16:26:37Z</time>
      </trkpt>
      <trkpt lat="47.17773" lon="-1.62727">
        <ele>20</ele>
        <time>2022-10-19T16:26:55Z</time>
      </trkpt>
      <trkpt lat="47.1782" lon="-1.62803">
        <ele>19</ele>
        <time>2022-10-19T16:27:08Z</time>
      </trkpt>
      <trkpt lat="47.17844" lon="-1.62837">
        <ele>19</ele>
        <time>2022-10-19T16:27:13Z</time>
      </trkpt>
      <trkpt lat="47.17852" lon="-1.62846">
        <ele>19</ele>
        <time>2022-10-19T16:27:15Z</time>
      </trkpt>
      <trkpt lat="47.17858" lon="-1.6284">
        <ele>19</ele>
        <time>2022-10-19T16:27:17Z</time>
      </trkpt>
      <trkpt lat="47.17869" lon="-1.6284">
        <ele>19</ele>
        <time>2022-10-19T16:27:18Z</time>
      </trkpt>
      <trkpt lat="47.17875" lon="-1.62854">
        <ele>19</ele>
        <time>2022-10-19T16:27:20Z</time>
      </trkpt>
      <trkpt lat="47.17864" lon="-1.62874">
        <ele>18</ele>
        <time>2022-10-19T16:27:24Z</time>
      </trkpt>
      <trkpt lat="47.17844" lon="-1.63214">
        <ele>9</ele>
        <time>2022-10-19T16:28:05Z</time>
      </trkpt>
      <trkpt lat="47.17837" lon="-1.6325">
        <ele>9</ele>
        <time>2022-10-19T16:28:09Z</time>
      </trkpt>
      <trkpt lat="47.17828" lon="-1.63359">
        <ele>9</ele>
        <time>2022-10-19T16:28:23Z</time>
      </trkpt>
      <trkpt lat="47.17823" lon="-1.63455">
        <ele>9</ele>
        <time>2022-10-19T16:28:34Z</time>
      </trkpt>
      <trkpt lat="47.17813" lon="-1.6353">
        <ele>10</ele>
        <time>2022-10-19T16:28:44Z</time>
      </trkpt>
      <trkpt lat="47.1779" lon="-1.63635">
        <ele>13</ele>
        <time>2022-10-19T16:28:57Z</time>
      </trkpt>
      <trkpt lat="47.17797" lon="-1.63677">
        <ele>14</ele>
        <time>2022-10-19T16:29:02Z</time>
      </trkpt>
      <trkpt lat="47.17801" lon="-1.63689">
        <ele>15</ele>
        <time>2022-10-19T16:29:04Z</time>
      </trkpt>
      <trkpt lat="47.17811" lon="-1.63705">
        <ele>15</ele>
        <time>2022-10-19T16:29:06Z</time>
      </trkpt>
      <trkpt lat="47.17824" lon="-1.63764">
        <ele>19</ele>
        <time>2022-10-19T16:29:14Z</time>
      </trkpt>
      <trkpt lat="47.17824" lon="-1.63799">
        <ele>20</ele>
        <time>2022-10-19T16:29:18Z</time>
      </trkpt>
      <trkpt lat="47.17815" lon="-1.63907">
        <ele>23</ele>
        <time>2022-10-19T16:29:31Z</time>
      </trkpt>
      <trkpt lat="47.17845" lon="-1.64014">
        <ele>25</ele>
        <time>2022-10-19T16:29:45Z</time>
      </trkpt>
      <trkpt lat="47.17893" lon="-1.64162">
        <ele>27</ele>
        <time>2022-10-19T16:30:05Z</time>
      </trkpt>
      <trkpt lat="47.17932" lon="-1.64245">
        <ele>30</ele>
        <time>2022-10-19T16:30:17Z</time>
      </trkpt>
      <trkpt lat="47.17955" lon="-1.64305">
        <ele>30</ele>
        <time>2022-10-19T16:30:26Z</time>
      </trkpt>
      <trkpt lat="47.17978" lon="-1.64422">
        <ele>28</ele>
        <time>2022-10-19T16:30:40Z</time>
      </trkpt>
      <trkpt lat="47.17981" lon="-1.64461">
        <ele>28</ele>
        <time>2022-10-19T16:30:45Z</time>
      </trkpt>
      <trkpt lat="47.17979" lon="-1.64488">
        <ele>28</ele>
        <time>2022-10-19T16:30:48Z</time>
      </trkpt>
      <trkpt lat="47.17951" lon="-1.64623">
        <ele>31</ele>
        <time>2022-10-19T16:31:05Z</time>
      </trkpt>
      <trkpt lat="47.17942" lon="-1.64716">
        <ele>32</ele>
        <time>2022-10-19T16:31:17Z</time>
      </trkpt>
      <trkpt lat="47.17924" lon="-1.64766">
        <ele>33</ele>
        <time>2022-10-19T16:31:24Z</time>
      </trkpt>
      <trkpt lat="47.17896" lon="-1.64818">
        <ele>33</ele>
        <time>2022-10-19T16:31:32Z</time>
      </trkpt>
      <trkpt lat="47.17851" lon="-1.64919">
        <ele>35</ele>
        <time>2022-10-19T16:31:46Z</time>
      </trkpt>
      <trkpt lat="47.17845" lon="-1.64942">
        <ele>36</ele>
        <time>2022-10-19T16:31:49Z</time>
      </trkpt>
      <trkpt lat="47.17847" lon="-1.65017">
        <ele>36</ele>
        <time>2022-10-19T16:31:58Z</time>
      </trkpt>
      <trkpt lat="47.17864" lon="-1.65275">
        <ele>34</ele>
        <time>2022-10-19T16:32:30Z</time>
      </trkpt>
      <trkpt lat="47.17868" lon="-1.65304">
        <ele>34</ele>
        <time>2022-10-19T16:32:33Z</time>
      </trkpt>
      <trkpt lat="47.17878" lon="-1.65343">
        <ele>34</ele>
        <time>2022-10-19T16:32:38Z</time>
      </trkpt>
      <trkpt lat="47.17928" lon="-1.65504">
        <ele>39</ele>
        <time>2022-10-19T16:33:00Z</time>
      </trkpt>
      <trkpt lat="47.17944" lon="-1.65534">
        <ele>39</ele>
        <time>2022-10-19T16:33:04Z</time>
      </trkpt>
      <trkpt lat="47.17954" lon="-1.65594">
        <ele>39</ele>
        <time>2022-10-19T16:33:12Z</time>
      </trkpt>
      <trkpt lat="47.18" lon="-1.65732">
        <ele>40</ele>
        <time>2022-10-19T16:33:30Z</time>
      </trkpt>
      <trkpt lat="47.18028" lon="-1.65826">
        <ele>41</ele>
        <time>2022-10-19T16:33:43Z</time>
      </trkpt>
      <trkpt lat="47.18039" lon="-1.65852">
        <ele>41</ele>
        <time>2022-10-19T16:33:47Z</time>
      </trkpt>
      <trkpt lat="47.18053" lon="-1.65882">
        <ele>41</ele>
        <time>2022-10-19T16:33:51Z</time>
      </trkpt>
      <trkpt lat="47.18226" lon="-1.66149">
        <ele>39</ele>
        <time>2022-10-19T16:34:36Z</time>
      </trkpt>
      <trkpt lat="47.18271" lon="-1.66224">
        <ele>38</ele>
        <time>2022-10-19T16:34:48Z</time>
      </trkpt>
      <trkpt lat="47.18372" lon="-1.66438">
        <ele>39</ele>
        <time>2022-10-19T16:35:19Z</time>
      </trkpt>
      <trkpt lat="47.18381" lon="-1.66478">
        <ele>40</ele>
        <time>2022-10-19T16:35:24Z</time>
      </trkpt>
      <trkpt lat="47.18394" lon="-1.66637">
        <ele>39</ele>
        <time>2022-10-19T16:35:44Z</time>
      </trkpt>
      <trkpt lat="47.18401" lon="-1.66682">
        <ele>38</ele>
        <time>2022-10-19T16:35:49Z</time>
      </trkpt>
      <trkpt lat="47.18439" lon="-1.66897">
        <ele>33</ele>
        <time>2022-10-19T16:36:16Z</time>
      </trkpt>
      <trkpt lat="47.18445" lon="-1.66945">
        <ele>33</ele>
        <time>2022-10-19T16:36:22Z</time>
      </trkpt>
      <trkpt lat="47.18451" lon="-1.66966">
        <ele>33</ele>
        <time>2022-10-19T16:36:25Z</time>
      </trkpt>
      <trkpt lat="47.1845" lon="-1.66974">
        <ele>33</ele>
        <time>2022-10-19T16:36:26Z</time>
      </trkpt>
      <trkpt lat="47.18478" lon="-1.6712">
        <ele>35</ele>
        <time>2022-10-19T16:36:44Z</time>
      </trkpt>
      <trkpt lat="47.185" lon="-1.67217">
        <ele>37</ele>
        <time>2022-10-19T16:36:56Z</time>
      </trkpt>
      <trkpt lat="47.18519" lon="-1.67367">
        <ele>39</ele>
        <time>2022-10-19T16:37:15Z</time>
      </trkpt>
      <trkpt lat="47.18534" lon="-1.67412">
        <ele>39</ele>
        <time>2022-10-19T16:37:21Z</time>
      </trkpt>
      <trkpt lat="47.18546" lon="-1.67479">
        <ele>37</ele>
        <time>2022-10-19T16:37:29Z</time>
      </trkpt>
      <trkpt lat="47.18575" lon="-1.67579">
        <ele>38</ele>
        <time>2022-10-19T16:37:42Z</time>
      </trkpt>
      <trkpt lat="47.1858" lon="-1.67595">
        <ele>38</ele>
        <time>2022-10-19T16:37:45Z</time>
      </trkpt>
      <trkpt lat="47.18594" lon="-1.67613">
        <ele>37</ele>
        <time>2022-10-19T16:37:48Z</time>
      </trkpt>
      <trkpt lat="47.18576" lon="-1.67711">
        <ele>35</ele>
        <time>2022-10-19T16:38:00Z</time>
      </trkpt>
      <trkpt lat="47.18547" lon="-1.67847">
        <ele>33</ele>
        <time>2022-10-19T16:38:17Z</time>
      </trkpt>
      <trkpt lat="47.1854" lon="-1.6789">
        <ele>32</ele>
        <time>2022-10-19T16:38:23Z</time>
      </trkpt>
      <trkpt lat="47.18538" lon="-1.67918">
        <ele>31</ele>
        <time>2022-10-19T16:38:26Z</time>
      </trkpt>
      <trkpt lat="47.18561" lon="-1.68122">
        <ele>30</ele>
        <time>2022-10-19T16:38:51Z</time>
      </trkpt>
      <trkpt lat="47.18622" lon="-1.68369">
        <ele>28</ele>
        <time>2022-10-19T16:39:23Z</time>
      </trkpt>
      <trkpt lat="47.1865" lon="-1.68469">
        <ele>28</ele>
        <time>2022-10-19T16:39:36Z</time>
      </trkpt>
      <trkpt lat="47.18662" lon="-1.68506">
        <ele>27</ele>
        <time>2022-10-19T16:39:41Z</time>
      </trkpt>
      <trkpt lat="47.18683" lon="-1.68548">
        <ele>26</ele>
        <time>2022-10-19T16:39:47Z</time>
      </trkpt>
      <trkpt lat="47.187" lon="-1.68567">
        <ele>26</ele>
        <time>2022-10-19T16:39:51Z</time>
      </trkpt>
      <trkpt lat="47.187" lon="-1.68577">
        <ele>25</ele>
        <time>2022-10-19T16:39:52Z</time>
      </trkpt>
      <trkpt lat="47.18722" lon="-1.68617">
        <ele>24</ele>
        <time>2022-10-19T16:39:58Z</time>
      </trkpt>
      <trkpt lat="47.18726" lon="-1.68619">
        <ele>24</ele>
        <time>2022-10-19T16:39:59Z</time>
      </trkpt>
      <trkpt lat="47.18804" lon="-1.68766">
        <ele>23</ele>
        <time>2022-10-19T16:40:22Z</time>
      </trkpt>
      <trkpt lat="47.1884" lon="-1.68863">
        <ele>22</ele>
        <time>2022-10-19T16:40:35Z</time>
      </trkpt>
      <trkpt lat="47.18883" lon="-1.69009">
        <ele>22</ele>
        <time>2022-10-19T16:40:54Z</time>
      </trkpt>
      <trkpt lat="47.18887" lon="-1.69029">
        <ele>22</ele>
        <time>2022-10-19T16:40:57Z</time>
      </trkpt>
      <trkpt lat="47.18914" lon="-1.69082">
        <ele>23</ele>
        <time>2022-10-19T16:41:05Z</time>
      </trkpt>
      <trkpt lat="47.18959" lon="-1.69159">
        <ele>26</ele>
        <time>2022-10-19T16:41:17Z</time>
      </trkpt>
      <trkpt lat="47.18981" lon="-1.69228">
        <ele>26</ele>
        <time>2022-10-19T16:41:26Z</time>
      </trkpt>
      <trkpt lat="47.19046" lon="-1.69375">
        <ele>24</ele>
        <time>2022-10-19T16:41:48Z</time>
      </trkpt>
      <trkpt lat="47.19085" lon="-1.69427">
        <ele>20</ele>
        <time>2022-10-19T16:41:57Z</time>
      </trkpt>
      <trkpt lat="47.19175" lon="-1.69564">
        <ele>13</ele>
        <time>2022-10-19T16:42:20Z</time>
      </trkpt>
      <trkpt lat="47.1919" lon="-1.69574">
        <ele>12</ele>
        <time>2022-10-19T16:42:23Z</time>
      </trkpt>
      <trkpt lat="47.192" lon="-1.69565">
        <ele>13</ele>
        <time>2022-10-19T16:42:25Z</time>
      </trkpt>
      <trkpt lat="47.19241" lon="-1.69513">
        <ele>15</ele>
        <time>2022-10-19T16:42:35Z</time>
      </trkpt>
      <trkpt lat="47.19278" lon="-1.69462">
        <ele>16</ele>
        <time>2022-10-19T16:42:44Z</time>
      </trkpt>
      <trkpt lat="47.19288" lon="-1.69439">
        <ele>17</ele>
        <time>2022-10-19T16:42:47Z</time>
      </trkpt>
      <trkpt lat="47.19335" lon="-1.69407">
        <ele>15</ele>
        <time>2022-10-19T16:42:56Z</time>
      </trkpt>
      <trkpt lat="47.19355" lon="-1.69397">
        <ele>15</ele>
        <time>2022-10-19T16:43:00Z</time>
      </trkpt>
      <trkpt lat="47.19374" lon="-1.69382">
        <ele>15</ele>
        <time>2022-10-19T16:43:04Z</time>
      </trkpt>
      <trkpt lat="47.19397" lon="-1.69348">
        <ele>15</ele>
        <time>2022-10-19T16:43:10Z</time>
      </trkpt>
      <trkpt lat="47.19409" lon="-1.6932">
        <ele>15</ele>
        <time>2022-10-19T16:43:14Z</time>
      </trkpt>
      <trkpt lat="47.19416" lon="-1.69296">
        <ele>15</ele>
        <time>2022-10-19T16:43:17Z</time>
      </trkpt>
      <trkpt lat="47.19405" lon="-1.69248">
        <ele>18</ele>
        <time>2022-10-19T16:43:23Z</time>
      </trkpt>
      <trkpt lat="47.19367" lon="-1.69126">
        <ele>21</ele>
        <time>2022-10-19T16:43:39Z</time>
      </trkpt>
      <trkpt lat="47.19343" lon="-1.69027">
        <ele>25</ele>
        <time>2022-10-19T16:43:52Z</time>
      </trkpt>
      <trkpt lat="47.19331" lon="-1.69016">
        <ele>28</ele>
        <time>2022-10-19T16:43:54Z</time>
      </trkpt>
      <trkpt lat="47.19252" lon="-1.68857">
        <ele>30</ele>
        <time>2022-10-19T16:44:18Z</time>
      </trkpt>
      <trkpt lat="47.19234" lon="-1.68833">
        <ele>31</ele>
        <time>2022-10-19T16:44:22Z</time>
      </trkpt>
      <trkpt lat="47.19237" lon="-1.68806">
        <ele>30</ele>
        <time>2022-10-19T16:44:26Z</time>
      </trkpt>
      <trkpt lat="47.19235" lon="-1.68779">
        <ele>30</ele>
        <time>2022-10-19T16:44:29Z</time>
      </trkpt>
      <trkpt lat="47.19223" lon="-1.68723">
        <ele>29</ele>
        <time>2022-10-19T16:44:36Z</time>
      </trkpt>
      <trkpt lat="47.19239" lon="-1.68683">
        <ele>27</ele>
        <time>2022-10-19T16:44:42Z</time>
      </trkpt>
      <trkpt lat="47.19242" lon="-1.68667">
        <ele>26</ele>
        <time>2022-10-19T16:44:44Z</time>
      </trkpt>
      <trkpt lat="47.19237" lon="-1.68586">
        <ele>23</ele>
        <time>2022-10-19T16:44:54Z</time>
      </trkpt>
      <trkpt lat="47.19231" lon="-1.68542">
        <ele>21</ele>
        <time>2022-10-19T16:44:59Z</time>
      </trkpt>
      <trkpt lat="47.19211" lon="-1.6852">
        <ele>23</ele>
        <time>2022-10-19T16:45:03Z</time>
      </trkpt>
      <trkpt lat="47.19205" lon="-1.68505">
        <ele>24</ele>
        <time>2022-10-19T16:45:06Z</time>
      </trkpt>
      <trkpt lat="47.192" lon="-1.68456">
        <ele>23</ele>
        <time>2022-10-19T16:45:12Z</time>
      </trkpt>
      <trkpt lat="47.192" lon="-1.68382">
        <ele>20</ele>
        <time>2022-10-19T16:45:21Z</time>
      </trkpt>
      <trkpt lat="47.19195" lon="-1.6833">
        <ele>20</ele>
        <time>2022-10-19T16:45:27Z</time>
      </trkpt>
      <trkpt lat="47.19196" lon="-1.68303">
        <ele>18</ele>
        <time>2022-10-19T16:45:30Z</time>
      </trkpt>
      <trkpt lat="47.19193" lon="-1.68283">
        <ele>17</ele>
        <time>2022-10-19T16:45:33Z</time>
      </trkpt>
      <trkpt lat="47.1918" lon="-1.68236">
        <ele>17</ele>
        <time>2022-10-19T16:45:39Z</time>
      </trkpt>
      <trkpt lat="47.19226" lon="-1.68199">
        <ele>8</ele>
        <time>2022-10-19T16:45:48Z</time>
      </trkpt>
      <trkpt lat="47.19268" lon="-1.68169">
        <ele>4</ele>
        <time>2022-10-19T16:45:56Z</time>
      </trkpt>
      <trkpt lat="47.19416" lon="-1.68068">
        <ele>6</ele>
        <time>2022-10-19T16:46:25Z</time>
      </trkpt>
      <trkpt lat="47.1942" lon="-1.68045">
        <ele>6</ele>
        <time>2022-10-19T16:46:28Z</time>
      </trkpt>
      <trkpt lat="47.19398" lon="-1.67965">
        <ele>5</ele>
        <time>2022-10-19T16:46:39Z</time>
      </trkpt>
      <trkpt lat="47.19379" lon="-1.67883">
        <ele>4</ele>
        <time>2022-10-19T16:46:49Z</time>
      </trkpt>
      <trkpt lat="47.19372" lon="-1.67827">
        <ele>4</ele>
        <time>2022-10-19T16:46:56Z</time>
      </trkpt>
      <trkpt lat="47.19371" lon="-1.67801">
        <ele>4</ele>
        <time>2022-10-19T16:46:59Z</time>
      </trkpt>
      <trkpt lat="47.19375" lon="-1.67749">
        <ele>4</ele>
        <time>2022-10-19T16:47:06Z</time>
      </trkpt>
      <trkpt lat="47.1939" lon="-1.67682">
        <ele>5</ele>
        <time>2022-10-19T16:47:14Z</time>
      </trkpt>
      <trkpt lat="47.19419" lon="-1.67615">
        <ele>8</ele>
        <time>2022-10-19T16:47:24Z</time>
      </trkpt>
      <trkpt lat="47.19446" lon="-1.67579">
        <ele>8</ele>
        <time>2022-10-19T16:47:30Z</time>
      </trkpt>
      <trkpt lat="47.1948" lon="-1.67548">
        <ele>7</ele>
        <time>2022-10-19T16:47:37Z</time>
      </trkpt>
      <trkpt lat="47.19499" lon="-1.67535">
        <ele>7</ele>
        <time>2022-10-19T16:47:41Z</time>
      </trkpt>
      <trkpt lat="47.19508" lon="-1.67521">
        <ele>6</ele>
        <time>2022-10-19T16:47:43Z</time>
      </trkpt>
      <trkpt lat="47.19536" lon="-1.67514">
        <ele>4</ele>
        <time>2022-10-19T16:47:48Z</time>
      </trkpt>
      <trkpt lat="47.19768" lon="-1.67336">
        <ele>2</ele>
        <time>2022-10-19T16:48:35Z</time>
      </trkpt>
      <trkpt lat="47.19787" lon="-1.67303">
        <ele>4</ele>
        <time>2022-10-19T16:48:40Z</time>
      </trkpt>
      <trkpt lat="47.19791" lon="-1.67283">
        <ele>4</ele>
        <time>2022-10-19T16:48:43Z</time>
      </trkpt>
      <trkpt lat="47.19722" lon="-1.6713">
        <ele>5</ele>
        <time>2022-10-19T16:49:05Z</time>
      </trkpt>
      <trkpt lat="47.19673" lon="-1.67029">
        <ele>6</ele>
        <time>2022-10-19T16:49:20Z</time>
      </trkpt>
      <trkpt lat="47.19658" lon="-1.67003">
        <ele>6</ele>
        <time>2022-10-19T16:49:24Z</time>
      </trkpt>
      <trkpt lat="47.19606" lon="-1.66842">
        <ele>10</ele>
        <time>2022-10-19T16:49:46Z</time>
      </trkpt>
      <trkpt lat="47.19588" lon="-1.66762">
        <ele>9</ele>
        <time>2022-10-19T16:49:56Z</time>
      </trkpt>
      <trkpt lat="47.19585" lon="-1.66708">
        <ele>9</ele>
        <time>2022-10-19T16:50:02Z</time>
      </trkpt>
      <trkpt lat="47.196" lon="-1.66638">
        <ele>7</ele>
        <time>2022-10-19T16:50:11Z</time>
      </trkpt>
      <trkpt lat="47.19616" lon="-1.66619">
        <ele>7</ele>
        <time>2022-10-19T16:50:15Z</time>
      </trkpt>
      <trkpt lat="47.19623" lon="-1.66614">
        <ele>7</ele>
        <time>2022-10-19T16:50:16Z</time>
      </trkpt>
      <trkpt lat="47.19633" lon="-1.66611">
        <ele>7</ele>
        <time>2022-10-19T16:50:18Z</time>
      </trkpt>
      <trkpt lat="47.19643" lon="-1.66613">
        <ele>8</ele>
        <time>2022-10-19T16:50:20Z</time>
      </trkpt>
      <trkpt lat="47.19652" lon="-1.66619">
        <ele>8</ele>
        <time>2022-10-19T16:50:22Z</time>
      </trkpt>
      <trkpt lat="47.19708" lon="-1.66671">
        <ele>9</ele>
        <time>2022-10-19T16:50:33Z</time>
      </trkpt>
      <trkpt lat="47.19714" lon="-1.66682">
        <ele>10</ele>
        <time>2022-10-19T16:50:35Z</time>
      </trkpt>
      <trkpt lat="47.19784" lon="-1.66738">
        <ele>11</ele>
        <time>2022-10-19T16:50:49Z</time>
      </trkpt>
      <trkpt lat="47.19836" lon="-1.66798">
        <ele>8</ele>
        <time>2022-10-19T16:51:01Z</time>
      </trkpt>
      <trkpt lat="47.19877" lon="-1.6686">
        <ele>8</ele>
        <time>2022-10-19T16:51:11Z</time>
      </trkpt>
      <trkpt lat="47.19914" lon="-1.66925">
        <ele>7</ele>
        <time>2022-10-19T16:51:22Z</time>
      </trkpt>
      <trkpt lat="47.19919" lon="-1.6694">
        <ele>7</ele>
        <time>2022-10-19T16:51:24Z</time>
      </trkpt>
      <trkpt lat="47.19937" lon="-1.67031">
        <ele>8</ele>
        <time>2022-10-19T16:51:35Z</time>
      </trkpt>
      <trkpt lat="47.19944" lon="-1.6704">
        <ele>8</ele>
        <time>2022-10-19T16:51:37Z</time>
      </trkpt>
      <trkpt lat="47.19956" lon="-1.67027">
        <ele>7</ele>
        <time>2022-10-19T16:51:40Z</time>
      </trkpt>
      <trkpt lat="47.19991" lon="-1.66971">
        <ele>6</ele>
        <time>2022-10-19T16:51:49Z</time>
      </trkpt>
      <trkpt lat="47.20014" lon="-1.66927">
        <ele>5</ele>
        <time>2022-10-19T16:51:55Z</time>
      </trkpt>
      <trkpt lat="47.20015" lon="-1.6692">
        <ele>5</ele>
        <time>2022-10-19T16:51:56Z</time>
      </trkpt>
      <trkpt lat="47.2005" lon="-1.66869">
        <ele>6</ele>
        <time>2022-10-19T16:52:05Z</time>
      </trkpt>
      <trkpt lat="47.20074" lon="-1.66826">
        <ele>6</ele>
        <time>2022-10-19T16:52:12Z</time>
      </trkpt>
      <trkpt lat="47.20085" lon="-1.66801">
        <ele>6</ele>
        <time>2022-10-19T16:52:15Z</time>
      </trkpt>
      <trkpt lat="47.20094" lon="-1.66763">
        <ele>6</ele>
        <time>2022-10-19T16:52:20Z</time>
      </trkpt>
      <trkpt lat="47.20099" lon="-1.66751">
        <ele>6</ele>
        <time>2022-10-19T16:52:22Z</time>
      </trkpt>
      <trkpt lat="47.20106" lon="-1.66744">
        <ele>6</ele>
        <time>2022-10-19T16:52:23Z</time>
      </trkpt>
      <trkpt lat="47.20128" lon="-1.66743">
        <ele>7</ele>
        <time>2022-10-19T16:52:27Z</time>
      </trkpt>
      <trkpt lat="47.20168" lon="-1.66716">
        <ele>7</ele>
        <time>2022-10-19T16:52:35Z</time>
      </trkpt>
      <trkpt lat="47.20189" lon="-1.66708">
        <ele>7</ele>
        <time>2022-10-19T16:52:39Z</time>
      </trkpt>
      <trkpt lat="47.20205" lon="-1.66689">
        <ele>7</ele>
        <time>2022-10-19T16:52:43Z</time>
      </trkpt>
      <trkpt lat="47.20208" lon="-1.66648">
        <ele>7</ele>
        <time>2022-10-19T16:52:48Z</time>
      </trkpt>
      <trkpt lat="47.20219" lon="-1.66614">
        <ele>7</ele>
        <time>2022-10-19T16:52:52Z</time>
      </trkpt>
      <trkpt lat="47.20337" lon="-1.6645">
        <ele>5</ele>
        <time>2022-10-19T16:53:21Z</time>
      </trkpt>
      <trkpt lat="47.2035" lon="-1.66439">
        <ele>5</ele>
        <time>2022-10-19T16:53:24Z</time>
      </trkpt>
      <trkpt lat="47.20381" lon="-1.66425">
        <ele>6</ele>
        <time>2022-10-19T16:53:30Z</time>
      </trkpt>
      <trkpt lat="47.20458" lon="-1.66404">
        <ele>9</ele>
        <time>2022-10-19T16:53:44Z</time>
      </trkpt>
      <trkpt lat="47.20491" lon="-1.66381">
        <ele>10</ele>
        <time>2022-10-19T16:53:50Z</time>
      </trkpt>
      <trkpt lat="47.20508" lon="-1.66363">
        <ele>11</ele>
        <time>2022-10-19T16:53:54Z</time>
      </trkpt>
      <trkpt lat="47.20518" lon="-1.66347">
        <ele>13</ele>
        <time>2022-10-19T16:53:56Z</time>
      </trkpt>
      <trkpt lat="47.20519" lon="-1.66331">
        <ele>13</ele>
        <time>2022-10-19T16:53:58Z</time>
      </trkpt>
      <trkpt lat="47.20515" lon="-1.66316">
        <ele>13</ele>
        <time>2022-10-19T16:54:00Z</time>
      </trkpt>
      <trkpt lat="47.20491" lon="-1.66251">
        <ele>11</ele>
        <time>2022-10-19T16:54:09Z</time>
      </trkpt>
      <trkpt lat="47.20489" lon="-1.66229">
        <ele>11</ele>
        <time>2022-10-19T16:54:12Z</time>
      </trkpt>
      <trkpt lat="47.20494" lon="-1.66196">
        <ele>11</ele>
        <time>2022-10-19T16:54:16Z</time>
      </trkpt>
      <trkpt lat="47.20492" lon="-1.66176">
        <ele>11</ele>
        <time>2022-10-19T16:54:18Z</time>
      </trkpt>
      <trkpt lat="47.20482" lon="-1.66142">
        <ele>11</ele>
        <time>2022-10-19T16:54:23Z</time>
      </trkpt>
      <trkpt lat="47.20483" lon="-1.66115">
        <ele>11</ele>
        <time>2022-10-19T16:54:26Z</time>
      </trkpt>
      <trkpt lat="47.20493" lon="-1.66093">
        <ele>12</ele>
        <time>2022-10-19T16:54:29Z</time>
      </trkpt>
      <trkpt lat="47.20504" lon="-1.66078">
        <ele>13</ele>
        <time>2022-10-19T16:54:32Z</time>
      </trkpt>
      <trkpt lat="47.20552" lon="-1.66043">
        <ele>17</ele>
        <time>2022-10-19T16:54:42Z</time>
      </trkpt>
      <trkpt lat="47.20591" lon="-1.66028">
        <ele>19</ele>
        <time>2022-10-19T16:54:49Z</time>
      </trkpt>
      <trkpt lat="47.20634" lon="-1.66017">
        <ele>21</ele>
        <time>2022-10-19T16:54:56Z</time>
      </trkpt>
      <trkpt lat="47.20654" lon="-1.66009">
        <ele>22</ele>
        <time>2022-10-19T16:55:00Z</time>
      </trkpt>
      <trkpt lat="47.2073" lon="-1.65966">
        <ele>24</ele>
        <time>2022-10-19T16:55:15Z</time>
      </trkpt>
      <trkpt lat="47.2077" lon="-1.65937">
        <ele>25</ele>
        <time>2022-10-19T16:55:23Z</time>
      </trkpt>
      <trkpt lat="47.20808" lon="-1.65905">
        <ele>25</ele>
        <time>2022-10-19T16:55:30Z</time>
      </trkpt>
      <trkpt lat="47.20837" lon="-1.65869">
        <ele>24</ele>
        <time>2022-10-19T16:55:37Z</time>
      </trkpt>
      <trkpt lat="47.20918" lon="-1.6578">
        <ele>20</ele>
        <time>2022-10-19T16:55:55Z</time>
      </trkpt>
      <trkpt lat="47.20944" lon="-1.65763">
        <ele>20</ele>
        <time>2022-10-19T16:56:00Z</time>
      </trkpt>
      <trkpt lat="47.21002" lon="-1.65708">
        <ele>18</ele>
        <time>2022-10-19T16:56:12Z</time>
      </trkpt>
      <trkpt lat="47.21029" lon="-1.65689">
        <ele>19</ele>
        <time>2022-10-19T16:56:18Z</time>
      </trkpt>
      <trkpt lat="47.21039" lon="-1.65673">
        <ele>19</ele>
        <time>2022-10-19T16:56:20Z</time>
      </trkpt>
      <trkpt lat="47.21128" lon="-1.65638">
        <ele>21</ele>
        <time>2022-10-19T16:56:37Z</time>
      </trkpt>
      <trkpt lat="47.21279" lon="-1.65571">
        <ele>27</ele>
        <time>2022-10-19T16:57:05Z</time>
      </trkpt>
      <trkpt lat="47.21305" lon="-1.65565">
        <ele>27</ele>
        <time>2022-10-19T16:57:10Z</time>
      </trkpt>
      <trkpt lat="47.21354" lon="-1.65563">
        <ele>28</ele>
        <time>2022-10-19T16:57:18Z</time>
      </trkpt>
      <trkpt lat="47.21407" lon="-1.65569">
        <ele>30</ele>
        <time>2022-10-19T16:57:28Z</time>
      </trkpt>
      <trkpt lat="47.2149" lon="-1.65595">
        <ele>32</ele>
        <time>2022-10-19T16:57:43Z</time>
      </trkpt>
      <trkpt lat="47.21505" lon="-1.65593">
        <ele>32</ele>
        <time>2022-10-19T16:57:46Z</time>
      </trkpt>
      <trkpt lat="47.21522" lon="-1.65594">
        <ele>32</ele>
        <time>2022-10-19T16:57:49Z</time>
      </trkpt>
      <trkpt lat="47.21548" lon="-1.65586">
        <ele>32</ele>
        <time>2022-10-19T16:57:53Z</time>
      </trkpt>
      <trkpt lat="47.21608" lon="-1.65542">
        <ele>32</ele>
        <time>2022-10-19T16:58:05Z</time>
      </trkpt>
      <trkpt lat="47.21638" lon="-1.65515">
        <ele>32</ele>
        <time>2022-10-19T16:58:11Z</time>
      </trkpt>
      <trkpt lat="47.21667" lon="-1.65493">
        <ele>32</ele>
        <time>2022-10-19T16:58:17Z</time>
      </trkpt>
      <trkpt lat="47.217" lon="-1.65472">
        <ele>32</ele>
        <time>2022-10-19T16:58:24Z</time>
      </trkpt>
      <trkpt lat="47.21727" lon="-1.6546">
        <ele>32</ele>
        <time>2022-10-19T16:58:29Z</time>
      </trkpt>
      <trkpt lat="47.21807" lon="-1.65447">
        <ele>31</ele>
        <time>2022-10-19T16:58:43Z</time>
      </trkpt>
      <trkpt lat="47.21917" lon="-1.65439">
        <ele>31</ele>
        <time>2022-10-19T16:59:03Z</time>
      </trkpt>
      <trkpt lat="47.21954" lon="-1.65426">
        <ele>32</ele>
        <time>2022-10-19T16:59:09Z</time>
      </trkpt>
      <trkpt lat="47.2198" lon="-1.65424">
        <ele>33</ele>
        <time>2022-10-19T16:59:14Z</time>
      </trkpt>
      <trkpt lat="47.22019" lon="-1.65431">
        <ele>33</ele>
        <time>2022-10-19T16:59:21Z</time>
      </trkpt>
      <trkpt lat="47.22087" lon="-1.6542">
        <ele>35</ele>
        <time>2022-10-19T16:59:33Z</time>
      </trkpt>
      <trkpt lat="47.22145" lon="-1.65406">
        <ele>36</ele>
        <time>2022-10-19T16:59:44Z</time>
      </trkpt>
      <trkpt lat="47.22262" lon="-1.65363">
        <ele>37</ele>
        <time>2022-10-19T17:00:05Z</time>
      </trkpt>
      <trkpt lat="47.22339" lon="-1.65317">
        <ele>39</ele>
        <time>2022-10-19T17:00:20Z</time>
      </trkpt>
      <trkpt lat="47.22586" lon="-1.65201">
        <ele>45</ele>
        <time>2022-10-19T17:01:06Z</time>
      </trkpt>
      <trkpt lat="47.22635" lon="-1.6517">
        <ele>46</ele>
        <time>2022-10-19T17:01:15Z</time>
      </trkpt>
      <trkpt lat="47.22675" lon="-1.65134">
        <ele>47</ele>
        <time>2022-10-19T17:01:24Z</time>
      </trkpt>
      <trkpt lat="47.22697" lon="-1.65105">
        <ele>48</ele>
        <time>2022-10-19T17:01:29Z</time>
      </trkpt>
      <trkpt lat="47.22707" lon="-1.651">
        <ele>49</ele>
        <time>2022-10-19T17:01:31Z</time>
      </trkpt>
      <trkpt lat="47.22715" lon="-1.65102">
        <ele>49</ele>
        <time>2022-10-19T17:01:32Z</time>
      </trkpt>
      <trkpt lat="47.22719" lon="-1.65116">
        <ele>48</ele>
        <time>2022-10-19T17:01:34Z</time>
      </trkpt>
      <trkpt lat="47.22739" lon="-1.65134">
        <ele>48</ele>
        <time>2022-10-19T17:01:38Z</time>
      </trkpt>
      <trkpt lat="47.22742" lon="-1.65168">
        <ele>48</ele>
        <time>2022-10-19T17:01:43Z</time>
      </trkpt>
      <trkpt lat="47.22752" lon="-1.65171">
        <ele>48</ele>
        <time>2022-10-19T17:01:44Z</time>
      </trkpt>
      <trkpt lat="47.22817" lon="-1.65124">
        <ele>50</ele>
        <time>2022-10-19T17:01:57Z</time>
      </trkpt>
      <trkpt lat="47.22866" lon="-1.65097">
        <ele>51</ele>
        <time>2022-10-19T17:02:07Z</time>
      </trkpt>
      <trkpt lat="47.22914" lon="-1.65073">
        <ele>53</ele>
        <time>2022-10-19T17:02:16Z</time>
      </trkpt>
      <trkpt lat="47.22942" lon="-1.65065">
        <ele>52</ele>
        <time>2022-10-19T17:02:21Z</time>
      </trkpt>
      <trkpt lat="47.22963" lon="-1.65067">
        <ele>52</ele>
        <time>2022-10-19T17:02:24Z</time>
      </trkpt>
      <trkpt lat="47.22975" lon="-1.65059">
        <ele>51</ele>
        <time>2022-10-19T17:02:27Z</time>
      </trkpt>
      <trkpt lat="47.22985" lon="-1.65041">
        <ele>52</ele>
        <time>2022-10-19T17:02:30Z</time>
      </trkpt>
      <trkpt lat="47.23004" lon="-1.65019">
        <ele>52</ele>
        <time>2022-10-19T17:02:34Z</time>
      </trkpt>
      <trkpt lat="47.23077" lon="-1.64961">
        <ele>52</ele>
        <time>2022-10-19T17:02:49Z</time>
      </trkpt>
      <trkpt lat="47.232" lon="-1.64855">
        <ele>53</ele>
        <time>2022-10-19T17:03:14Z</time>
      </trkpt>
      <trkpt lat="47.23232" lon="-1.64833">
        <ele>52</ele>
        <time>2022-10-19T17:03:20Z</time>
      </trkpt>
      <trkpt lat="47.23254" lon="-1.64832">
        <ele>52</ele>
        <time>2022-10-19T17:03:24Z</time>
      </trkpt>
      <trkpt lat="47.2326" lon="-1.64829">
        <ele>52</ele>
        <time>2022-10-19T17:03:25Z</time>
      </trkpt>
      <trkpt lat="47.23262" lon="-1.64821">
        <ele>52</ele>
        <time>2022-10-19T17:03:26Z</time>
      </trkpt>
      <trkpt lat="47.23259" lon="-1.64815">
        <ele>52</ele>
        <time>2022-10-19T17:03:27Z</time>
      </trkpt>
      <trkpt lat="47.23247" lon="-1.64803">
        <ele>52</ele>
        <time>2022-10-19T17:03:30Z</time>
      </trkpt>
      <trkpt lat="47.23244" lon="-1.64787">
        <ele>52</ele>
        <time>2022-10-19T17:03:32Z</time>
      </trkpt>
      <trkpt lat="47.23251" lon="-1.64772">
        <ele>52</ele>
        <time>2022-10-19T17:03:34Z</time>
      </trkpt>
      <trkpt lat="47.23273" lon="-1.64767">
        <ele>53</ele>
        <time>2022-10-19T17:03:38Z</time>
      </trkpt>
      <trkpt lat="47.23287" lon="-1.64755">
        <ele>53</ele>
        <time>2022-10-19T17:03:41Z</time>
      </trkpt>
      <trkpt lat="47.23323" lon="-1.64717">
        <ele>53</ele>
        <time>2022-10-19T17:03:49Z</time>
      </trkpt>
      <trkpt lat="47.23328" lon="-1.64698">
        <ele>53</ele>
        <time>2022-10-19T17:03:51Z</time>
      </trkpt>
      <trkpt lat="47.2334" lon="-1.64691">
        <ele>53</ele>
        <time>2022-10-19T17:03:53Z</time>
      </trkpt>
      <trkpt lat="47.2335" lon="-1.64692">
        <ele>52</ele>
        <time>2022-10-19T17:03:55Z</time>
      </trkpt>
      <trkpt lat="47.23356" lon="-1.64699">
        <ele>53</ele>
        <time>2022-10-19T17:03:57Z</time>
      </trkpt>
      <trkpt lat="47.23353" lon="-1.64706">
        <ele>53</ele>
        <time>2022-10-19T17:03:58Z</time>
      </trkpt>
      <trkpt lat="47.23358" lon="-1.64735">
        <ele>53</ele>
        <time>2022-10-19T17:04:01Z</time>
      </trkpt>
      <trkpt lat="47.23374" lon="-1.64795">
        <ele>54</ele>
        <time>2022-10-19T17:04:09Z</time>
      </trkpt>
      <trkpt lat="47.23392" lon="-1.64842">
        <ele>54</ele>
        <time>2022-10-19T17:04:16Z</time>
      </trkpt>
      <trkpt lat="47.23418" lon="-1.64892">
        <ele>54</ele>
        <time>2022-10-19T17:04:23Z</time>
      </trkpt>
      <trkpt lat="47.23446" lon="-1.64972">
        <ele>53</ele>
        <time>2022-10-19T17:04:34Z</time>
      </trkpt>
      <trkpt lat="47.23496" lon="-1.65135">
        <ele>54</ele>
        <time>2022-10-19T17:04:56Z</time>
      </trkpt>
      <trkpt lat="47.23507" lon="-1.65142">
        <ele>53</ele>
        <time>2022-10-19T17:04:58Z</time>
      </trkpt>
      <trkpt lat="47.23554" lon="-1.65101">
        <ele>52</ele>
        <time>2022-10-19T17:05:07Z</time>
      </trkpt>
      <trkpt lat="47.2363" lon="-1.65042">
        <ele>52</ele>
        <time>2022-10-19T17:05:23Z</time>
      </trkpt>
      <trkpt lat="47.23661" lon="-1.65032">
        <ele>52</ele>
        <time>2022-10-19T17:05:28Z</time>
      </trkpt>
      <trkpt lat="47.23809" lon="-1.64997">
        <ele>51</ele>
        <time>2022-10-19T17:05:55Z</time>
      </trkpt>
      <trkpt lat="47.23926" lon="-1.64945">
        <ele>46</ele>
        <time>2022-10-19T17:06:17Z</time>
      </trkpt>
      <trkpt lat="47.2396" lon="-1.64942">
        <ele>45</ele>
        <time>2022-10-19T17:06:23Z</time>
      </trkpt>
      <trkpt lat="47.24005" lon="-1.64957">
        <ele>44</ele>
        <time>2022-10-19T17:06:31Z</time>
      </trkpt>
      <trkpt lat="47.24052" lon="-1.64986">
        <ele>45</ele>
        <time>2022-10-19T17:06:40Z</time>
      </trkpt>
      <trkpt lat="47.241" lon="-1.64992">
        <ele>46</ele>
        <time>2022-10-19T17:06:49Z</time>
      </trkpt>
      <trkpt lat="47.24117" lon="-1.64983">
        <ele>45</ele>
        <time>2022-10-19T17:06:52Z</time>
      </trkpt>
      <trkpt lat="47.24158" lon="-1.64931">
        <ele>44</ele>
        <time>2022-10-19T17:07:02Z</time>
      </trkpt>
      <trkpt lat="47.24196" lon="-1.64896">
        <ele>42</ele>
        <time>2022-10-19T17:07:10Z</time>
      </trkpt>
      <trkpt lat="47.24224" lon="-1.64892">
        <ele>41</ele>
        <time>2022-10-19T17:07:15Z</time>
      </trkpt>
      <trkpt lat="47.24278" lon="-1.64915">
        <ele>41</ele>
        <time>2022-10-19T17:07:25Z</time>
      </trkpt>
      <trkpt lat="47.24322" lon="-1.64946">
        <ele>41</ele>
        <time>2022-10-19T17:07:33Z</time>
      </trkpt>
      <trkpt lat="47.24364" lon="-1.64962">
        <ele>41</ele>
        <time>2022-10-19T17:07:41Z</time>
      </trkpt>
      <trkpt lat="47.24404" lon="-1.64966">
        <ele>41</ele>
        <time>2022-10-19T17:07:48Z</time>
      </trkpt>
      <trkpt lat="47.24442" lon="-1.64947">
        <ele>41</ele>
        <time>2022-10-19T17:07:55Z</time>
      </trkpt>
      <trkpt lat="47.24608" lon="-1.64842">
        <ele>40</ele>
        <time>2022-10-19T17:08:27Z</time>
      </trkpt>
      <trkpt lat="47.24668" lon="-1.64798">
        <ele>36</ele>
        <time>2022-10-19T17:08:39Z</time>
      </trkpt>
      <trkpt lat="47.24684" lon="-1.6478">
        <ele>35</ele>
        <time>2022-10-19T17:08:43Z</time>
      </trkpt>
      <trkpt lat="47.24724" lon="-1.6471">
        <ele>32</ele>
        <time>2022-10-19T17:08:54Z</time>
      </trkpt>
      <trkpt lat="47.24756" lon="-1.64666">
        <ele>31</ele>
        <time>2022-10-19T17:09:02Z</time>
      </trkpt>
      <trkpt lat="47.24777" lon="-1.64654">
        <ele>31</ele>
        <time>2022-10-19T17:09:06Z</time>
      </trkpt>
      <trkpt lat="47.24907" lon="-1.64636">
        <ele>35</ele>
        <time>2022-10-19T17:09:29Z</time>
      </trkpt>
      <trkpt lat="47.2495" lon="-1.64633">
        <ele>37</ele>
        <time>2022-10-19T17:09:37Z</time>
      </trkpt>
      <trkpt lat="47.24989" lon="-1.6462">
        <ele>38</ele>
        <time>2022-10-19T17:09:44Z</time>
      </trkpt>
      <trkpt lat="47.25021" lon="-1.646">
        <ele>40</ele>
        <time>2022-10-19T17:09:50Z</time>
      </trkpt>
      <trkpt lat="47.25047" lon="-1.64571">
        <ele>43</ele>
        <time>2022-10-19T17:09:56Z</time>
      </trkpt>
      <trkpt lat="47.25128" lon="-1.6449">
        <ele>49</ele>
        <time>2022-10-19T17:10:13Z</time>
      </trkpt>
      <trkpt lat="47.25242" lon="-1.64406">
        <ele>54</ele>
        <time>2022-10-19T17:10:36Z</time>
      </trkpt>
      <trkpt lat="47.25301" lon="-1.64351">
        <ele>57</ele>
        <time>2022-10-19T17:10:48Z</time>
      </trkpt>
      <trkpt lat="47.25356" lon="-1.64316">
        <ele>60</ele>
        <time>2022-10-19T17:10:59Z</time>
      </trkpt>
      <trkpt lat="47.25498" lon="-1.64273">
        <ele>62</ele>
        <time>2022-10-19T17:11:25Z</time>
      </trkpt>
      <trkpt lat="47.25519" lon="-1.64274">
        <ele>62</ele>
        <time>2022-10-19T17:11:28Z</time>
      </trkpt>
      <trkpt lat="47.25541" lon="-1.64287">
        <ele>62</ele>
        <time>2022-10-19T17:11:33Z</time>
      </trkpt>
      <trkpt lat="47.2556" lon="-1.64308">
        <ele>62</ele>
        <time>2022-10-19T17:11:37Z</time>
      </trkpt>
      <trkpt lat="47.25575" lon="-1.64333">
        <ele>62</ele>
        <time>2022-10-19T17:11:41Z</time>
      </trkpt>
      <trkpt lat="47.25591" lon="-1.64351">
        <ele>63</ele>
        <time>2022-10-19T17:11:44Z</time>
      </trkpt>
      <trkpt lat="47.25729" lon="-1.64404">
        <ele>64</ele>
        <time>2022-10-19T17:12:10Z</time>
      </trkpt>
      <trkpt lat="47.25753" lon="-1.64423">
        <ele>64</ele>
        <time>2022-10-19T17:12:15Z</time>
      </trkpt>
      <trkpt lat="47.25773" lon="-1.64445">
        <ele>63</ele>
        <time>2022-10-19T17:12:19Z</time>
      </trkpt>
      <trkpt lat="47.25789" lon="-1.64473">
        <ele>62</ele>
        <time>2022-10-19T17:12:24Z</time>
      </trkpt>
      <trkpt lat="47.25798" lon="-1.64534">
        <ele>62</ele>
        <time>2022-10-19T17:12:31Z</time>
      </trkpt>
      <trkpt lat="47.25809" lon="-1.64543">
        <ele>62</ele>
        <time>2022-10-19T17:12:33Z</time>
      </trkpt>
      <trkpt lat="47.25831" lon="-1.64532">
        <ele>61</ele>
        <time>2022-10-19T17:12:37Z</time>
      </trkpt>
      <trkpt lat="47.25872" lon="-1.64505">
        <ele>61</ele>
        <time>2022-10-19T17:12:45Z</time>
      </trkpt>
      <trkpt lat="47.26069" lon="-1.64397">
        <ele>58</ele>
        <time>2022-10-19T17:13:23Z</time>
      </trkpt>
      <trkpt lat="47.26081" lon="-1.64374">
        <ele>58</ele>
        <time>2022-10-19T17:13:26Z</time>
      </trkpt>
      <trkpt lat="47.26095" lon="-1.64378">
        <ele>57</ele>
        <time>2022-10-19T17:13:29Z</time>
      </trkpt>
      <trkpt lat="47.26341" lon="-1.64245">
        <ele>55</ele>
        <time>2022-10-19T17:14:16Z</time>
      </trkpt>
      <trkpt lat="47.26356" lon="-1.64228">
        <ele>55</ele>
        <time>2022-10-19T17:14:19Z</time>
      </trkpt>
      <trkpt lat="47.2638" lon="-1.64184">
        <ele>55</ele>
        <time>2022-10-19T17:14:26Z</time>
      </trkpt>
      <trkpt lat="47.26393" lon="-1.64168">
        <ele>56</ele>
        <time>2022-10-19T17:14:29Z</time>
      </trkpt>
      <trkpt lat="47.26478" lon="-1.6402">
        <ele>54</ele>
        <time>2022-10-19T17:14:52Z</time>
      </trkpt>
      <trkpt lat="47.26487" lon="-1.63988">
        <ele>53</ele>
        <time>2022-10-19T17:14:56Z</time>
      </trkpt>
      <trkpt lat="47.265" lon="-1.63909">
        <ele>51</ele>
        <time>2022-10-19T17:15:06Z</time>
      </trkpt>
      <trkpt lat="47.26495" lon="-1.63895">
        <ele>51</ele>
        <time>2022-10-19T17:15:08Z</time>
      </trkpt>
      <trkpt lat="47.26516" lon="-1.63766">
        <ele>46</ele>
        <time>2022-10-19T17:15:24Z</time>
      </trkpt>
      <trkpt lat="47.26522" lon="-1.63745">
        <ele>45</ele>
        <time>2022-10-19T17:15:27Z</time>
      </trkpt>
      <trkpt lat="47.26526" lon="-1.63699">
        <ele>45</ele>
        <time>2022-10-19T17:15:32Z</time>
      </trkpt>
      <trkpt lat="47.26525" lon="-1.6366">
        <ele>44</ele>
        <time>2022-10-19T17:15:37Z</time>
      </trkpt>
      <trkpt lat="47.26527" lon="-1.63627">
        <ele>43</ele>
        <time>2022-10-19T17:15:41Z</time>
      </trkpt>
      <trkpt lat="47.26534" lon="-1.63584">
        <ele>42</ele>
        <time>2022-10-19T17:15:46Z</time>
      </trkpt>
      <trkpt lat="47.26542" lon="-1.63558">
        <ele>41</ele>
        <time>2022-10-19T17:15:50Z</time>
      </trkpt>
      <trkpt lat="47.26556" lon="-1.63463">
        <ele>39</ele>
        <time>2022-10-19T17:16:02Z</time>
      </trkpt>
      <trkpt lat="47.26562" lon="-1.63401">
        <ele>37</ele>
        <time>2022-10-19T17:16:09Z</time>
      </trkpt>
      <trkpt lat="47.26547" lon="-1.63182">
        <ele>34</ele>
        <time>2022-10-19T17:16:36Z</time>
      </trkpt>
      <trkpt lat="47.26512" lon="-1.6308">
        <ele>37</ele>
        <time>2022-10-19T17:16:50Z</time>
      </trkpt>
      <trkpt lat="47.265" lon="-1.63033">
        <ele>40</ele>
        <time>2022-10-19T17:16:56Z</time>
      </trkpt>
      <trkpt lat="47.26495" lon="-1.62991">
        <ele>42</ele>
        <time>2022-10-19T17:17:01Z</time>
      </trkpt>
      <trkpt lat="47.26495" lon="-1.62949">
        <ele>44</ele>
        <time>2022-10-19T17:17:06Z</time>
      </trkpt>
      <trkpt lat="47.26512" lon="-1.62802">
        <ele>49</ele>
        <time>2022-10-19T17:17:24Z</time>
      </trkpt>
      <trkpt lat="47.26526" lon="-1.62648">
        <ele>50</ele>
        <time>2022-10-19T17:17:43Z</time>
      </trkpt>
      <trkpt lat="47.26525" lon="-1.62605">
        <ele>50</ele>
        <time>2022-10-19T17:17:48Z</time>
      </trkpt>
      <trkpt lat="47.2651" lon="-1.62533">
        <ele>54</ele>
        <time>2022-10-19T17:17:57Z</time>
      </trkpt>
      <trkpt lat="47.2648" lon="-1.62434">
        <ele>59</ele>
        <time>2022-10-19T17:18:10Z</time>
      </trkpt>
      <trkpt lat="47.26463" lon="-1.62366">
        <ele>60</ele>
        <time>2022-10-19T17:18:19Z</time>
      </trkpt>
      <trkpt lat="47.26453" lon="-1.62267">
        <ele>60</ele>
        <time>2022-10-19T17:18:31Z</time>
      </trkpt>
      <trkpt lat="47.26441" lon="-1.62226">
        <ele>58</ele>
        <time>2022-10-19T17:18:36Z</time>
      </trkpt>
      <trkpt lat="47.26421" lon="-1.62178">
        <ele>55</ele>
        <time>2022-10-19T17:18:43Z</time>
      </trkpt>
      <trkpt lat="47.26402" lon="-1.62143">
        <ele>52</ele>
        <time>2022-10-19T17:18:48Z</time>
      </trkpt>
      <trkpt lat="47.26399" lon="-1.62119">
        <ele>51</ele>
        <time>2022-10-19T17:18:51Z</time>
      </trkpt>
      <trkpt lat="47.26411" lon="-1.6209">
        <ele>49</ele>
        <time>2022-10-19T17:18:56Z</time>
      </trkpt>
      <trkpt lat="47.2642" lon="-1.6208">
        <ele>48</ele>
        <time>2022-10-19T17:18:58Z</time>
      </trkpt>
      <trkpt lat="47.26447" lon="-1.62063">
        <ele>46</ele>
        <time>2022-10-19T17:19:03Z</time>
      </trkpt>
      <trkpt lat="47.26465" lon="-1.62055">
        <ele>45</ele>
        <time>2022-10-19T17:19:06Z</time>
      </trkpt>
      <trkpt lat="47.26495" lon="-1.62049">
        <ele>44</ele>
        <time>2022-10-19T17:19:11Z</time>
      </trkpt>
      <trkpt lat="47.26604" lon="-1.62044">
        <ele>40</ele>
        <time>2022-10-19T17:19:31Z</time>
      </trkpt>
      <trkpt lat="47.26637" lon="-1.62046">
        <ele>39</ele>
        <time>2022-10-19T17:19:37Z</time>
      </trkpt>
      <trkpt lat="47.26653" lon="-1.62053">
        <ele>38</ele>
        <time>2022-10-19T17:19:40Z</time>
      </trkpt>
      <trkpt lat="47.2667" lon="-1.6207">
        <ele>37</ele>
        <time>2022-10-19T17:19:43Z</time>
      </trkpt>
      <trkpt lat="47.26684" lon="-1.621">
        <ele>35</ele>
        <time>2022-10-19T17:19:48Z</time>
      </trkpt>
      <trkpt lat="47.2669" lon="-1.62128">
        <ele>35</ele>
        <time>2022-10-19T17:19:51Z</time>
      </trkpt>
      <trkpt lat="47.26693" lon="-1.62169">
        <ele>36</ele>
        <time>2022-10-19T17:19:56Z</time>
      </trkpt>
      <trkpt lat="47.26705" lon="-1.6226">
        <ele>35</ele>
        <time>2022-10-19T17:20:08Z</time>
      </trkpt>
      <trkpt lat="47.26715" lon="-1.62285">
        <ele>33</ele>
        <time>2022-10-19T17:20:11Z</time>
      </trkpt>
      <trkpt lat="47.26732" lon="-1.62302">
        <ele>30</ele>
        <time>2022-10-19T17:20:15Z</time>
      </trkpt>
      <trkpt lat="47.2675" lon="-1.6231">
        <ele>26</ele>
        <time>2022-10-19T17:20:18Z</time>
      </trkpt>
      <trkpt lat="47.26772" lon="-1.62307">
        <ele>26</ele>
        <time>2022-10-19T17:20:22Z</time>
      </trkpt>
      <trkpt lat="47.26803" lon="-1.62319">
        <ele>26</ele>
        <time>2022-10-19T17:20:28Z</time>
      </trkpt>
      <trkpt lat="47.26815" lon="-1.62328">
        <ele>26</ele>
        <time>2022-10-19T17:20:30Z</time>
      </trkpt>
      <trkpt lat="47.26842" lon="-1.62387">
        <ele>29</ele>
        <time>2022-10-19T17:20:39Z</time>
      </trkpt>
      <trkpt lat="47.26857" lon="-1.62409">
        <ele>31</ele>
        <time>2022-10-19T17:20:42Z</time>
      </trkpt>
      <trkpt lat="47.26871" lon="-1.62421">
        <ele>33</ele>
        <time>2022-10-19T17:20:45Z</time>
      </trkpt>
      <trkpt lat="47.26893" lon="-1.6243">
        <ele>35</ele>
        <time>2022-10-19T17:20:49Z</time>
      </trkpt>
      <trkpt lat="47.26908" lon="-1.62426">
        <ele>37</ele>
        <time>2022-10-19T17:20:52Z</time>
      </trkpt>
      <trkpt lat="47.26908" lon="-1.62414">
        <ele>36</ele>
        <time>2022-10-19T17:20:54Z</time>
      </trkpt>
      <trkpt lat="47.26914" lon="-1.62407">
        <ele>36</ele>
        <time>2022-10-19T17:20:55Z</time>
      </trkpt>
      <trkpt lat="47.26926" lon="-1.62406">
        <ele>37</ele>
        <time>2022-10-19T17:20:57Z</time>
      </trkpt>
      <trkpt lat="47.26957" lon="-1.62395">
        <ele>40</ele>
        <time>2022-10-19T17:21:03Z</time>
      </trkpt>
      <trkpt lat="47.27018" lon="-1.62355">
        <ele>41</ele>
        <time>2022-10-19T17:21:15Z</time>
      </trkpt>
      <trkpt lat="47.27022" lon="-1.62344">
        <ele>41</ele>
        <time>2022-10-19T17:21:16Z</time>
      </trkpt>
      <trkpt lat="47.2703" lon="-1.62339">
        <ele>41</ele>
        <time>2022-10-19T17:21:18Z</time>
      </trkpt>
      <trkpt lat="47.27043" lon="-1.62341">
        <ele>42</ele>
        <time>2022-10-19T17:21:20Z</time>
      </trkpt>
      <trkpt lat="47.27068" lon="-1.62322">
        <ele>42</ele>
        <time>2022-10-19T17:21:25Z</time>
      </trkpt>
      <trkpt lat="47.27084" lon="-1.62314">
        <ele>43</ele>
        <time>2022-10-19T17:21:28Z</time>
      </trkpt>
      <trkpt lat="47.27104" lon="-1.62314">
        <ele>42</ele>
        <time>2022-10-19T17:21:32Z</time>
      </trkpt>
      <trkpt lat="47.27112" lon="-1.62306">
        <ele>42</ele>
        <time>2022-10-19T17:21:33Z</time>
      </trkpt>
      <trkpt lat="47.27119" lon="-1.62309">
        <ele>42</ele>
        <time>2022-10-19T17:21:35Z</time>
      </trkpt>
      <trkpt lat="47.27131" lon="-1.62303">
        <ele>41</ele>
        <time>2022-10-19T17:21:37Z</time>
      </trkpt>
      <trkpt lat="47.27166" lon="-1.6232">
        <ele>40</ele>
        <time>2022-10-19T17:21:43Z</time>
      </trkpt>
      <trkpt lat="47.27237" lon="-1.62345">
        <ele>38</ele>
        <time>2022-10-19T17:21:56Z</time>
      </trkpt>
      <trkpt lat="47.27282" lon="-1.62368">
        <ele>37</ele>
        <time>2022-10-19T17:22:05Z</time>
      </trkpt>
      <trkpt lat="47.27351" lon="-1.62421">
        <ele>36</ele>
        <time>2022-10-19T17:22:19Z</time>
      </trkpt>
      <trkpt lat="47.27517" lon="-1.62512">
        <ele>38</ele>
        <time>2022-10-19T17:22:50Z</time>
      </trkpt>
      <trkpt lat="47.27544" lon="-1.62515">
        <ele>39</ele>
        <time>2022-10-19T17:22:55Z</time>
      </trkpt>
      <trkpt lat="47.27558" lon="-1.62511">
        <ele>40</ele>
        <time>2022-10-19T17:22:58Z</time>
      </trkpt>
      <trkpt lat="47.27668" lon="-1.62449">
        <ele>46</ele>
        <time>2022-10-19T17:23:18Z</time>
      </trkpt>
      <trkpt lat="47.27721" lon="-1.62428">
        <ele>47</ele>
        <time>2022-10-19T17:23:28Z</time>
      </trkpt>
      <trkpt lat="47.27803" lon="-1.62401">
        <ele>46</ele>
        <time>2022-10-19T17:23:43Z</time>
      </trkpt>
      <trkpt lat="47.27834" lon="-1.62405">
        <ele>44</ele>
        <time>2022-10-19T17:23:49Z</time>
      </trkpt>
      <trkpt lat="47.27866" lon="-1.62415">
        <ele>44</ele>
        <time>2022-10-19T17:23:55Z</time>
      </trkpt>
      <trkpt lat="47.27915" lon="-1.62407">
        <ele>44</ele>
        <time>2022-10-19T17:24:03Z</time>
      </trkpt>
      <trkpt lat="47.27943" lon="-1.62398">
        <ele>44</ele>
        <time>2022-10-19T17:24:08Z</time>
      </trkpt>
      <trkpt lat="47.2796" lon="-1.62374">
        <ele>44</ele>
        <time>2022-10-19T17:24:13Z</time>
      </trkpt>
      <trkpt lat="47.27967" lon="-1.6235">
        <ele>43</ele>
        <time>2022-10-19T17:24:16Z</time>
      </trkpt>
      <trkpt lat="47.27963" lon="-1.62328">
        <ele>43</ele>
        <time>2022-10-19T17:24:18Z</time>
      </trkpt>
      <trkpt lat="47.27937" lon="-1.62286">
        <ele>41</ele>
        <time>2022-10-19T17:24:25Z</time>
      </trkpt>
      <trkpt lat="47.27932" lon="-1.62247">
        <ele>41</ele>
        <time>2022-10-19T17:24:30Z</time>
      </trkpt>
      <trkpt lat="47.27931" lon="-1.62188">
        <ele>41</ele>
        <time>2022-10-19T17:24:37Z</time>
      </trkpt>
      <trkpt lat="47.27935" lon="-1.62143">
        <ele>42</ele>
        <time>2022-10-19T17:24:43Z</time>
      </trkpt>
      <trkpt lat="47.27947" lon="-1.62115">
        <ele>43</ele>
        <time>2022-10-19T17:24:47Z</time>
      </trkpt>
      <trkpt lat="47.27983" lon="-1.62098">
        <ele>45</ele>
        <time>2022-10-19T17:24:53Z</time>
      </trkpt>
      <trkpt lat="47.28023" lon="-1.62074">
        <ele>47</ele>
        <time>2022-10-19T17:25:01Z</time>
      </trkpt>
      <trkpt lat="47.28037" lon="-1.62052">
        <ele>47</ele>
        <time>2022-10-19T17:25:05Z</time>
      </trkpt>
      <trkpt lat="47.28061" lon="-1.62">
        <ele>47</ele>
        <time>2022-10-19T17:25:12Z</time>
      </trkpt>
      <trkpt lat="47.28083" lon="-1.61961">
        <ele>49</ele>
        <time>2022-10-19T17:25:19Z</time>
      </trkpt>
      <trkpt lat="47.2811" lon="-1.6192">
        <ele>52</ele>
        <time>2022-10-19T17:25:25Z</time>
      </trkpt>
      <trkpt lat="47.28141" lon="-1.61885">
        <ele>55</ele>
        <time>2022-10-19T17:25:32Z</time>
      </trkpt>
      <trkpt lat="47.28406" lon="-1.61654">
        <ele>59</ele>
        <time>2022-10-19T17:26:27Z</time>
      </trkpt>
      <trkpt lat="47.28446" lon="-1.61625">
        <ele>58</ele>
        <time>2022-10-19T17:26:35Z</time>
      </trkpt>
      <trkpt lat="47.28484" lon="-1.61615">
        <ele>56</ele>
        <time>2022-10-19T17:26:42Z</time>
      </trkpt>
      <trkpt lat="47.28517" lon="-1.61598">
        <ele>56</ele>
        <time>2022-10-19T17:26:48Z</time>
      </trkpt>
      <trkpt lat="47.28543" lon="-1.61563">
        <ele>57</ele>
        <time>2022-10-19T17:26:54Z</time>
      </trkpt>
      <trkpt lat="47.28571" lon="-1.61514">
        <ele>60</ele>
        <time>2022-10-19T17:27:02Z</time>
      </trkpt>
      <trkpt lat="47.28591" lon="-1.61488">
        <ele>61</ele>
        <time>2022-10-19T17:27:07Z</time>
      </trkpt>
      <trkpt lat="47.28645" lon="-1.61445">
        <ele>61</ele>
        <time>2022-10-19T17:27:18Z</time>
      </trkpt>
      <trkpt lat="47.28691" lon="-1.61413">
        <ele>61</ele>
        <time>2022-10-19T17:27:27Z</time>
      </trkpt>
      <trkpt lat="47.28716" lon="-1.61384">
        <ele>61</ele>
        <time>2022-10-19T17:27:33Z</time>
      </trkpt>
      <trkpt lat="47.28744" lon="-1.61346">
        <ele>62</ele>
        <time>2022-10-19T17:27:39Z</time>
      </trkpt>
      <trkpt lat="47.29001" lon="-1.6091">
        <ele>64</ele>
        <time>2022-10-19T17:28:49Z</time>
      </trkpt>
      <trkpt lat="47.29047" lon="-1.60827">
        <ele>62</ele>
        <time>2022-10-19T17:29:02Z</time>
      </trkpt>
      <trkpt lat="47.29057" lon="-1.608">
        <ele>62</ele>
        <time>2022-10-19T17:29:06Z</time>
      </trkpt>
      <trkpt lat="47.29068" lon="-1.60797">
        <ele>62</ele>
        <time>2022-10-19T17:29:08Z</time>
      </trkpt>
      <trkpt lat="47.29086" lon="-1.60769">
        <ele>62</ele>
        <time>2022-10-19T17:29:12Z</time>
      </trkpt>
      <trkpt lat="47.2911" lon="-1.60743">
        <ele>62</ele>
        <time>2022-10-19T17:29:18Z</time>
      </trkpt>
      <trkpt lat="47.29136" lon="-1.60704">
        <ele>61</ele>
        <time>2022-10-19T17:29:24Z</time>
      </trkpt>
      <trkpt lat="47.29157" lon="-1.60665">
        <ele>61</ele>
        <time>2022-10-19T17:29:30Z</time>
      </trkpt>
      <trkpt lat="47.29178" lon="-1.60616">
        <ele>60</ele>
        <time>2022-10-19T17:29:37Z</time>
      </trkpt>
      <trkpt lat="47.29223" lon="-1.60501">
        <ele>57</ele>
        <time>2022-10-19T17:29:53Z</time>
      </trkpt>
      <trkpt lat="47.29241" lon="-1.60481">
        <ele>57</ele>
        <time>2022-10-19T17:29:57Z</time>
      </trkpt>
      <trkpt lat="47.29264" lon="-1.60469">
        <ele>56</ele>
        <time>2022-10-19T17:30:02Z</time>
      </trkpt>
      <trkpt lat="47.29291" lon="-1.60451">
        <ele>56</ele>
        <time>2022-10-19T17:30:07Z</time>
      </trkpt>
      <trkpt lat="47.29317" lon="-1.60417">
        <ele>56</ele>
        <time>2022-10-19T17:30:13Z</time>
      </trkpt>
      <trkpt lat="47.29361" lon="-1.60349">
        <ele>56</ele>
        <time>2022-10-19T17:30:24Z</time>
      </trkpt>
      <trkpt lat="47.29579" lon="-1.60034">
        <ele>63</ele>
        <time>2022-10-19T17:31:19Z</time>
      </trkpt>
      <trkpt lat="47.29935" lon="-1.59484">
        <ele>61</ele>
        <time>2022-10-19T17:32:50Z</time>
      </trkpt>
      <trkpt lat="47.29986" lon="-1.59409">
        <ele>58</ele>
        <time>2022-10-19T17:33:03Z</time>
      </trkpt>
      <trkpt lat="47.30053" lon="-1.59297">
        <ele>54</ele>
        <time>2022-10-19T17:33:21Z</time>
      </trkpt>
      <trkpt lat="47.30064" lon="-1.59265">
        <ele>54</ele>
        <time>2022-10-19T17:33:26Z</time>
      </trkpt>
      <trkpt lat="47.30069" lon="-1.59159">
        <ele>54</ele>
        <time>2022-10-19T17:33:38Z</time>
      </trkpt>
      <trkpt lat="47.30061" lon="-1.5911">
        <ele>53</ele>
        <time>2022-10-19T17:33:45Z</time>
      </trkpt>
      <trkpt lat="47.29997" lon="-1.5898">
        <ele>52</ele>
        <time>2022-10-19T17:34:04Z</time>
      </trkpt>
      <trkpt lat="47.29975" lon="-1.58912">
        <ele>50</ele>
        <time>2022-10-19T17:34:13Z</time>
      </trkpt>
      <trkpt lat="47.2998" lon="-1.58791">
        <ele>44</ele>
        <time>2022-10-19T17:34:28Z</time>
      </trkpt>
      <trkpt lat="47.29979" lon="-1.58757">
        <ele>42</ele>
        <time>2022-10-19T17:34:32Z</time>
      </trkpt>
      <trkpt lat="47.29932" lon="-1.58492">
        <ele>37</ele>
        <time>2022-10-19T17:35:05Z</time>
      </trkpt>
      <trkpt lat="47.29913" lon="-1.58277">
        <ele>35</ele>
        <time>2022-10-19T17:35:31Z</time>
      </trkpt>
      <trkpt lat="47.29888" lon="-1.57969">
        <ele>33</ele>
        <time>2022-10-19T17:36:08Z</time>
      </trkpt>
      <trkpt lat="47.29892" lon="-1.57944">
        <ele>33</ele>
        <time>2022-10-19T17:36:11Z</time>
      </trkpt>
      <trkpt lat="47.29904" lon="-1.5792">
        <ele>34</ele>
        <time>2022-10-19T17:36:15Z</time>
      </trkpt>
      <trkpt lat="47.29935" lon="-1.57788">
        <ele>35</ele>
        <time>2022-10-19T17:36:32Z</time>
      </trkpt>
      <trkpt lat="47.2994" lon="-1.57761">
        <ele>35</ele>
        <time>2022-10-19T17:36:35Z</time>
      </trkpt>
      <trkpt lat="47.29937" lon="-1.57736">
        <ele>35</ele>
        <time>2022-10-19T17:36:38Z</time>
      </trkpt>
      <trkpt lat="47.29892" lon="-1.5766">
        <ele>36</ele>
        <time>2022-10-19T17:36:51Z</time>
      </trkpt>
      <trkpt lat="47.29775" lon="-1.57481">
        <ele>35</ele>
        <time>2022-10-19T17:37:21Z</time>
      </trkpt>
      <trkpt lat="47.29767" lon="-1.5746">
        <ele>34</ele>
        <time>2022-10-19T17:37:23Z</time>
      </trkpt>
      <trkpt lat="47.29768" lon="-1.57437">
        <ele>34</ele>
        <time>2022-10-19T17:37:26Z</time>
      </trkpt>
      <trkpt lat="47.29777" lon="-1.5741">
        <ele>33</ele>
        <time>2022-10-19T17:37:30Z</time>
      </trkpt>
      <trkpt lat="47.29879" lon="-1.57225">
        <ele>27</ele>
        <time>2022-10-19T17:37:59Z</time>
      </trkpt>
      <trkpt lat="47.29885" lon="-1.57206">
        <ele>26</ele>
        <time>2022-10-19T17:38:01Z</time>
      </trkpt>
      <trkpt lat="47.29887" lon="-1.57179">
        <ele>25</ele>
        <time>2022-10-19T17:38:04Z</time>
      </trkpt>
      <trkpt lat="47.29876" lon="-1.57137">
        <ele>24</ele>
        <time>2022-10-19T17:38:10Z</time>
      </trkpt>
      <trkpt lat="47.29842" lon="-1.57041">
        <ele>19</ele>
        <time>2022-10-19T17:38:23Z</time>
      </trkpt>
      <trkpt lat="47.29835" lon="-1.57007">
        <ele>17</ele>
        <time>2022-10-19T17:38:27Z</time>
      </trkpt>
      <trkpt lat="47.29833" lon="-1.56941">
        <ele>13</ele>
        <time>2022-10-19T17:38:35Z</time>
      </trkpt>
      <trkpt lat="47.29828" lon="-1.56915">
        <ele>12</ele>
        <time>2022-10-19T17:38:38Z</time>
      </trkpt>
      <trkpt lat="47.29811" lon="-1.56891">
        <ele>15</ele>
        <time>2022-10-19T17:38:43Z</time>
      </trkpt>
      <trkpt lat="47.29802" lon="-1.56868">
        <ele>17</ele>
        <time>2022-10-19T17:38:46Z</time>
      </trkpt>
      <trkpt lat="47.298" lon="-1.56851">
        <ele>19</ele>
        <time>2022-10-19T17:38:48Z</time>
      </trkpt>
      <trkpt lat="47.29809" lon="-1.56813">
        <ele>21</ele>
        <time>2022-10-19T17:38:53Z</time>
      </trkpt>
      <trkpt lat="47.29833" lon="-1.56794">
        <ele>21</ele>
        <time>2022-10-19T17:38:58Z</time>
      </trkpt>
      <trkpt lat="47.29903" lon="-1.56761">
        <ele>18</ele>
        <time>2022-10-19T17:39:11Z</time>
      </trkpt>
      <trkpt lat="47.29913" lon="-1.56751">
        <ele>18</ele>
        <time>2022-10-19T17:39:13Z</time>
      </trkpt>
      <trkpt lat="47.29921" lon="-1.56736">
        <ele>18</ele>
        <time>2022-10-19T17:39:15Z</time>
      </trkpt>
      <trkpt lat="47.29926" lon="-1.56714">
        <ele>19</ele>
        <time>2022-10-19T17:39:18Z</time>
      </trkpt>
      <trkpt lat="47.29922" lon="-1.56689">
        <ele>21</ele>
        <time>2022-10-19T17:39:21Z</time>
      </trkpt>
      <trkpt lat="47.29884" lon="-1.5662">
        <ele>25</ele>
        <time>2022-10-19T17:39:32Z</time>
      </trkpt>
      <trkpt lat="47.29817" lon="-1.56487">
        <ele>30</ele>
        <time>2022-10-19T17:39:52Z</time>
      </trkpt>
      <trkpt lat="47.29809" lon="-1.56439">
        <ele>32</ele>
        <time>2022-10-19T17:39:58Z</time>
      </trkpt>
      <trkpt lat="47.29817" lon="-1.56407">
        <ele>33</ele>
        <time>2022-10-19T17:40:02Z</time>
      </trkpt>
      <trkpt lat="47.29827" lon="-1.56382">
        <ele>33</ele>
        <time>2022-10-19T17:40:05Z</time>
      </trkpt>
      <trkpt lat="47.29868" lon="-1.56303">
        <ele>35</ele>
        <time>2022-10-19T17:40:17Z</time>
      </trkpt>
      <trkpt lat="47.29917" lon="-1.56201">
        <ele>34</ele>
        <time>2022-10-19T17:40:32Z</time>
      </trkpt>
      <trkpt lat="47.29936" lon="-1.56113">
        <ele>34</ele>
        <time>2022-10-19T17:40:44Z</time>
      </trkpt>
      <trkpt lat="47.29952" lon="-1.55848">
        <ele>33</ele>
        <time>2022-10-19T17:41:16Z</time>
      </trkpt>
      <trkpt lat="47.29992" lon="-1.55653">
        <ele>31</ele>
        <time>2022-10-19T17:41:40Z</time>
      </trkpt>
      <trkpt lat="47.29999" lon="-1.55608">
        <ele>30</ele>
        <time>2022-10-19T17:41:46Z</time>
      </trkpt>
      <trkpt lat="47.3" lon="-1.55501">
        <ele>31</ele>
        <time>2022-10-19T17:41:59Z</time>
      </trkpt>
      <trkpt lat="47.29991" lon="-1.5537">
        <ele>28</ele>
        <time>2022-10-19T17:42:15Z</time>
      </trkpt>
      <trkpt lat="47.29983" lon="-1.55339">
        <ele>27</ele>
        <time>2022-10-19T17:42:19Z</time>
      </trkpt>
      <trkpt lat="47.29967" lon="-1.55324">
        <ele>27</ele>
        <time>2022-10-19T17:42:22Z</time>
      </trkpt>
      <trkpt lat="47.29955" lon="-1.55304">
        <ele>27</ele>
        <time>2022-10-19T17:42:25Z</time>
      </trkpt>
      <trkpt lat="47.2993" lon="-1.55226">
        <ele>27</ele>
        <time>2022-10-19T17:42:36Z</time>
      </trkpt>
      <trkpt lat="47.29907" lon="-1.5514">
        <ele>29</ele>
        <time>2022-10-19T17:42:47Z</time>
      </trkpt>
      <trkpt lat="47.29904" lon="-1.55033">
        <ele>30</ele>
        <time>2022-10-19T17:43:00Z</time>
      </trkpt>
      <trkpt lat="47.29931" lon="-1.5501">
        <ele>30</ele>
        <time>2022-10-19T17:43:05Z</time>
      </trkpt>
      <trkpt lat="47.29963" lon="-1.55004">
        <ele>29</ele>
        <time>2022-10-19T17:43:11Z</time>
      </trkpt>
      <trkpt lat="47.2998" lon="-1.5498">
        <ele>29</ele>
        <time>2022-10-19T17:43:15Z</time>
      </trkpt>
      <trkpt lat="47.301" lon="-1.54904">
        <ele>26</ele>
        <time>2022-10-19T17:43:38Z</time>
      </trkpt>
      <trkpt lat="47.30191" lon="-1.54836">
        <ele>24</ele>
        <time>2022-10-19T17:43:57Z</time>
      </trkpt>
      <trkpt lat="47.30265" lon="-1.54755">
        <ele>21</ele>
        <time>2022-10-19T17:44:13Z</time>
      </trkpt>
      <trkpt lat="47.30289" lon="-1.54725">
        <ele>20</ele>
        <time>2022-10-19T17:44:19Z</time>
      </trkpt>
      <trkpt lat="47.30303" lon="-1.54702">
        <ele>20</ele>
        <time>2022-10-19T17:44:22Z</time>
      </trkpt>
      <trkpt lat="47.30315" lon="-1.54671">
        <ele>19</ele>
        <time>2022-10-19T17:44:27Z</time>
      </trkpt>
      <trkpt lat="47.30329" lon="-1.5467">
        <ele>18</ele>
        <time>2022-10-19T17:44:29Z</time>
      </trkpt>
      <trkpt lat="47.30344" lon="-1.5466">
        <ele>18</ele>
        <time>2022-10-19T17:44:32Z</time>
      </trkpt>
      <trkpt lat="47.30357" lon="-1.54658">
        <ele>19</ele>
        <time>2022-10-19T17:44:34Z</time>
      </trkpt>
      <trkpt lat="47.30365" lon="-1.54651">
        <ele>19</ele>
        <time>2022-10-19T17:44:36Z</time>
      </trkpt>
      <trkpt lat="47.30389" lon="-1.54615">
        <ele>21</ele>
        <time>2022-10-19T17:44:42Z</time>
      </trkpt>
      <trkpt lat="47.30423" lon="-1.54574">
        <ele>23</ele>
        <time>2022-10-19T17:44:50Z</time>
      </trkpt>
      <trkpt lat="47.30492" lon="-1.54526">
        <ele>26</ele>
        <time>2022-10-19T17:45:04Z</time>
      </trkpt>
      <trkpt lat="47.30728" lon="-1.54322">
        <ele>23</ele>
        <time>2022-10-19T17:45:52Z</time>
      </trkpt>
      <trkpt lat="47.30758" lon="-1.54304">
        <ele>22</ele>
        <time>2022-10-19T17:45:58Z</time>
      </trkpt>
      <trkpt lat="47.30769" lon="-1.54302">
        <ele>22</ele>
        <time>2022-10-19T17:46:00Z</time>
      </trkpt>
      <trkpt lat="47.30786" lon="-1.54304">
        <ele>21</ele>
        <time>2022-10-19T17:46:03Z</time>
      </trkpt>
      <trkpt lat="47.3081" lon="-1.543">
        <ele>19</ele>
        <time>2022-10-19T17:46:07Z</time>
      </trkpt>
      <trkpt lat="47.30834" lon="-1.54292">
        <ele>18</ele>
        <time>2022-10-19T17:46:12Z</time>
      </trkpt>
      <trkpt lat="47.30862" lon="-1.54274">
        <ele>17</ele>
        <time>2022-10-19T17:46:17Z</time>
      </trkpt>
      <trkpt lat="47.30889" lon="-1.54272">
        <ele>16</ele>
        <time>2022-10-19T17:46:22Z</time>
      </trkpt>
      <trkpt lat="47.30929" lon="-1.54276">
        <ele>15</ele>
        <time>2022-10-19T17:46:29Z</time>
      </trkpt>
      <trkpt lat="47.30943" lon="-1.54281">
        <ele>14</ele>
        <time>2022-10-19T17:46:32Z</time>
      </trkpt>
      <trkpt lat="47.30971" lon="-1.54297">
        <ele>14</ele>
        <time>2022-10-19T17:46:37Z</time>
      </trkpt>
      <trkpt lat="47.31004" lon="-1.54284">
        <ele>13</ele>
        <time>2022-10-19T17:46:43Z</time>
      </trkpt>
      <trkpt lat="47.31116" lon="-1.54295">
        <ele>10</ele>
        <time>2022-10-19T17:47:03Z</time>
      </trkpt>
      <trkpt lat="47.31166" lon="-1.54294">
        <ele>9</ele>
        <time>2022-10-19T17:47:12Z</time>
      </trkpt>
      <trkpt lat="47.31198" lon="-1.54304">
        <ele>8</ele>
        <time>2022-10-19T17:47:18Z</time>
      </trkpt>
      <trkpt lat="47.31215" lon="-1.54327">
        <ele>8</ele>
        <time>2022-10-19T17:47:22Z</time>
      </trkpt>
      <trkpt lat="47.31229" lon="-1.54327">
        <ele>8</ele>
        <time>2022-10-19T17:47:24Z</time>
      </trkpt>
      <trkpt lat="47.31239" lon="-1.54323">
        <ele>7</ele>
        <time>2022-10-19T17:47:26Z</time>
      </trkpt>
      <trkpt lat="47.31247" lon="-1.54311">
        <ele>7</ele>
        <time>2022-10-19T17:47:28Z</time>
      </trkpt>
      <trkpt lat="47.31268" lon="-1.54302">
        <ele>7</ele>
        <time>2022-10-19T17:47:32Z</time>
      </trkpt>
      <trkpt lat="47.313" lon="-1.54302">
        <ele>8</ele>
        <time>2022-10-19T17:47:38Z</time>
      </trkpt>
      <trkpt lat="47.31333" lon="-1.54306">
        <ele>9</ele>
        <time>2022-10-19T17:47:44Z</time>
      </trkpt>
      <trkpt lat="47.31351" lon="-1.54315">
        <ele>9</ele>
        <time>2022-10-19T17:47:47Z</time>
      </trkpt>
      <trkpt lat="47.31384" lon="-1.5432">
        <ele>8</ele>
        <time>2022-10-19T17:47:53Z</time>
      </trkpt>
      <trkpt lat="47.31424" lon="-1.54322">
        <ele>8</ele>
        <time>2022-10-19T17:48:00Z</time>
      </trkpt>
      <trkpt lat="47.31448" lon="-1.5433">
        <ele>7</ele>
        <time>2022-10-19T17:48:04Z</time>
      </trkpt>
      <trkpt lat="47.3149" lon="-1.54336">
        <ele>6</ele>
        <time>2022-10-19T17:48:12Z</time>
      </trkpt>
      <trkpt lat="47.31506" lon="-1.54335">
        <ele>6</ele>
        <time>2022-10-19T17:48:15Z</time>
      </trkpt>
      <trkpt lat="47.31512" lon="-1.54329">
        <ele>6</ele>
        <time>2022-10-19T17:48:16Z</time>
      </trkpt>
      <trkpt lat="47.31576" lon="-1.54327">
        <ele>8</ele>
        <time>2022-10-19T17:48:27Z</time>
      </trkpt>
      <trkpt lat="47.31598" lon="-1.5433">
        <ele>9</ele>
        <time>2022-10-19T17:48:31Z</time>
      </trkpt>
      <trkpt lat="47.3162" lon="-1.54326">
        <ele>10</ele>
        <time>2022-10-19T17:48:35Z</time>
      </trkpt>
      <trkpt lat="47.31736" lon="-1.54219">
        <ele>11</ele>
        <time>2022-10-19T17:49:00Z</time>
      </trkpt>
      <trkpt lat="47.31772" lon="-1.54178">
        <ele>11</ele>
        <time>2022-10-19T17:49:08Z</time>
      </trkpt>
      <trkpt lat="47.31966" lon="-1.53784">
        <ele>11</ele>
        <time>2022-10-19T17:50:06Z</time>
      </trkpt>
      <trkpt lat="47.31989" lon="-1.53754">
        <ele>11</ele>
        <time>2022-10-19T17:50:12Z</time>
      </trkpt>
      <trkpt lat="47.32007" lon="-1.53741">
        <ele>11</ele>
        <time>2022-10-19T17:50:16Z</time>
      </trkpt>
      <trkpt lat="47.32037" lon="-1.53714">
        <ele>12</ele>
        <time>2022-10-19T17:50:22Z</time>
      </trkpt>
      <trkpt lat="47.32056" lon="-1.53693">
        <ele>12</ele>
        <time>2022-10-19T17:50:26Z</time>
      </trkpt>
      <trkpt lat="47.32068" lon="-1.53624">
        <ele>15</ele>
        <time>2022-10-19T17:50:35Z</time>
      </trkpt>
      <trkpt lat="47.32091" lon="-1.53602">
        <ele>15</ele>
        <time>2022-10-19T17:50:39Z</time>
      </trkpt>
      <trkpt lat="47.32111" lon="-1.53587">
        <ele>15</ele>
        <time>2022-10-19T17:50:43Z</time>
      </trkpt>
      <trkpt lat="47.32166" lon="-1.53585">
        <ele>15</ele>
        <time>2022-10-19T17:50:53Z</time>
      </trkpt>
      <trkpt lat="47.32214" lon="-1.5358">
        <ele>15</ele>
        <time>2022-10-19T17:51:02Z</time>
      </trkpt>
      <trkpt lat="47.32231" lon="-1.53582">
        <ele>14</ele>
        <time>2022-10-19T17:51:05Z</time>
      </trkpt>
      <trkpt lat="47.32239" lon="-1.53572">
        <ele>14</ele>
        <time>2022-10-19T17:51:07Z</time>
      </trkpt>
      <trkpt lat="47.32245" lon="-1.53549">
        <ele>15</ele>
        <time>2022-10-19T17:51:10Z</time>
      </trkpt>
      <trkpt lat="47.3225" lon="-1.53505">
        <ele>16</ele>
        <time>2022-10-19T17:51:15Z</time>
      </trkpt>
      <trkpt lat="47.32291" lon="-1.5353">
        <ele>18</ele>
        <time>2022-10-19T17:51:23Z</time>
      </trkpt>
      <trkpt lat="47.32424" lon="-1.53596">
        <ele>25</ele>
        <time>2022-10-19T17:51:48Z</time>
      </trkpt>
      <trkpt lat="47.32467" lon="-1.5362">
        <ele>27</ele>
        <time>2022-10-19T17:51:56Z</time>
      </trkpt>
      <trkpt lat="47.32508" lon="-1.53637">
        <ele>29</ele>
        <time>2022-10-19T17:52:04Z</time>
      </trkpt>
      <trkpt lat="47.32582" lon="-1.53674">
        <ele>29</ele>
        <time>2022-10-19T17:52:18Z</time>
      </trkpt>
      <trkpt lat="47.32612" lon="-1.53684">
        <ele>28</ele>
        <time>2022-10-19T17:52:23Z</time>
      </trkpt>
      <trkpt lat="47.3264" lon="-1.53697">
        <ele>26</ele>
        <time>2022-10-19T17:52:28Z</time>
      </trkpt>
      <trkpt lat="47.32674" lon="-1.53701">
        <ele>25</ele>
        <time>2022-10-19T17:52:34Z</time>
      </trkpt>
      <trkpt lat="47.32702" lon="-1.53699">
        <ele>23</ele>
        <time>2022-10-19T17:52:39Z</time>
      </trkpt>
      <trkpt lat="47.32734" lon="-1.53703">
        <ele>22</ele>
        <time>2022-10-19T17:52:45Z</time>
      </trkpt>
      <trkpt lat="47.32828" lon="-1.5369">
        <ele>17</ele>
        <time>2022-10-19T17:53:02Z</time>
      </trkpt>
      <trkpt lat="47.32868" lon="-1.53682">
        <ele>16</ele>
        <time>2022-10-19T17:53:09Z</time>
      </trkpt>
      <trkpt lat="47.32902" lon="-1.53681">
        <ele>15</ele>
        <time>2022-10-19T17:53:15Z</time>
      </trkpt>
      <trkpt lat="47.32937" lon="-1.53673">
        <ele>14</ele>
        <time>2022-10-19T17:53:21Z</time>
      </trkpt>
      <trkpt lat="47.33045" lon="-1.53635">
        <ele>15</ele>
        <time>2022-10-19T17:53:41Z</time>
      </trkpt>
      <trkpt lat="47.33121" lon="-1.53611">
        <ele>19</ele>
        <time>2022-10-19T17:53:55Z</time>
      </trkpt>
      <trkpt lat="47.33188" lon="-1.53585">
        <ele>21</ele>
        <time>2022-10-19T17:54:07Z</time>
      </trkpt>
      <trkpt lat="47.33252" lon="-1.53564">
        <ele>22</ele>
        <time>2022-10-19T17:54:19Z</time>
      </trkpt>
      <trkpt lat="47.33274" lon="-1.53547">
        <ele>22</ele>
        <time>2022-10-19T17:54:23Z</time>
      </trkpt>
      <trkpt lat="47.33374" lon="-1.53511">
        <ele>21</ele>
        <time>2022-10-19T17:54:42Z</time>
      </trkpt>
      <trkpt lat="47.33416" lon="-1.535">
        <ele>20</ele>
        <time>2022-10-19T17:54:49Z</time>
      </trkpt>
      <trkpt lat="47.33486" lon="-1.53485">
        <ele>18</ele>
        <time>2022-10-19T17:55:02Z</time>
      </trkpt>
      <trkpt lat="47.33636" lon="-1.53487">
        <ele>13</ele>
        <time>2022-10-19T17:55:29Z</time>
      </trkpt>
      <trkpt lat="47.33682" lon="-1.53477">
        <ele>13</ele>
        <time>2022-10-19T17:55:37Z</time>
      </trkpt>
      <trkpt lat="47.33721" lon="-1.53452">
        <ele>14</ele>
        <time>2022-10-19T17:55:44Z</time>
      </trkpt>
      <trkpt lat="47.3379" lon="-1.53392">
        <ele>14</ele>
        <time>2022-10-19T17:55:59Z</time>
      </trkpt>
      <trkpt lat="47.33858" lon="-1.53323">
        <ele>14</ele>
        <time>2022-10-19T17:56:13Z</time>
      </trkpt>
      <trkpt lat="47.33944" lon="-1.53217">
        <ele>13</ele>
        <time>2022-10-19T17:56:33Z</time>
      </trkpt>
      <trkpt lat="47.3395" lon="-1.53188">
        <ele>12</ele>
        <time>2022-10-19T17:56:37Z</time>
      </trkpt>
      <trkpt lat="47.33896" lon="-1.53083">
        <ele>7</ele>
        <time>2022-10-19T17:56:53Z</time>
      </trkpt>
      <trkpt lat="47.33898" lon="-1.53056">
        <ele>7</ele>
        <time>2022-10-19T17:56:56Z</time>
      </trkpt>
      <trkpt lat="47.33909" lon="-1.53018">
        <ele>6</ele>
        <time>2022-10-19T17:57:01Z</time>
      </trkpt>
      <trkpt lat="47.33968" lon="-1.52867">
        <ele>8</ele>
        <time>2022-10-19T17:57:22Z</time>
      </trkpt>
      <trkpt lat="47.33957" lon="-1.5285">
        <ele>8</ele>
        <time>2022-10-19T17:57:25Z</time>
      </trkpt>
      <trkpt lat="47.33913" lon="-1.52818">
        <ele>6</ele>
        <time>2022-10-19T17:57:34Z</time>
      </trkpt>
      <trkpt lat="47.33907" lon="-1.528">
        <ele>6</ele>
        <time>2022-10-19T17:57:36Z</time>
      </trkpt>
      <trkpt lat="47.33934" lon="-1.52645">
        <ele>7</ele>
        <time>2022-10-19T17:57:55Z</time>
      </trkpt>
      <trkpt lat="47.33938" lon="-1.52599">
        <ele>7</ele>
        <time>2022-10-19T17:58:01Z</time>
      </trkpt>
      <trkpt lat="47.33754" lon="-1.52528">
        <ele>7</ele>
        <time>2022-10-19T17:58:35Z</time>
      </trkpt>
      <trkpt lat="47.33707" lon="-1.52504">
        <ele>8</ele>
        <time>2022-10-19T17:58:44Z</time>
      </trkpt>
      <trkpt lat="47.33697" lon="-1.52481">
        <ele>10</ele>
        <time>2022-10-19T17:58:47Z</time>
      </trkpt>
      <trkpt lat="47.33702" lon="-1.52439">
        <ele>15</ele>
        <time>2022-10-19T17:58:52Z</time>
      </trkpt>
      <trkpt lat="47.33748" lon="-1.52219">
        <ele>20</ele>
        <time>2022-10-19T17:59:20Z</time>
      </trkpt>
      <trkpt lat="47.3376" lon="-1.52066">
        <ele>23</ele>
        <time>2022-10-19T17:59:38Z</time>
      </trkpt>
      <trkpt lat="47.33757" lon="-1.52033">
        <ele>23</ele>
        <time>2022-10-19T17:59:42Z</time>
      </trkpt>
      <trkpt lat="47.33759" lon="-1.52025">
        <ele>23</ele>
        <time>2022-10-19T17:59:43Z</time>
      </trkpt>
      <trkpt lat="47.33744" lon="-1.51908">
        <ele>24</ele>
        <time>2022-10-19T17:59:58Z</time>
      </trkpt>
      <trkpt lat="47.33741" lon="-1.51779">
        <ele>25</ele>
        <time>2022-10-19T18:00:13Z</time>
      </trkpt>
      <trkpt lat="47.33735" lon="-1.51692">
        <ele>25</ele>
        <time>2022-10-19T18:00:24Z</time>
      </trkpt>
      <trkpt lat="47.33722" lon="-1.51627">
        <ele>24</ele>
        <time>2022-10-19T18:00:32Z</time>
      </trkpt>
      <trkpt lat="47.33719" lon="-1.51616">
        <ele>24</ele>
        <time>2022-10-19T18:00:34Z</time>
      </trkpt>
      <trkpt lat="47.33714" lon="-1.51608">
        <ele>24</ele>
        <time>2022-10-19T18:00:35Z</time>
      </trkpt>
      <trkpt lat="47.33696" lon="-1.51518">
        <ele>23</ele>
        <time>2022-10-19T18:00:46Z</time>
      </trkpt>
      <trkpt lat="47.33682" lon="-1.51402">
        <ele>21</ele>
        <time>2022-10-19T18:01:00Z</time>
      </trkpt>
      <trkpt lat="47.33663" lon="-1.51317">
        <ele>19</ele>
        <time>2022-10-19T18:01:11Z</time>
      </trkpt>
      <trkpt lat="47.33656" lon="-1.51267">
        <ele>18</ele>
        <time>2022-10-19T18:01:17Z</time>
      </trkpt>
      <trkpt lat="47.3365" lon="-1.51127">
        <ele>16</ele>
        <time>2022-10-19T18:01:34Z</time>
      </trkpt>
      <trkpt lat="47.33651" lon="-1.51104">
        <ele>16</ele>
        <time>2022-10-19T18:01:37Z</time>
      </trkpt>
      <trkpt lat="47.33657" lon="-1.51071">
        <ele>15</ele>
        <time>2022-10-19T18:01:41Z</time>
      </trkpt>
      <trkpt lat="47.33685" lon="-1.50947">
        <ele>14</ele>
        <time>2022-10-19T18:01:57Z</time>
      </trkpt>
      <trkpt lat="47.33734" lon="-1.5068">
        <ele>11</ele>
        <time>2022-10-19T18:02:30Z</time>
      </trkpt>
      <trkpt lat="47.33768" lon="-1.50514">
        <ele>10</ele>
        <time>2022-10-19T18:02:51Z</time>
      </trkpt>
      <trkpt lat="47.33791" lon="-1.50383">
        <ele>10</ele>
        <time>2022-10-19T18:03:07Z</time>
      </trkpt>
      <trkpt lat="47.33758" lon="-1.50147">
        <ele>14</ele>
        <time>2022-10-19T18:03:37Z</time>
      </trkpt>
      <trkpt lat="47.3375" lon="-1.50049">
        <ele>15</ele>
        <time>2022-10-19T18:03:48Z</time>
      </trkpt>
      <trkpt lat="47.33744" lon="-1.50014">
        <ele>15</ele>
        <time>2022-10-19T18:03:53Z</time>
      </trkpt>
      <trkpt lat="47.33727" lon="-1.49945">
        <ele>13</ele>
        <time>2022-10-19T18:04:02Z</time>
      </trkpt>
      <trkpt lat="47.33715" lon="-1.49924">
        <ele>12</ele>
        <time>2022-10-19T18:04:05Z</time>
      </trkpt>
      <trkpt lat="47.33685" lon="-1.49891">
        <ele>10</ele>
        <time>2022-10-19T18:04:12Z</time>
      </trkpt>
      <trkpt lat="47.33664" lon="-1.49856">
        <ele>9</ele>
        <time>2022-10-19T18:04:17Z</time>
      </trkpt>
      <trkpt lat="47.33655" lon="-1.49822">
        <ele>8</ele>
        <time>2022-10-19T18:04:22Z</time>
      </trkpt>
      <trkpt lat="47.33639" lon="-1.49665">
        <ele>9</ele>
        <time>2022-10-19T18:04:41Z</time>
      </trkpt>
      <trkpt lat="47.33637" lon="-1.49563">
        <ele>9</ele>
        <time>2022-10-19T18:04:53Z</time>
      </trkpt>
      <trkpt lat="47.33633" lon="-1.49534">
        <ele>9</ele>
        <time>2022-10-19T18:04:57Z</time>
      </trkpt>
      <trkpt lat="47.3362" lon="-1.49481">
        <ele>9</ele>
        <time>2022-10-19T18:05:03Z</time>
      </trkpt>
      <trkpt lat="47.33556" lon="-1.49333">
        <ele>10</ele>
        <time>2022-10-19T18:05:25Z</time>
      </trkpt>
      <trkpt lat="47.33478" lon="-1.49169">
        <ele>9</ele>
        <time>2022-10-19T18:05:49Z</time>
      </trkpt>
      <trkpt lat="47.33435" lon="-1.49084">
        <ele>9</ele>
        <time>2022-10-19T18:06:02Z</time>
      </trkpt>
      <trkpt lat="47.33416" lon="-1.4904">
        <ele>8</ele>
        <time>2022-10-19T18:06:08Z</time>
      </trkpt>
      <trkpt lat="47.33408" lon="-1.49005">
        <ele>8</ele>
        <time>2022-10-19T18:06:12Z</time>
      </trkpt>
      <trkpt lat="47.33403" lon="-1.48963">
        <ele>9</ele>
        <time>2022-10-19T18:06:17Z</time>
      </trkpt>
      <trkpt lat="47.33376" lon="-1.48669">
        <ele>10</ele>
        <time>2022-10-19T18:06:53Z</time>
      </trkpt>
      <trkpt lat="47.33367" lon="-1.48628">
        <ele>10</ele>
        <time>2022-10-19T18:06:58Z</time>
      </trkpt>
      <trkpt lat="47.33346" lon="-1.48597">
        <ele>10</ele>
        <time>2022-10-19T18:07:04Z</time>
      </trkpt>
      <trkpt lat="47.33327" lon="-1.48562">
        <ele>10</ele>
        <time>2022-10-19T18:07:09Z</time>
      </trkpt>
      <trkpt lat="47.33304" lon="-1.48514">
        <ele>9</ele>
        <time>2022-10-19T18:07:16Z</time>
      </trkpt>
      <trkpt lat="47.33273" lon="-1.48438">
        <ele>8</ele>
        <time>2022-10-19T18:07:27Z</time>
      </trkpt>
      <trkpt lat="47.33149" lon="-1.48109">
        <ele>8</ele>
        <time>2022-10-19T18:08:12Z</time>
      </trkpt>
      <trkpt lat="47.33126" lon="-1.48024">
        <ele>8</ele>
        <time>2022-10-19T18:08:23Z</time>
      </trkpt>
      <trkpt lat="47.33117" lon="-1.47979">
        <ele>9</ele>
        <time>2022-10-19T18:08:29Z</time>
      </trkpt>
      <trkpt lat="47.3311" lon="-1.47911">
        <ele>9</ele>
        <time>2022-10-19T18:08:37Z</time>
      </trkpt>
      <trkpt lat="47.331" lon="-1.47749">
        <ele>8</ele>
        <time>2022-10-19T18:08:57Z</time>
      </trkpt>
      <trkpt lat="47.33091" lon="-1.47706">
        <ele>10</ele>
        <time>2022-10-19T18:09:02Z</time>
      </trkpt>
      <trkpt lat="47.33098" lon="-1.47668">
        <ele>11</ele>
        <time>2022-10-19T18:09:07Z</time>
      </trkpt>
      <trkpt lat="47.331" lon="-1.47566">
        <ele>10</ele>
        <time>2022-10-19T18:09:19Z</time>
      </trkpt>
      <trkpt lat="47.33106" lon="-1.47467">
        <ele>10</ele>
        <time>2022-10-19T18:09:31Z</time>
      </trkpt>
      <trkpt lat="47.33098" lon="-1.47429">
        <ele>11</ele>
        <time>2022-10-19T18:09:36Z</time>
      </trkpt>
      <trkpt lat="47.33075" lon="-1.47373">
        <ele>11</ele>
        <time>2022-10-19T18:09:44Z</time>
      </trkpt>
      <trkpt lat="47.33059" lon="-1.47352">
        <ele>11</ele>
        <time>2022-10-19T18:09:48Z</time>
      </trkpt>
      <trkpt lat="47.33003" lon="-1.47266">
        <ele>11</ele>
        <time>2022-10-19T18:10:02Z</time>
      </trkpt>
      <trkpt lat="47.32946" lon="-1.47207">
        <ele>12</ele>
        <time>2022-10-19T18:10:15Z</time>
      </trkpt>
      <trkpt lat="47.32936" lon="-1.47186">
        <ele>12</ele>
        <time>2022-10-19T18:10:18Z</time>
      </trkpt>
      <trkpt lat="47.32894" lon="-1.46945">
        <ele>16</ele>
        <time>2022-10-19T18:10:48Z</time>
      </trkpt>
      <trkpt lat="47.32889" lon="-1.46919">
        <ele>17</ele>
        <time>2022-10-19T18:10:51Z</time>
      </trkpt>
      <trkpt lat="47.32881" lon="-1.46897">
        <ele>17</ele>
        <time>2022-10-19T18:10:54Z</time>
      </trkpt>
      <trkpt lat="47.3287" lon="-1.46875">
        <ele>18</ele>
        <time>2022-10-19T18:10:57Z</time>
      </trkpt>
      <trkpt lat="47.32821" lon="-1.4685">
        <ele>18</ele>
        <time>2022-10-19T18:11:07Z</time>
      </trkpt>
      <trkpt lat="47.32803" lon="-1.46835">
        <ele>18</ele>
        <time>2022-10-19T18:11:10Z</time>
      </trkpt>
      <trkpt lat="47.3279" lon="-1.46818">
        <ele>18</ele>
        <time>2022-10-19T18:11:13Z</time>
      </trkpt>
      <trkpt lat="47.32775" lon="-1.46791">
        <ele>18</ele>
        <time>2022-10-19T18:11:18Z</time>
      </trkpt>
      <trkpt lat="47.32764" lon="-1.46757">
        <ele>19</ele>
        <time>2022-10-19T18:11:22Z</time>
      </trkpt>
      <trkpt lat="47.32752" lon="-1.46659">
        <ele>20</ele>
        <time>2022-10-19T18:11:34Z</time>
      </trkpt>
      <trkpt lat="47.32745" lon="-1.46629">
        <ele>21</ele>
        <time>2022-10-19T18:11:38Z</time>
      </trkpt>
      <trkpt lat="47.32733" lon="-1.46597">
        <ele>23</ele>
        <time>2022-10-19T18:11:42Z</time>
      </trkpt>
      <trkpt lat="47.32647" lon="-1.46428">
        <ele>27</ele>
        <time>2022-10-19T18:12:08Z</time>
      </trkpt>
      <trkpt lat="47.32642" lon="-1.46403">
        <ele>28</ele>
        <time>2022-10-19T18:12:11Z</time>
      </trkpt>
      <trkpt lat="47.32649" lon="-1.46322">
        <ele>31</ele>
        <time>2022-10-19T18:12:21Z</time>
      </trkpt>
      <trkpt lat="47.32656" lon="-1.46294">
        <ele>31</ele>
        <time>2022-10-19T18:12:24Z</time>
      </trkpt>
      <trkpt lat="47.32671" lon="-1.46264">
        <ele>32</ele>
        <time>2022-10-19T18:12:29Z</time>
      </trkpt>
      <trkpt lat="47.3275" lon="-1.46184">
        <ele>37</ele>
        <time>2022-10-19T18:12:46Z</time>
      </trkpt>
      <trkpt lat="47.32759" lon="-1.46163">
        <ele>38</ele>
        <time>2022-10-19T18:12:49Z</time>
      </trkpt>
      <trkpt lat="47.32765" lon="-1.46132">
        <ele>38</ele>
        <time>2022-10-19T18:12:53Z</time>
      </trkpt>
      <trkpt lat="47.3276" lon="-1.46033">
        <ele>41</ele>
        <time>2022-10-19T18:13:05Z</time>
      </trkpt>
      <trkpt lat="47.32766" lon="-1.46007">
        <ele>42</ele>
        <time>2022-10-19T18:13:08Z</time>
      </trkpt>
      <trkpt lat="47.32777" lon="-1.45984">
        <ele>43</ele>
        <time>2022-10-19T18:13:12Z</time>
      </trkpt>
      <trkpt lat="47.32891" lon="-1.45823">
        <ele>49</ele>
        <time>2022-10-19T18:13:40Z</time>
      </trkpt>
      <trkpt lat="47.32888" lon="-1.45816">
        <ele>49</ele>
        <time>2022-10-19T18:13:41Z</time>
      </trkpt>
      <trkpt lat="47.3288" lon="-1.45811">
        <ele>49</ele>
        <time>2022-10-19T18:13:42Z</time>
      </trkpt>
      <trkpt lat="47.32843" lon="-1.45803">
        <ele>48</ele>
        <time>2022-10-19T18:13:49Z</time>
      </trkpt>
      <trkpt lat="47.32829" lon="-1.45794">
        <ele>48</ele>
        <time>2022-10-19T18:13:52Z</time>
      </trkpt>
      <trkpt lat="47.32817" lon="-1.45779">
        <ele>48</ele>
        <time>2022-10-19T18:13:54Z</time>
      </trkpt>
      <trkpt lat="47.32808" lon="-1.45758">
        <ele>48</ele>
        <time>2022-10-19T18:13:57Z</time>
      </trkpt>
      <trkpt lat="47.32805" lon="-1.45691">
        <ele>49</ele>
        <time>2022-10-19T18:14:05Z</time>
      </trkpt>
      <trkpt lat="47.32797" lon="-1.45678">
        <ele>49</ele>
        <time>2022-10-19T18:14:08Z</time>
      </trkpt>
      <trkpt lat="47.32758" lon="-1.45646">
        <ele>50</ele>
        <time>2022-10-19T18:14:15Z</time>
      </trkpt>
      <trkpt lat="47.32741" lon="-1.45625">
        <ele>50</ele>
        <time>2022-10-19T18:14:19Z</time>
      </trkpt>
      <trkpt lat="47.32731" lon="-1.45606">
        <ele>51</ele>
        <time>2022-10-19T18:14:22Z</time>
      </trkpt>
      <trkpt lat="47.32722" lon="-1.45579">
        <ele>51</ele>
        <time>2022-10-19T18:14:26Z</time>
      </trkpt>
      <trkpt lat="47.32717" lon="-1.4555">
        <ele>52</ele>
        <time>2022-10-19T18:14:30Z</time>
      </trkpt>
      <trkpt lat="47.32771" lon="-1.45164">
        <ele>61</ele>
        <time>2022-10-19T18:15:17Z</time>
      </trkpt>
      <trkpt lat="47.32743" lon="-1.44923">
        <ele>65</ele>
        <time>2022-10-19T18:15:47Z</time>
      </trkpt>
      <trkpt lat="47.32731" lon="-1.44901">
        <ele>65</ele>
        <time>2022-10-19T18:15:50Z</time>
      </trkpt>
      <trkpt lat="47.32692" lon="-1.44866">
        <ele>66</ele>
        <time>2022-10-19T18:15:58Z</time>
      </trkpt>
      <trkpt lat="47.32495" lon="-1.44715">
        <ele>67</ele>
        <time>2022-10-19T18:16:38Z</time>
      </trkpt>
      <trkpt lat="47.32478" lon="-1.4468">
        <ele>67</ele>
        <time>2022-10-19T18:16:43Z</time>
      </trkpt>
      <trkpt lat="47.32508" lon="-1.44412">
        <ele>68</ele>
        <time>2022-10-19T18:17:16Z</time>
      </trkpt>
      <trkpt lat="47.32522" lon="-1.44239">
        <ele>70</ele>
        <time>2022-10-19T18:17:37Z</time>
      </trkpt>
      <trkpt lat="47.32567" lon="-1.43941">
        <ele>68</ele>
        <time>2022-10-19T18:18:13Z</time>
      </trkpt>
      <trkpt lat="47.32568" lon="-1.43916">
        <ele>68</ele>
        <time>2022-10-19T18:18:16Z</time>
      </trkpt>
      <trkpt lat="47.32501" lon="-1.43768">
        <ele>65</ele>
        <time>2022-10-19T18:18:38Z</time>
      </trkpt>
      <trkpt lat="47.32451" lon="-1.43721">
        <ele>65</ele>
        <time>2022-10-19T18:18:48Z</time>
      </trkpt>
      <trkpt lat="47.32423" lon="-1.43701">
        <ele>64</ele>
        <time>2022-10-19T18:18:54Z</time>
      </trkpt>
      <trkpt lat="47.32114" lon="-1.4362">
        <ele>58</ele>
        <time>2022-10-19T18:19:50Z</time>
      </trkpt>
      <trkpt lat="47.32108" lon="-1.43601">
        <ele>58</ele>
        <time>2022-10-19T18:19:52Z</time>
      </trkpt>
      <trkpt lat="47.32132" lon="-1.43401">
        <ele>57</ele>
        <time>2022-10-19T18:20:17Z</time>
      </trkpt>
      <trkpt lat="47.32147" lon="-1.43345">
        <ele>55</ele>
        <time>2022-10-19T18:20:24Z</time>
      </trkpt>
      <trkpt lat="47.32173" lon="-1.43288">
        <ele>54</ele>
        <time>2022-10-19T18:20:32Z</time>
      </trkpt>
      <trkpt lat="47.32241" lon="-1.43205">
        <ele>51</ele>
        <time>2022-10-19T18:20:48Z</time>
      </trkpt>
      <trkpt lat="47.32271" lon="-1.43161">
        <ele>49</ele>
        <time>2022-10-19T18:20:56Z</time>
      </trkpt>
      <trkpt lat="47.32289" lon="-1.4311">
        <ele>47</ele>
        <time>2022-10-19T18:21:03Z</time>
      </trkpt>
      <trkpt lat="47.32307" lon="-1.43032">
        <ele>44</ele>
        <time>2022-10-19T18:21:12Z</time>
      </trkpt>
      <trkpt lat="47.32332" lon="-1.4297">
        <ele>40</ele>
        <time>2022-10-19T18:21:21Z</time>
      </trkpt>
      <trkpt lat="47.32368" lon="-1.42909">
        <ele>36</ele>
        <time>2022-10-19T18:21:31Z</time>
      </trkpt>
      <trkpt lat="47.324" lon="-1.42861">
        <ele>30</ele>
        <time>2022-10-19T18:21:39Z</time>
      </trkpt>
      <trkpt lat="47.32437" lon="-1.4279">
        <ele>23</ele>
        <time>2022-10-19T18:21:50Z</time>
      </trkpt>
      <trkpt lat="47.32451" lon="-1.42785">
        <ele>23</ele>
        <time>2022-10-19T18:21:52Z</time>
      </trkpt>
      <trkpt lat="47.32465" lon="-1.42787">
        <ele>23</ele>
        <time>2022-10-19T18:21:55Z</time>
      </trkpt>
      <trkpt lat="47.3248" lon="-1.42801">
        <ele>23</ele>
        <time>2022-10-19T18:21:58Z</time>
      </trkpt>
      <trkpt lat="47.32515" lon="-1.42842">
        <ele>23</ele>
        <time>2022-10-19T18:22:06Z</time>
      </trkpt>
      <trkpt lat="47.32526" lon="-1.42846">
        <ele>24</ele>
        <time>2022-10-19T18:22:08Z</time>
      </trkpt>
      <trkpt lat="47.32545" lon="-1.42837">
        <ele>23</ele>
        <time>2022-10-19T18:22:12Z</time>
      </trkpt>
      <trkpt lat="47.32587" lon="-1.42798">
        <ele>27</ele>
        <time>2022-10-19T18:22:20Z</time>
      </trkpt>
      <trkpt lat="47.32601" lon="-1.42803">
        <ele>28</ele>
        <time>2022-10-19T18:22:23Z</time>
      </trkpt>
      <trkpt lat="47.32661" lon="-1.42873">
        <ele>31</ele>
        <time>2022-10-19T18:22:37Z</time>
      </trkpt>
      <trkpt lat="47.32685" lon="-1.4289">
        <ele>32</ele>
        <time>2022-10-19T18:22:41Z</time>
      </trkpt>
      <trkpt lat="47.32707" lon="-1.42891">
        <ele>35</ele>
        <time>2022-10-19T18:22:45Z</time>
      </trkpt>
      <trkpt lat="47.32736" lon="-1.42878">
        <ele>40</ele>
        <time>2022-10-19T18:22:51Z</time>
      </trkpt>
      <trkpt lat="47.32757" lon="-1.42874">
        <ele>43</ele>
        <time>2022-10-19T18:22:54Z</time>
      </trkpt>
      <trkpt lat="47.32826" lon="-1.42874">
        <ele>53</ele>
        <time>2022-10-19T18:23:07Z</time>
      </trkpt>
      <trkpt lat="47.32915" lon="-1.42868">
        <ele>60</ele>
        <time>2022-10-19T18:23:23Z</time>
      </trkpt>
      <trkpt lat="47.32926" lon="-1.4285">
        <ele>61</ele>
        <time>2022-10-19T18:23:25Z</time>
      </trkpt>
      <trkpt lat="47.32916" lon="-1.42801">
        <ele>64</ele>
        <time>2022-10-19T18:23:32Z</time>
      </trkpt>
      <trkpt lat="47.32917" lon="-1.42781">
        <ele>64</ele>
        <time>2022-10-19T18:23:34Z</time>
      </trkpt>
      <trkpt lat="47.32924" lon="-1.42754">
        <ele>65</ele>
        <time>2022-10-19T18:23:38Z</time>
      </trkpt>
      <trkpt lat="47.32937" lon="-1.42725">
        <ele>65</ele>
        <time>2022-10-19T18:23:42Z</time>
      </trkpt>
      <trkpt lat="47.32945" lon="-1.42697">
        <ele>64</ele>
        <time>2022-10-19T18:23:45Z</time>
      </trkpt>
      <trkpt lat="47.32946" lon="-1.4267">
        <ele>63</ele>
        <time>2022-10-19T18:23:49Z</time>
      </trkpt>
      <trkpt lat="47.3294" lon="-1.42563">
        <ele>62</ele>
        <time>2022-10-19T18:24:02Z</time>
      </trkpt>
      <trkpt lat="47.32862" lon="-1.4226">
        <ele>66</ele>
        <time>2022-10-19T18:24:41Z</time>
      </trkpt>
      <trkpt lat="47.32865" lon="-1.42242">
        <ele>66</ele>
        <time>2022-10-19T18:24:43Z</time>
      </trkpt>
      <trkpt lat="47.32921" lon="-1.42185">
        <ele>67</ele>
        <time>2022-10-19T18:24:55Z</time>
      </trkpt>
      <trkpt lat="47.32931" lon="-1.42157">
        <ele>67</ele>
        <time>2022-10-19T18:24:59Z</time>
      </trkpt>
      <trkpt lat="47.32959" lon="-1.42051">
        <ele>67</ele>
        <time>2022-10-19T18:25:13Z</time>
      </trkpt>
      <trkpt lat="47.32914" lon="-1.41997">
        <ele>67</ele>
        <time>2022-10-19T18:25:23Z</time>
      </trkpt>
      <trkpt lat="47.32867" lon="-1.41981">
        <ele>67</ele>
        <time>2022-10-19T18:25:31Z</time>
      </trkpt>
      <trkpt lat="47.3284" lon="-1.41948">
        <ele>68</ele>
        <time>2022-10-19T18:25:38Z</time>
      </trkpt>
      <trkpt lat="47.32784" lon="-1.41844">
        <ele>67</ele>
        <time>2022-10-19T18:25:54Z</time>
      </trkpt>
      <trkpt lat="47.32767" lon="-1.41822">
        <ele>66</ele>
        <time>2022-10-19T18:25:58Z</time>
      </trkpt>
      <trkpt lat="47.32739" lon="-1.41802">
        <ele>65</ele>
        <time>2022-10-19T18:26:03Z</time>
      </trkpt>
      <trkpt lat="47.32719" lon="-1.41773">
        <ele>65</ele>
        <time>2022-10-19T18:26:08Z</time>
      </trkpt>
      <trkpt lat="47.32705" lon="-1.41737">
        <ele>64</ele>
        <time>2022-10-19T18:26:13Z</time>
      </trkpt>
      <trkpt lat="47.32656" lon="-1.4157">
        <ele>63</ele>
        <time>2022-10-19T18:26:35Z</time>
      </trkpt>
      <trkpt lat="47.32635" lon="-1.41526">
        <ele>64</ele>
        <time>2022-10-19T18:26:42Z</time>
      </trkpt>
      <trkpt lat="47.32615" lon="-1.41504">
        <ele>65</ele>
        <time>2022-10-19T18:26:46Z</time>
      </trkpt>
      <trkpt lat="47.32587" lon="-1.41483">
        <ele>66</ele>
        <time>2022-10-19T18:26:52Z</time>
      </trkpt>
      <trkpt lat="47.32559" lon="-1.41442">
        <ele>67</ele>
        <time>2022-10-19T18:26:59Z</time>
      </trkpt>
      <trkpt lat="47.32535" lon="-1.41414">
        <ele>67</ele>
        <time>2022-10-19T18:27:04Z</time>
      </trkpt>
      <trkpt lat="47.32497" lon="-1.41395">
        <ele>66</ele>
        <time>2022-10-19T18:27:11Z</time>
      </trkpt>
      <trkpt lat="47.32462" lon="-1.41427">
        <ele>63</ele>
        <time>2022-10-19T18:27:19Z</time>
      </trkpt>
      <trkpt lat="47.3242" lon="-1.41495">
        <ele>58</ele>
        <time>2022-10-19T18:27:30Z</time>
      </trkpt>
      <trkpt lat="47.32305" lon="-1.41694">
        <ele>54</ele>
        <time>2022-10-19T18:28:01Z</time>
      </trkpt>
      <trkpt lat="47.32292" lon="-1.41722">
        <ele>54</ele>
        <time>2022-10-19T18:28:05Z</time>
      </trkpt>
      <trkpt lat="47.32276" lon="-1.41789">
        <ele>54</ele>
        <time>2022-10-19T18:28:14Z</time>
      </trkpt>
      <trkpt lat="47.32254" lon="-1.41913">
        <ele>50</ele>
        <time>2022-10-19T18:28:29Z</time>
      </trkpt>
      <trkpt lat="47.32228" lon="-1.41948">
        <ele>48</ele>
        <time>2022-10-19T18:28:36Z</time>
      </trkpt>
      <trkpt lat="47.32196" lon="-1.4197">
        <ele>43</ele>
        <time>2022-10-19T18:28:42Z</time>
      </trkpt>
      <trkpt lat="47.32161" lon="-1.41975">
        <ele>39</ele>
        <time>2022-10-19T18:28:48Z</time>
      </trkpt>
      <trkpt lat="47.32126" lon="-1.41953">
        <ele>35</ele>
        <time>2022-10-19T18:28:55Z</time>
      </trkpt>
      <trkpt lat="47.32071" lon="-1.4187">
        <ele>34</ele>
        <time>2022-10-19T18:29:09Z</time>
      </trkpt>
      <trkpt lat="47.31984" lon="-1.41729">
        <ele>31</ele>
        <time>2022-10-19T18:29:32Z</time>
      </trkpt>
      <trkpt lat="47.31929" lon="-1.41654">
        <ele>28</ele>
        <time>2022-10-19T18:29:45Z</time>
      </trkpt>
      <trkpt lat="47.31687" lon="-1.41547">
        <ele>14</ele>
        <time>2022-10-19T18:30:30Z</time>
      </trkpt>
      <trkpt lat="47.31649" lon="-1.41512">
        <ele>13</ele>
        <time>2022-10-19T18:30:38Z</time>
      </trkpt>
      <trkpt lat="47.31586" lon="-1.41446">
        <ele>15</ele>
        <time>2022-10-19T18:30:52Z</time>
      </trkpt>
      <trkpt lat="47.31522" lon="-1.41388">
        <ele>14</ele>
        <time>2022-10-19T18:31:05Z</time>
      </trkpt>
      <trkpt lat="47.31501" lon="-1.41374">
        <ele>13</ele>
        <time>2022-10-19T18:31:09Z</time>
      </trkpt>
      <trkpt lat="47.3145" lon="-1.41354">
        <ele>11</ele>
        <time>2022-10-19T18:31:19Z</time>
      </trkpt>
      <trkpt lat="47.31426" lon="-1.41332">
        <ele>10</ele>
        <time>2022-10-19T18:31:24Z</time>
      </trkpt>
      <trkpt lat="47.31408" lon="-1.41306">
        <ele>11</ele>
        <time>2022-10-19T18:31:28Z</time>
      </trkpt>
      <trkpt lat="47.31284" lon="-1.41098">
        <ele>14</ele>
        <time>2022-10-19T18:32:02Z</time>
      </trkpt>
      <trkpt lat="47.31271" lon="-1.4108">
        <ele>14</ele>
        <time>2022-10-19T18:32:05Z</time>
      </trkpt>
      <trkpt lat="47.31257" lon="-1.41066">
        <ele>13</ele>
        <time>2022-10-19T18:32:08Z</time>
      </trkpt>
      <trkpt lat="47.3121" lon="-1.41027">
        <ele>11</ele>
        <time>2022-10-19T18:32:18Z</time>
      </trkpt>
      <trkpt lat="47.31193" lon="-1.4101">
        <ele>10</ele>
        <time>2022-10-19T18:32:21Z</time>
      </trkpt>
      <trkpt lat="47.31176" lon="-1.40985">
        <ele>9</ele>
        <time>2022-10-19T18:32:25Z</time>
      </trkpt>
      <trkpt lat="47.31126" lon="-1.40878">
        <ele>10</ele>
        <time>2022-10-19T18:32:41Z</time>
      </trkpt>
      <trkpt lat="47.31077" lon="-1.40764">
        <ele>11</ele>
        <time>2022-10-19T18:32:57Z</time>
      </trkpt>
      <trkpt lat="47.31059" lon="-1.40728">
        <ele>12</ele>
        <time>2022-10-19T18:33:03Z</time>
      </trkpt>
      <trkpt lat="47.31044" lon="-1.40709">
        <ele>13</ele>
        <time>2022-10-19T18:33:06Z</time>
      </trkpt>
      <trkpt lat="47.31022" lon="-1.40693">
        <ele>12</ele>
        <time>2022-10-19T18:33:11Z</time>
      </trkpt>
      <trkpt lat="47.30882" lon="-1.40646">
        <ele>17</ele>
        <time>2022-10-19T18:33:36Z</time>
      </trkpt>
      <trkpt lat="47.30862" lon="-1.40635">
        <ele>17</ele>
        <time>2022-10-19T18:33:40Z</time>
      </trkpt>
      <trkpt lat="47.30786" lon="-1.40544">
        <ele>19</ele>
        <time>2022-10-19T18:33:57Z</time>
      </trkpt>
      <trkpt lat="47.30511" lon="-1.40192">
        <ele>26</ele>
        <time>2022-10-19T18:35:02Z</time>
      </trkpt>
      <trkpt lat="47.30485" lon="-1.40162">
        <ele>27</ele>
        <time>2022-10-19T18:35:08Z</time>
      </trkpt>
      <trkpt lat="47.30469" lon="-1.40148">
        <ele>28</ele>
        <time>2022-10-19T18:35:11Z</time>
      </trkpt>
      <trkpt lat="47.30449" lon="-1.4014">
        <ele>29</ele>
        <time>2022-10-19T18:35:15Z</time>
      </trkpt>
      <trkpt lat="47.30433" lon="-1.40138">
        <ele>29</ele>
        <time>2022-10-19T18:35:18Z</time>
      </trkpt>
      <trkpt lat="47.30384" lon="-1.40147">
        <ele>31</ele>
        <time>2022-10-19T18:35:27Z</time>
      </trkpt>
      <trkpt lat="47.30324" lon="-1.40165">
        <ele>34</ele>
        <time>2022-10-19T18:35:38Z</time>
      </trkpt>
      <trkpt lat="47.30296" lon="-1.40171">
        <ele>35</ele>
        <time>2022-10-19T18:35:43Z</time>
      </trkpt>
      <trkpt lat="47.30285" lon="-1.40173">
        <ele>35</ele>
        <time>2022-10-19T18:35:45Z</time>
      </trkpt>
      <trkpt lat="47.30269" lon="-1.40172">
        <ele>36</ele>
        <time>2022-10-19T18:35:48Z</time>
      </trkpt>
      <trkpt lat="47.30254" lon="-1.40166">
        <ele>37</ele>
        <time>2022-10-19T18:35:50Z</time>
      </trkpt>
      <trkpt lat="47.30233" lon="-1.40152">
        <ele>38</ele>
        <time>2022-10-19T18:35:54Z</time>
      </trkpt>
      <trkpt lat="47.30112" lon="-1.40048">
        <ele>44</ele>
        <time>2022-10-19T18:36:19Z</time>
      </trkpt>
      <trkpt lat="47.30094" lon="-1.40019">
        <ele>45</ele>
        <time>2022-10-19T18:36:24Z</time>
      </trkpt>
      <trkpt lat="47.30086" lon="-1.39992">
        <ele>45</ele>
        <time>2022-10-19T18:36:28Z</time>
      </trkpt>
      <trkpt lat="47.30083" lon="-1.39969">
        <ele>46</ele>
        <time>2022-10-19T18:36:30Z</time>
      </trkpt>
      <trkpt lat="47.30087" lon="-1.39938">
        <ele>47</ele>
        <time>2022-10-19T18:36:34Z</time>
      </trkpt>
      <trkpt lat="47.30092" lon="-1.3992">
        <ele>47</ele>
        <time>2022-10-19T18:36:37Z</time>
      </trkpt>
      <trkpt lat="47.30118" lon="-1.39866">
        <ele>49</ele>
        <time>2022-10-19T18:36:45Z</time>
      </trkpt>
      <trkpt lat="47.30116" lon="-1.39854">
        <ele>49</ele>
        <time>2022-10-19T18:36:46Z</time>
      </trkpt>
      <trkpt lat="47.30091" lon="-1.39828">
        <ele>50</ele>
        <time>2022-10-19T18:36:52Z</time>
      </trkpt>
      <trkpt lat="47.30069" lon="-1.39799">
        <ele>50</ele>
        <time>2022-10-19T18:36:57Z</time>
      </trkpt>
      <trkpt lat="47.30059" lon="-1.39769">
        <ele>51</ele>
        <time>2022-10-19T18:37:01Z</time>
      </trkpt>
      <trkpt lat="47.30048" lon="-1.39747">
        <ele>51</ele>
        <time>2022-10-19T18:37:04Z</time>
      </trkpt>
      <trkpt lat="47.30044" lon="-1.39748">
        <ele>50</ele>
        <time>2022-10-19T18:37:05Z</time>
      </trkpt>
      <trkpt lat="47.29984" lon="-1.39829">
        <ele>50</ele>
        <time>2022-10-19T18:37:19Z</time>
      </trkpt>
      <trkpt lat="47.29979" lon="-1.39833">
        <ele>50</ele>
        <time>2022-10-19T18:37:20Z</time>
      </trkpt>
      <trkpt lat="47.2997" lon="-1.39832">
        <ele>50</ele>
        <time>2022-10-19T18:37:22Z</time>
      </trkpt>
      <trkpt lat="47.29961" lon="-1.39825">
        <ele>50</ele>
        <time>2022-10-19T18:37:24Z</time>
      </trkpt>
      <trkpt lat="47.29925" lon="-1.39719">
        <ele>46</ele>
        <time>2022-10-19T18:37:38Z</time>
      </trkpt>
      <trkpt lat="47.29888" lon="-1.39594">
        <ele>42</ele>
        <time>2022-10-19T18:37:54Z</time>
      </trkpt>
      <trkpt lat="47.29864" lon="-1.3954">
        <ele>42</ele>
        <time>2022-10-19T18:38:02Z</time>
      </trkpt>
      <trkpt lat="47.2984" lon="-1.39516">
        <ele>43</ele>
        <time>2022-10-19T18:38:07Z</time>
      </trkpt>
      <trkpt lat="47.29766" lon="-1.39462">
        <ele>42</ele>
        <time>2022-10-19T18:38:22Z</time>
      </trkpt>
      <trkpt lat="47.29742" lon="-1.39439">
        <ele>41</ele>
        <time>2022-10-19T18:38:27Z</time>
      </trkpt>
      <trkpt lat="47.29739" lon="-1.39417">
        <ele>41</ele>
        <time>2022-10-19T18:38:30Z</time>
      </trkpt>
      <trkpt lat="47.29743" lon="-1.39285">
        <ele>41</ele>
        <time>2022-10-19T18:38:46Z</time>
      </trkpt>
      <trkpt lat="47.29739" lon="-1.39267">
        <ele>40</ele>
        <time>2022-10-19T18:38:48Z</time>
      </trkpt>
      <trkpt lat="47.29731" lon="-1.39254">
        <ele>40</ele>
        <time>2022-10-19T18:38:50Z</time>
      </trkpt>
      <trkpt lat="47.29722" lon="-1.39246">
        <ele>39</ele>
        <time>2022-10-19T18:38:52Z</time>
      </trkpt>
      <trkpt lat="47.29709" lon="-1.39241">
        <ele>38</ele>
        <time>2022-10-19T18:38:55Z</time>
      </trkpt>
      <trkpt lat="47.29702" lon="-1.39248">
        <ele>38</ele>
        <time>2022-10-19T18:38:56Z</time>
      </trkpt>
      <trkpt lat="47.2968" lon="-1.39283">
        <ele>37</ele>
        <time>2022-10-19T18:39:02Z</time>
      </trkpt>
      <trkpt lat="47.2966" lon="-1.39294">
        <ele>36</ele>
        <time>2022-10-19T18:39:06Z</time>
      </trkpt>
      <trkpt lat="47.29557" lon="-1.39324">
        <ele>31</ele>
        <time>2022-10-19T18:39:24Z</time>
      </trkpt>
      <trkpt lat="47.29553" lon="-1.39333">
        <ele>32</ele>
        <time>2022-10-19T18:39:26Z</time>
      </trkpt>
      <trkpt lat="47.29545" lon="-1.39369">
        <ele>32</ele>
        <time>2022-10-19T18:39:30Z</time>
      </trkpt>
      <trkpt lat="47.29509" lon="-1.39449">
        <ele>30</ele>
        <time>2022-10-19T18:39:42Z</time>
      </trkpt>
      <trkpt lat="47.29497" lon="-1.3947">
        <ele>29</ele>
        <time>2022-10-19T18:39:45Z</time>
      </trkpt>
      <trkpt lat="47.29484" lon="-1.39485">
        <ele>27</ele>
        <time>2022-10-19T18:39:48Z</time>
      </trkpt>
      <trkpt lat="47.29472" lon="-1.39491">
        <ele>26</ele>
        <time>2022-10-19T18:39:50Z</time>
      </trkpt>
      <trkpt lat="47.29456" lon="-1.39493">
        <ele>24</ele>
        <time>2022-10-19T18:39:53Z</time>
      </trkpt>
      <trkpt lat="47.29433" lon="-1.39484">
        <ele>22</ele>
        <time>2022-10-19T18:39:57Z</time>
      </trkpt>
      <trkpt lat="47.29424" lon="-1.39478">
        <ele>22</ele>
        <time>2022-10-19T18:39:59Z</time>
      </trkpt>
      <trkpt lat="47.29415" lon="-1.39469">
        <ele>22</ele>
        <time>2022-10-19T18:40:01Z</time>
      </trkpt>
      <trkpt lat="47.294" lon="-1.39447">
        <ele>20</ele>
        <time>2022-10-19T18:40:05Z</time>
      </trkpt>
      <trkpt lat="47.29391" lon="-1.3941">
        <ele>20</ele>
        <time>2022-10-19T18:40:10Z</time>
      </trkpt>
      <trkpt lat="47.29391" lon="-1.39384">
        <ele>20</ele>
        <time>2022-10-19T18:40:13Z</time>
      </trkpt>
      <trkpt lat="47.29404" lon="-1.39199">
        <ele>13</ele>
        <time>2022-10-19T18:40:35Z</time>
      </trkpt>
      <trkpt lat="47.2941" lon="-1.39169">
        <ele>13</ele>
        <time>2022-10-19T18:40:39Z</time>
      </trkpt>
      <trkpt lat="47.2941" lon="-1.39151">
        <ele>12</ele>
        <time>2022-10-19T18:40:41Z</time>
      </trkpt>
      <trkpt lat="47.29429" lon="-1.39059">
        <ele>12</ele>
        <time>2022-10-19T18:40:53Z</time>
      </trkpt>
      <trkpt lat="47.29442" lon="-1.38953">
        <ele>12</ele>
        <time>2022-10-19T18:41:06Z</time>
      </trkpt>
      <trkpt lat="47.29442" lon="-1.3893">
        <ele>12</ele>
        <time>2022-10-19T18:41:08Z</time>
      </trkpt>
      <trkpt lat="47.29435" lon="-1.38857">
        <ele>11</ele>
        <time>2022-10-19T18:41:17Z</time>
      </trkpt>
      <trkpt lat="47.29427" lon="-1.38829">
        <ele>10</ele>
        <time>2022-10-19T18:41:21Z</time>
      </trkpt>
      <trkpt lat="47.29363" lon="-1.38744">
        <ele>7</ele>
        <time>2022-10-19T18:41:36Z</time>
      </trkpt>
      <trkpt lat="47.29327" lon="-1.3872">
        <ele>6</ele>
        <time>2022-10-19T18:41:43Z</time>
      </trkpt>
      <trkpt lat="47.29327" lon="-1.38704">
        <ele>6</ele>
        <time>2022-10-19T18:41:45Z</time>
      </trkpt>
      <trkpt lat="47.29376" lon="-1.38545">
        <ele>7</ele>
        <time>2022-10-19T18:42:06Z</time>
      </trkpt>
      <trkpt lat="47.29399" lon="-1.38489">
        <ele>8</ele>
        <time>2022-10-19T18:42:14Z</time>
      </trkpt>
      <trkpt lat="47.29416" lon="-1.38428">
        <ele>7</ele>
        <time>2022-10-19T18:42:22Z</time>
      </trkpt>
      <trkpt lat="47.29432" lon="-1.3835">
        <ele>9</ele>
        <time>2022-10-19T18:42:32Z</time>
      </trkpt>
      <trkpt lat="47.29432" lon="-1.38336">
        <ele>9</ele>
        <time>2022-10-19T18:42:34Z</time>
      </trkpt>
      <trkpt lat="47.29426" lon="-1.38315">
        <ele>8</ele>
        <time>2022-10-19T18:42:37Z</time>
      </trkpt>
      <trkpt lat="47.294" lon="-1.3828">
        <ele>5</ele>
        <time>2022-10-19T18:42:43Z</time>
      </trkpt>
      <trkpt lat="47.29081" lon="-1.37893">
        <ele>7</ele>
        <time>2022-10-19T18:43:56Z</time>
      </trkpt>
      <trkpt lat="47.2893" lon="-1.37702">
        <ele>4</ele>
        <time>2022-10-19T18:44:32Z</time>
      </trkpt>
      <trkpt lat="47.28838" lon="-1.37594">
        <ele>6</ele>
        <time>2022-10-19T18:44:53Z</time>
      </trkpt>
      <trkpt lat="47.28831" lon="-1.37593">
        <ele>6</ele>
        <time>2022-10-19T18:44:54Z</time>
      </trkpt>
      <trkpt lat="47.28817" lon="-1.37599">
        <ele>6</ele>
        <time>2022-10-19T18:44:56Z</time>
      </trkpt>
      <trkpt lat="47.28775" lon="-1.37652">
        <ele>4</ele>
        <time>2022-10-19T18:45:06Z</time>
      </trkpt>
      <trkpt lat="47.28704" lon="-1.37735">
        <ele>5</ele>
        <time>2022-10-19T18:45:22Z</time>
      </trkpt>
      <trkpt lat="47.28683" lon="-1.37757">
        <ele>6</ele>
        <time>2022-10-19T18:45:27Z</time>
      </trkpt>
      <trkpt lat="47.28669" lon="-1.37756">
        <ele>7</ele>
        <time>2022-10-19T18:45:29Z</time>
      </trkpt>
      <trkpt lat="47.28639" lon="-1.37711">
        <ele>6</ele>
        <time>2022-10-19T18:45:37Z</time>
      </trkpt>
      <trkpt lat="47.28608" lon="-1.37684">
        <ele>5</ele>
        <time>2022-10-19T18:45:44Z</time>
      </trkpt>
      <trkpt lat="47.28497" lon="-1.37609">
        <ele>5</ele>
        <time>2022-10-19T18:46:05Z</time>
      </trkpt>
      <trkpt lat="47.28469" lon="-1.37581">
        <ele>5</ele>
        <time>2022-10-19T18:46:11Z</time>
      </trkpt>
      <trkpt lat="47.28414" lon="-1.37507">
        <ele>5</ele>
        <time>2022-10-19T18:46:24Z</time>
      </trkpt>
      <trkpt lat="47.28388" lon="-1.37485">
        <ele>5</ele>
        <time>2022-10-19T18:46:30Z</time>
      </trkpt>
      <trkpt lat="47.28365" lon="-1.37472">
        <ele>5</ele>
        <time>2022-10-19T18:46:34Z</time>
      </trkpt>
      <trkpt lat="47.28338" lon="-1.37461">
        <ele>5</ele>
        <time>2022-10-19T18:46:39Z</time>
      </trkpt>
      <trkpt lat="47.28264" lon="-1.37452">
        <ele>7</ele>
        <time>2022-10-19T18:46:52Z</time>
      </trkpt>
      <trkpt lat="47.2824" lon="-1.37445">
        <ele>7</ele>
        <time>2022-10-19T18:46:57Z</time>
      </trkpt>
      <trkpt lat="47.28216" lon="-1.37434">
        <ele>7</ele>
        <time>2022-10-19T18:47:01Z</time>
      </trkpt>
      <trkpt lat="47.28134" lon="-1.37354">
        <ele>7</ele>
        <time>2022-10-19T18:47:19Z</time>
      </trkpt>
      <trkpt lat="47.27923" lon="-1.37217">
        <ele>5</ele>
        <time>2022-10-19T18:48:00Z</time>
      </trkpt>
      <trkpt lat="47.27893" lon="-1.37204">
        <ele>5</ele>
        <time>2022-10-19T18:48:05Z</time>
      </trkpt>
      <trkpt lat="47.27845" lon="-1.37213">
        <ele>5</ele>
        <time>2022-10-19T18:48:14Z</time>
      </trkpt>
      <trkpt lat="47.27828" lon="-1.37211">
        <ele>5</ele>
        <time>2022-10-19T18:48:17Z</time>
      </trkpt>
      <trkpt lat="47.27809" lon="-1.37202">
        <ele>5</ele>
        <time>2022-10-19T18:48:21Z</time>
      </trkpt>
      <trkpt lat="47.27791" lon="-1.37189">
        <ele>5</ele>
        <time>2022-10-19T18:48:24Z</time>
      </trkpt>
      <trkpt lat="47.27776" lon="-1.3717">
        <ele>5</ele>
        <time>2022-10-19T18:48:28Z</time>
      </trkpt>
      <trkpt lat="47.27711" lon="-1.37054">
        <ele>5</ele>
        <time>2022-10-19T18:48:46Z</time>
      </trkpt>
      <trkpt lat="47.2768" lon="-1.36991">
        <ele>5</ele>
        <time>2022-10-19T18:48:55Z</time>
      </trkpt>
      <trkpt lat="47.27598" lon="-1.3684">
        <ele>3</ele>
        <time>2022-10-19T18:49:19Z</time>
      </trkpt>
      <trkpt lat="47.27581" lon="-1.36793">
        <ele>3</ele>
        <time>2022-10-19T18:49:25Z</time>
      </trkpt>
      <trkpt lat="47.27558" lon="-1.36676">
        <ele>4</ele>
        <time>2022-10-19T18:49:40Z</time>
      </trkpt>
      <trkpt lat="47.27548" lon="-1.36658">
        <ele>4</ele>
        <time>2022-10-19T18:49:42Z</time>
      </trkpt>
      <trkpt lat="47.27535" lon="-1.36644">
        <ele>5</ele>
        <time>2022-10-19T18:49:45Z</time>
      </trkpt>
      <trkpt lat="47.27518" lon="-1.36634">
        <ele>5</ele>
        <time>2022-10-19T18:49:49Z</time>
      </trkpt>
      <trkpt lat="47.27437" lon="-1.3663">
        <ele>4</ele>
        <time>2022-10-19T18:50:03Z</time>
      </trkpt>
      <trkpt lat="47.2742" lon="-1.36624">
        <ele>4</ele>
        <time>2022-10-19T18:50:06Z</time>
      </trkpt>
      <trkpt lat="47.27402" lon="-1.3661">
        <ele>4</ele>
        <time>2022-10-19T18:50:10Z</time>
      </trkpt>
      <trkpt lat="47.27389" lon="-1.36593">
        <ele>5</ele>
        <time>2022-10-19T18:50:13Z</time>
      </trkpt>
      <trkpt lat="47.27373" lon="-1.36566">
        <ele>5</ele>
        <time>2022-10-19T18:50:17Z</time>
      </trkpt>
      <trkpt lat="47.27358" lon="-1.36533">
        <ele>5</ele>
        <time>2022-10-19T18:50:22Z</time>
      </trkpt>
      <trkpt lat="47.27343" lon="-1.36511">
        <ele>6</ele>
        <time>2022-10-19T18:50:26Z</time>
      </trkpt>
      <trkpt lat="47.27306" lon="-1.36472">
        <ele>6</ele>
        <time>2022-10-19T18:50:34Z</time>
      </trkpt>
      <trkpt lat="47.2708" lon="-1.36336">
        <ele>6</ele>
        <time>2022-10-19T18:51:17Z</time>
      </trkpt>
      <trkpt lat="47.27039" lon="-1.36316">
        <ele>6</ele>
        <time>2022-10-19T18:51:25Z</time>
      </trkpt>
      <trkpt lat="47.2701" lon="-1.36269">
        <ele>5</ele>
        <time>2022-10-19T18:51:33Z</time>
      </trkpt>
      <trkpt lat="47.26916" lon="-1.36064">
        <ele>5</ele>
        <time>2022-10-19T18:52:02Z</time>
      </trkpt>
      <trkpt lat="47.26896" lon="-1.35995">
        <ele>5</ele>
        <time>2022-10-19T18:52:12Z</time>
      </trkpt>
      <trkpt lat="47.26876" lon="-1.35984">
        <ele>6</ele>
        <time>2022-10-19T18:52:15Z</time>
      </trkpt>
      <trkpt lat="47.26827" lon="-1.36018">
        <ele>6</ele>
        <time>2022-10-19T18:52:25Z</time>
      </trkpt>
      <trkpt lat="47.26795" lon="-1.36048">
        <ele>6</ele>
        <time>2022-10-19T18:52:32Z</time>
      </trkpt>
      <trkpt lat="47.26762" lon="-1.3609">
        <ele>5</ele>
        <time>2022-10-19T18:52:39Z</time>
      </trkpt>
      <trkpt lat="47.26734" lon="-1.36135">
        <ele>5</ele>
        <time>2022-10-19T18:52:47Z</time>
      </trkpt>
      <trkpt lat="47.26636" lon="-1.3619">
        <ele>5</ele>
        <time>2022-10-19T18:53:05Z</time>
      </trkpt>
      <trkpt lat="47.2653" lon="-1.3623">
        <ele>5</ele>
        <time>2022-10-19T18:53:25Z</time>
      </trkpt>
      <trkpt lat="47.26465" lon="-1.36268">
        <ele>4</ele>
        <time>2022-10-19T18:53:37Z</time>
      </trkpt>
      <trkpt lat="47.26419" lon="-1.36302">
        <ele>4</ele>
        <time>2022-10-19T18:53:47Z</time>
      </trkpt>
      <trkpt lat="47.26349" lon="-1.36342">
        <ele>4</ele>
        <time>2022-10-19T18:54:00Z</time>
      </trkpt>
      <trkpt lat="47.26297" lon="-1.36358">
        <ele>5</ele>
        <time>2022-10-19T18:54:09Z</time>
      </trkpt>
      <trkpt lat="47.26153" lon="-1.36376">
        <ele>4</ele>
        <time>2022-10-19T18:54:35Z</time>
      </trkpt>
      <trkpt lat="47.26125" lon="-1.36376">
        <ele>4</ele>
        <time>2022-10-19T18:54:40Z</time>
      </trkpt>
      <trkpt lat="47.26105" lon="-1.36361">
        <ele>3</ele>
        <time>2022-10-19T18:54:44Z</time>
      </trkpt>
      <trkpt lat="47.26096" lon="-1.36339">
        <ele>3</ele>
        <time>2022-10-19T18:54:47Z</time>
      </trkpt>
      <trkpt lat="47.26092" lon="-1.36273">
        <ele>5</ele>
        <time>2022-10-19T18:54:55Z</time>
      </trkpt>
      <trkpt lat="47.26095" lon="-1.36238">
        <ele>6</ele>
        <time>2022-10-19T18:54:59Z</time>
      </trkpt>
      <trkpt lat="47.26092" lon="-1.36186">
        <ele>8</ele>
        <time>2022-10-19T18:55:06Z</time>
      </trkpt>
      <trkpt lat="47.26083" lon="-1.36143">
        <ele>9</ele>
        <time>2022-10-19T18:55:11Z</time>
      </trkpt>
      <trkpt lat="47.26052" lon="-1.36054">
        <ele>12</ele>
        <time>2022-10-19T18:55:23Z</time>
      </trkpt>
      <trkpt lat="47.26041" lon="-1.36034">
        <ele>13</ele>
        <time>2022-10-19T18:55:26Z</time>
      </trkpt>
      <trkpt lat="47.26029" lon="-1.36042">
        <ele>13</ele>
        <time>2022-10-19T18:55:29Z</time>
      </trkpt>
      <trkpt lat="47.2602" lon="-1.3615">
        <ele>10</ele>
        <time>2022-10-19T18:55:42Z</time>
      </trkpt>
      <trkpt lat="47.26009" lon="-1.3619">
        <ele>9</ele>
        <time>2022-10-19T18:55:47Z</time>
      </trkpt>
      <trkpt lat="47.25986" lon="-1.36226">
        <ele>8</ele>
        <time>2022-10-19T18:55:53Z</time>
      </trkpt>
      <trkpt lat="47.25914" lon="-1.36288">
        <ele>8</ele>
        <time>2022-10-19T18:56:08Z</time>
      </trkpt>
      <trkpt lat="47.25874" lon="-1.36326">
        <ele>7</ele>
        <time>2022-10-19T18:56:16Z</time>
      </trkpt>
      <trkpt lat="47.25842" lon="-1.36363">
        <ele>6</ele>
        <time>2022-10-19T18:56:24Z</time>
      </trkpt>
      <trkpt lat="47.25747" lon="-1.36486">
        <ele>5</ele>
        <time>2022-10-19T18:56:46Z</time>
      </trkpt>
      <trkpt lat="47.25722" lon="-1.3651">
        <ele>5</ele>
        <time>2022-10-19T18:56:51Z</time>
      </trkpt>
      <trkpt lat="47.25653" lon="-1.3655">
        <ele>6</ele>
        <time>2022-10-19T18:57:05Z</time>
      </trkpt>
      <trkpt lat="47.25489" lon="-1.36612">
        <ele>5</ele>
        <time>2022-10-19T18:57:35Z</time>
      </trkpt>
      <trkpt lat="47.25443" lon="-1.36638">
        <ele>7</ele>
        <time>2022-10-19T18:57:43Z</time>
      </trkpt>
      <trkpt lat="47.25427" lon="-1.3665">
        <ele>7</ele>
        <time>2022-10-19T18:57:47Z</time>
      </trkpt>
      <trkpt lat="47.25408" lon="-1.36669">
        <ele>7</ele>
        <time>2022-10-19T18:57:51Z</time>
      </trkpt>
      <trkpt lat="47.25364" lon="-1.36704">
        <ele>8</ele>
        <time>2022-10-19T18:58:00Z</time>
      </trkpt>
      <trkpt lat="47.25341" lon="-1.36726">
        <ele>8</ele>
        <time>2022-10-19T18:58:05Z</time>
      </trkpt>
      <trkpt lat="47.25325" lon="-1.36747">
        <ele>8</ele>
        <time>2022-10-19T18:58:08Z</time>
      </trkpt>
      <trkpt lat="47.25271" lon="-1.36854">
        <ele>6</ele>
        <time>2022-10-19T18:58:24Z</time>
      </trkpt>
      <trkpt lat="47.25234" lon="-1.36901">
        <ele>5</ele>
        <time>2022-10-19T18:58:33Z</time>
      </trkpt>
      <trkpt lat="47.25216" lon="-1.36919">
        <ele>6</ele>
        <time>2022-10-19T18:58:37Z</time>
      </trkpt>
      <trkpt lat="47.2519" lon="-1.36939">
        <ele>7</ele>
        <time>2022-10-19T18:58:42Z</time>
      </trkpt>
      <trkpt lat="47.25096" lon="-1.36992">
        <ele>7</ele>
        <time>2022-10-19T18:59:00Z</time>
      </trkpt>
      <trkpt lat="47.25056" lon="-1.37012">
        <ele>6</ele>
        <time>2022-10-19T18:59:08Z</time>
      </trkpt>
      <trkpt lat="47.25029" lon="-1.37016">
        <ele>5</ele>
        <time>2022-10-19T18:59:12Z</time>
      </trkpt>
      <trkpt lat="47.24952" lon="-1.37021">
        <ele>5</ele>
        <time>2022-10-19T18:59:26Z</time>
      </trkpt>
      <trkpt lat="47.24924" lon="-1.3703">
        <ele>5</ele>
        <time>2022-10-19T18:59:31Z</time>
      </trkpt>
      <trkpt lat="47.24848" lon="-1.37069">
        <ele>4</ele>
        <time>2022-10-19T18:59:46Z</time>
      </trkpt>
      <trkpt lat="47.24832" lon="-1.37082">
        <ele>3</ele>
        <time>2022-10-19T18:59:49Z</time>
      </trkpt>
      <trkpt lat="47.24822" lon="-1.37093">
        <ele>3</ele>
        <time>2022-10-19T18:59:51Z</time>
      </trkpt>
      <trkpt lat="47.24817" lon="-1.37118">
        <ele>4</ele>
        <time>2022-10-19T18:59:54Z</time>
      </trkpt>
      <trkpt lat="47.24806" lon="-1.37123">
        <ele>4</ele>
        <time>2022-10-19T18:59:56Z</time>
      </trkpt>
      <trkpt lat="47.24794" lon="-1.37123">
        <ele>4</ele>
        <time>2022-10-19T18:59:58Z</time>
      </trkpt>
      <trkpt lat="47.24775" lon="-1.37164">
        <ele>5</ele>
        <time>2022-10-19T19:00:04Z</time>
      </trkpt>
      <trkpt lat="47.24751" lon="-1.37229">
        <ele>5</ele>
        <time>2022-10-19T19:00:13Z</time>
      </trkpt>
      <trkpt lat="47.24752" lon="-1.37241">
        <ele>5</ele>
        <time>2022-10-19T19:00:15Z</time>
      </trkpt>
      <trkpt lat="47.24748" lon="-1.37249">
        <ele>5</ele>
        <time>2022-10-19T19:00:16Z</time>
      </trkpt>
      <trkpt lat="47.24733" lon="-1.37243">
        <ele>5</ele>
        <time>2022-10-19T19:00:19Z</time>
      </trkpt>
      <trkpt lat="47.24531" lon="-1.37435">
        <ele>8</ele>
        <time>2022-10-19T19:01:02Z</time>
      </trkpt>
      <trkpt lat="47.2439" lon="-1.37534">
        <ele>10</ele>
        <time>2022-10-19T19:01:29Z</time>
      </trkpt>
      <trkpt lat="47.24335" lon="-1.37626">
        <ele>11</ele>
        <time>2022-10-19T19:01:44Z</time>
      </trkpt>
      <trkpt lat="47.24298" lon="-1.37675">
        <ele>12</ele>
        <time>2022-10-19T19:01:53Z</time>
      </trkpt>
      <trkpt lat="47.24255" lon="-1.37714">
        <ele>14</ele>
        <time>2022-10-19T19:02:02Z</time>
      </trkpt>
      <trkpt lat="47.24224" lon="-1.37734">
        <ele>15</ele>
        <time>2022-10-19T19:02:08Z</time>
      </trkpt>
      <trkpt lat="47.24199" lon="-1.37757">
        <ele>15</ele>
        <time>2022-10-19T19:02:13Z</time>
      </trkpt>
      <trkpt lat="47.2418" lon="-1.37783">
        <ele>15</ele>
        <time>2022-10-19T19:02:18Z</time>
      </trkpt>
      <trkpt lat="47.24168" lon="-1.37817">
        <ele>15</ele>
        <time>2022-10-19T19:02:22Z</time>
      </trkpt>
      <trkpt lat="47.24148" lon="-1.37907">
        <ele>16</ele>
        <time>2022-10-19T19:02:34Z</time>
      </trkpt>
      <trkpt lat="47.24146" lon="-1.37926">
        <ele>16</ele>
        <time>2022-10-19T19:02:36Z</time>
      </trkpt>
      <trkpt lat="47.24178" lon="-1.38035">
        <ele>16</ele>
        <time>2022-10-19T19:02:51Z</time>
      </trkpt>
      <trkpt lat="47.24211" lon="-1.38092">
        <ele>14</ele>
        <time>2022-10-19T19:03:00Z</time>
      </trkpt>
      <trkpt lat="47.24257" lon="-1.38145">
        <ele>12</ele>
        <time>2022-10-19T19:03:10Z</time>
      </trkpt>
      <trkpt lat="47.24265" lon="-1.38173">
        <ele>11</ele>
        <time>2022-10-19T19:03:14Z</time>
      </trkpt>
      <trkpt lat="47.24258" lon="-1.38229">
        <ele>10</ele>
        <time>2022-10-19T19:03:21Z</time>
      </trkpt>
      <trkpt lat="47.24229" lon="-1.38337">
        <ele>11</ele>
        <time>2022-10-19T19:03:35Z</time>
      </trkpt>
      <trkpt lat="47.24225" lon="-1.3838">
        <ele>12</ele>
        <time>2022-10-19T19:03:40Z</time>
      </trkpt>
      <trkpt lat="47.24232" lon="-1.38438">
        <ele>12</ele>
        <time>2022-10-19T19:03:47Z</time>
      </trkpt>
      <trkpt lat="47.24253" lon="-1.3848">
        <ele>12</ele>
        <time>2022-10-19T19:03:53Z</time>
      </trkpt>
      <trkpt lat="47.24348" lon="-1.38618">
        <ele>13</ele>
        <time>2022-10-19T19:04:17Z</time>
      </trkpt>
      <trkpt lat="47.24347" lon="-1.38642">
        <ele>13</ele>
        <time>2022-10-19T19:04:20Z</time>
      </trkpt>
      <trkpt lat="47.24233" lon="-1.38754">
        <ele>15</ele>
        <time>2022-10-19T19:04:44Z</time>
      </trkpt>
      <trkpt lat="47.24147" lon="-1.38804">
        <ele>16</ele>
        <time>2022-10-19T19:05:01Z</time>
      </trkpt>
      <trkpt lat="47.24181" lon="-1.39104">
        <ele>18</ele>
        <time>2022-10-19T19:05:37Z</time>
      </trkpt>
      <trkpt lat="47.2418" lon="-1.39136">
        <ele>19</ele>
        <time>2022-10-19T19:05:41Z</time>
      </trkpt>
      <trkpt lat="47.24143" lon="-1.39207">
        <ele>19</ele>
        <time>2022-10-19T19:05:52Z</time>
      </trkpt>
      <trkpt lat="47.2413" lon="-1.39252">
        <ele>19</ele>
        <time>2022-10-19T19:05:58Z</time>
      </trkpt>
      <trkpt lat="47.2411" lon="-1.39372">
        <ele>18</ele>
        <time>2022-10-19T19:06:13Z</time>
      </trkpt>
      <trkpt lat="47.24061" lon="-1.39544">
        <ele>17</ele>
        <time>2022-10-19T19:06:36Z</time>
      </trkpt>
      <trkpt lat="47.24052" lon="-1.39598">
        <ele>17</ele>
        <time>2022-10-19T19:06:42Z</time>
      </trkpt>
      <trkpt lat="47.24123" lon="-1.39755">
        <ele>18</ele>
        <time>2022-10-19T19:07:05Z</time>
      </trkpt>
      <trkpt lat="47.24194" lon="-1.39929">
        <ele>18</ele>
        <time>2022-10-19T19:07:30Z</time>
      </trkpt>
      <trkpt lat="47.24231" lon="-1.39957">
        <ele>19</ele>
        <time>2022-10-19T19:07:37Z</time>
      </trkpt>
      <trkpt lat="47.24226" lon="-1.39993">
        <ele>19</ele>
        <time>2022-10-19T19:07:41Z</time>
      </trkpt>
      <trkpt lat="47.24146" lon="-1.40102">
        <ele>19</ele>
        <time>2022-10-19T19:08:01Z</time>
      </trkpt>
      <trkpt lat="47.24129" lon="-1.40159">
        <ele>19</ele>
        <time>2022-10-19T19:08:08Z</time>
      </trkpt>
      <trkpt lat="47.24118" lon="-1.40233">
        <ele>18</ele>
        <time>2022-10-19T19:08:17Z</time>
      </trkpt>
      <trkpt lat="47.24098" lon="-1.40286">
        <ele>18</ele>
        <time>2022-10-19T19:08:25Z</time>
      </trkpt>
      <trkpt lat="47.23897" lon="-1.40529">
        <ele>17</ele>
        <time>2022-10-19T19:09:11Z</time>
      </trkpt>
      <trkpt lat="47.23733" lon="-1.4072">
        <ele>19</ele>
        <time>2022-10-19T19:09:48Z</time>
      </trkpt>
      <trkpt lat="47.23727" lon="-1.40747">
        <ele>20</ele>
        <time>2022-10-19T19:09:52Z</time>
      </trkpt>
      <trkpt lat="47.23754" lon="-1.40765">
        <ele>19</ele>
        <time>2022-10-19T19:09:57Z</time>
      </trkpt>
      <trkpt lat="47.23759" lon="-1.40796">
        <ele>19</ele>
        <time>2022-10-19T19:10:01Z</time>
      </trkpt>
      <trkpt lat="47.23751" lon="-1.40892">
        <ele>19</ele>
        <time>2022-10-19T19:10:12Z</time>
      </trkpt>
      <trkpt lat="47.23748" lon="-1.40963">
        <ele>19</ele>
        <time>2022-10-19T19:10:21Z</time>
      </trkpt>
      <trkpt lat="47.2374" lon="-1.41012">
        <ele>19</ele>
        <time>2022-10-19T19:10:27Z</time>
      </trkpt>
      <trkpt lat="47.23715" lon="-1.41052">
        <ele>19</ele>
        <time>2022-10-19T19:10:34Z</time>
      </trkpt>
      <trkpt lat="47.23659" lon="-1.41124">
        <ele>19</ele>
        <time>2022-10-19T19:10:47Z</time>
      </trkpt>
      <trkpt lat="47.2353" lon="-1.41269">
        <ele>17</ele>
        <time>2022-10-19T19:11:16Z</time>
      </trkpt>
      <trkpt lat="47.23464" lon="-1.41338">
        <ele>15</ele>
        <time>2022-10-19T19:11:30Z</time>
      </trkpt>
      <trkpt lat="47.23224" lon="-1.41537">
        <ele>15</ele>
        <time>2022-10-19T19:12:19Z</time>
      </trkpt>
      <trkpt lat="47.23216" lon="-1.41566">
        <ele>15</ele>
        <time>2022-10-19T19:12:23Z</time>
      </trkpt>
      <trkpt lat="47.23223" lon="-1.41645">
        <ele>15</ele>
        <time>2022-10-19T19:12:33Z</time>
      </trkpt>
      <trkpt lat="47.23199" lon="-1.41699">
        <ele>15</ele>
        <time>2022-10-19T19:12:40Z</time>
      </trkpt>
      <trkpt lat="47.23174" lon="-1.41724">
        <ele>15</ele>
        <time>2022-10-19T19:12:46Z</time>
      </trkpt>
      <trkpt lat="47.23152" lon="-1.41763">
        <ele>15</ele>
        <time>2022-10-19T19:12:52Z</time>
      </trkpt>
      <trkpt lat="47.23137" lon="-1.41796">
        <ele>15</ele>
        <time>2022-10-19T19:12:57Z</time>
      </trkpt>
      <trkpt lat="47.23108" lon="-1.41882">
        <ele>15</ele>
        <time>2022-10-19T19:13:08Z</time>
      </trkpt>
      <trkpt lat="47.23077" lon="-1.41946">
        <ele>15</ele>
        <time>2022-10-19T19:13:18Z</time>
      </trkpt>
      <trkpt lat="47.23045" lon="-1.42034">
        <ele>15</ele>
        <time>2022-10-19T19:13:30Z</time>
      </trkpt>
      <trkpt lat="47.23025" lon="-1.42132">
        <ele>15</ele>
        <time>2022-10-19T19:13:42Z</time>
      </trkpt>
      <trkpt lat="47.23017" lon="-1.42153">
        <ele>15</ele>
        <time>2022-10-19T19:13:45Z</time>
      </trkpt>
      <trkpt lat="47.22878" lon="-1.42293">
        <ele>11</ele>
        <time>2022-10-19T19:14:15Z</time>
      </trkpt>
      <trkpt lat="47.22815" lon="-1.42349">
        <ele>10</ele>
        <time>2022-10-19T19:14:28Z</time>
      </trkpt>
      <trkpt lat="47.22712" lon="-1.42423">
        <ele>10</ele>
        <time>2022-10-19T19:14:49Z</time>
      </trkpt>
      <trkpt lat="47.22696" lon="-1.42432">
        <ele>10</ele>
        <time>2022-10-19T19:14:52Z</time>
      </trkpt>
      <trkpt lat="47.22682" lon="-1.42454">
        <ele>9</ele>
        <time>2022-10-19T19:14:55Z</time>
      </trkpt>
      <trkpt lat="47.22636" lon="-1.4254">
        <ele>8</ele>
        <time>2022-10-19T19:15:09Z</time>
      </trkpt>
      <trkpt lat="47.22615" lon="-1.42592">
        <ele>8</ele>
        <time>2022-10-19T19:15:16Z</time>
      </trkpt>
      <trkpt lat="47.22597" lon="-1.42649">
        <ele>9</ele>
        <time>2022-10-19T19:15:23Z</time>
      </trkpt>
      <trkpt lat="47.2256" lon="-1.42791">
        <ele>11</ele>
        <time>2022-10-19T19:15:42Z</time>
      </trkpt>
      <trkpt lat="47.22413" lon="-1.43151">
        <ele>8</ele>
        <time>2022-10-19T19:16:33Z</time>
      </trkpt>
      <trkpt lat="47.22354" lon="-1.43274">
        <ele>7</ele>
        <time>2022-10-19T19:16:51Z</time>
      </trkpt>
      <trkpt lat="47.22324" lon="-1.43321">
        <ele>7</ele>
        <time>2022-10-19T19:16:59Z</time>
      </trkpt>
      <trkpt lat="47.22284" lon="-1.43372">
        <ele>8</ele>
        <time>2022-10-19T19:17:08Z</time>
      </trkpt>
      <trkpt lat="47.22282" lon="-1.43394">
        <ele>7</ele>
        <time>2022-10-19T19:17:11Z</time>
      </trkpt>
      <trkpt lat="47.22299" lon="-1.43416">
        <ele>6</ele>
        <time>2022-10-19T19:17:15Z</time>
      </trkpt>
      <trkpt lat="47.22302" lon="-1.43436">
        <ele>5</ele>
        <time>2022-10-19T19:17:17Z</time>
      </trkpt>
      <trkpt lat="47.22268" lon="-1.43474">
        <ele>5</ele>
        <time>2022-10-19T19:17:25Z</time>
      </trkpt>
      <trkpt lat="47.2223" lon="-1.43505">
        <ele>5</ele>
        <time>2022-10-19T19:17:32Z</time>
      </trkpt>
      <trkpt lat="47.22208" lon="-1.43514">
        <ele>5</ele>
        <time>2022-10-19T19:17:37Z</time>
      </trkpt>
      <trkpt lat="47.22183" lon="-1.4352">
        <ele>4</ele>
        <time>2022-10-19T19:17:41Z</time>
      </trkpt>
      <trkpt lat="47.2217" lon="-1.43517">
        <ele>5</ele>
        <time>2022-10-19T19:17:43Z</time>
      </trkpt>
      <trkpt lat="47.22078" lon="-1.43464">
        <ele>5</ele>
        <time>2022-10-19T19:18:01Z</time>
      </trkpt>
      <trkpt lat="47.22022" lon="-1.43455">
        <ele>4</ele>
        <time>2022-10-19T19:18:11Z</time>
      </trkpt>
      <trkpt lat="47.22004" lon="-1.43449">
        <ele>4</ele>
        <time>2022-10-19T19:18:14Z</time>
      </trkpt>
      <trkpt lat="47.21967" lon="-1.43425">
        <ele>5</ele>
        <time>2022-10-19T19:18:21Z</time>
      </trkpt>
      <trkpt lat="47.21949" lon="-1.43408">
        <ele>6</ele>
        <time>2022-10-19T19:18:25Z</time>
      </trkpt>
      <trkpt lat="47.21934" lon="-1.43413">
        <ele>6</ele>
        <time>2022-10-19T19:18:28Z</time>
      </trkpt>
      <trkpt lat="47.21903" lon="-1.43445">
        <ele>5</ele>
        <time>2022-10-19T19:18:35Z</time>
      </trkpt>
      <trkpt lat="47.21775" lon="-1.4354">
        <ele>5</ele>
        <time>2022-10-19T19:19:00Z</time>
      </trkpt>
      <trkpt lat="47.21716" lon="-1.43581">
        <ele>6</ele>
        <time>2022-10-19T19:19:12Z</time>
      </trkpt>
      <trkpt lat="47.21661" lon="-1.4363">
        <ele>5</ele>
        <time>2022-10-19T19:19:23Z</time>
      </trkpt>
      <trkpt lat="47.21636" lon="-1.43657">
        <ele>6</ele>
        <time>2022-10-19T19:19:29Z</time>
      </trkpt>
      <trkpt lat="47.21616" lon="-1.43661">
        <ele>6</ele>
        <time>2022-10-19T19:19:32Z</time>
      </trkpt>
      <trkpt lat="47.21604" lon="-1.43635">
        <ele>6</ele>
        <time>2022-10-19T19:19:36Z</time>
      </trkpt>
      <trkpt lat="47.21588" lon="-1.43608">
        <ele>6</ele>
        <time>2022-10-19T19:19:41Z</time>
      </trkpt>
      <trkpt lat="47.21537" lon="-1.43547">
        <ele>5</ele>
        <time>2022-10-19T19:19:52Z</time>
      </trkpt>
      <trkpt lat="47.21523" lon="-1.43504">
        <ele>5</ele>
        <time>2022-10-19T19:19:58Z</time>
      </trkpt>
      <trkpt lat="47.21515" lon="-1.43465">
        <ele>5</ele>
        <time>2022-10-19T19:20:03Z</time>
      </trkpt>
      <trkpt lat="47.21505" lon="-1.43446">
        <ele>5</ele>
        <time>2022-10-19T19:20:06Z</time>
      </trkpt>
      <trkpt lat="47.21496" lon="-1.43434">
        <ele>5</ele>
        <time>2022-10-19T19:20:08Z</time>
      </trkpt>
      <trkpt lat="47.2148" lon="-1.4342">
        <ele>5</ele>
        <time>2022-10-19T19:20:11Z</time>
      </trkpt>
      <trkpt lat="47.21462" lon="-1.4341">
        <ele>5</ele>
        <time>2022-10-19T19:20:15Z</time>
      </trkpt>
      <trkpt lat="47.21421" lon="-1.43381">
        <ele>5</ele>
        <time>2022-10-19T19:20:23Z</time>
      </trkpt>
      <trkpt lat="47.21406" lon="-1.43366">
        <ele>7</ele>
        <time>2022-10-19T19:20:26Z</time>
      </trkpt>
      <trkpt lat="47.214" lon="-1.43352">
        <ele>7</ele>
        <time>2022-10-19T19:20:28Z</time>
      </trkpt>
      <trkpt lat="47.21406" lon="-1.43332">
        <ele>7</ele>
        <time>2022-10-19T19:20:31Z</time>
      </trkpt>
      <trkpt lat="47.21428" lon="-1.43292">
        <ele>7</ele>
        <time>2022-10-19T19:20:37Z</time>
      </trkpt>
      <trkpt lat="47.21447" lon="-1.43235">
        <ele>7</ele>
        <time>2022-10-19T19:20:45Z</time>
      </trkpt>
      <trkpt lat="47.21469" lon="-1.4318">
        <ele>7</ele>
        <time>2022-10-19T19:20:52Z</time>
      </trkpt>
      <trkpt lat="47.2148" lon="-1.4314">
        <ele>6</ele>
        <time>2022-10-19T19:20:58Z</time>
      </trkpt>
      <trkpt lat="47.21483" lon="-1.43106">
        <ele>6</ele>
        <time>2022-10-19T19:21:02Z</time>
      </trkpt>
      <trkpt lat="47.21482" lon="-1.43056">
        <ele>5</ele>
        <time>2022-10-19T19:21:08Z</time>
      </trkpt>
      <trkpt lat="47.21466" lon="-1.42921">
        <ele>3</ele>
        <time>2022-10-19T19:21:24Z</time>
      </trkpt>
      <trkpt lat="47.21439" lon="-1.4278">
        <ele>4</ele>
        <time>2022-10-19T19:21:42Z</time>
      </trkpt>
      <trkpt lat="47.21441" lon="-1.42748">
        <ele>5</ele>
        <time>2022-10-19T19:21:46Z</time>
      </trkpt>
      <trkpt lat="47.21453" lon="-1.42691">
        <ele>5</ele>
        <time>2022-10-19T19:21:53Z</time>
      </trkpt>
      <trkpt lat="47.2145" lon="-1.42634">
        <ele>6</ele>
        <time>2022-10-19T19:22:00Z</time>
      </trkpt>
      <trkpt lat="47.21451" lon="-1.42595">
        <ele>6</ele>
        <time>2022-10-19T19:22:05Z</time>
      </trkpt>
      <trkpt lat="47.2146" lon="-1.42533">
        <ele>5</ele>
        <time>2022-10-19T19:22:12Z</time>
      </trkpt>
      <trkpt lat="47.21456" lon="-1.42508">
        <ele>6</ele>
        <time>2022-10-19T19:22:15Z</time>
      </trkpt>
      <trkpt lat="47.21444" lon="-1.42481">
        <ele>5</ele>
        <time>2022-10-19T19:22:19Z</time>
      </trkpt>
      <trkpt lat="47.21419" lon="-1.42457">
        <ele>5</ele>
        <time>2022-10-19T19:22:25Z</time>
      </trkpt>
      <trkpt lat="47.21385" lon="-1.42431">
        <ele>6</ele>
        <time>2022-10-19T19:22:31Z</time>
      </trkpt>
      <trkpt lat="47.21341" lon="-1.42408">
        <ele>9</ele>
        <time>2022-10-19T19:22:40Z</time>
      </trkpt>
      <trkpt lat="47.21297" lon="-1.42399">
        <ele>9</ele>
        <time>2022-10-19T19:22:48Z</time>
      </trkpt>
      <trkpt lat="47.21275" lon="-1.42387">
        <ele>8</ele>
        <time>2022-10-19T19:22:52Z</time>
      </trkpt>
      <trkpt lat="47.21211" lon="-1.42307">
        <ele>9</ele>
        <time>2022-10-19T19:23:07Z</time>
      </trkpt>
      <trkpt lat="47.21172" lon="-1.42252">
        <ele>7</ele>
        <time>2022-10-19T19:23:16Z</time>
      </trkpt>
      <trkpt lat="47.2114" lon="-1.42199">
        <ele>7</ele>
        <time>2022-10-19T19:23:25Z</time>
      </trkpt>
      <trkpt lat="47.21121" lon="-1.42148">
        <ele>6</ele>
        <time>2022-10-19T19:23:32Z</time>
      </trkpt>
      <trkpt lat="47.21101" lon="-1.42075">
        <ele>6</ele>
        <time>2022-10-19T19:23:42Z</time>
      </trkpt>
      <trkpt lat="47.2109" lon="-1.42058">
        <ele>7</ele>
        <time>2022-10-19T19:23:44Z</time>
      </trkpt>
      <trkpt lat="47.20908" lon="-1.41946">
        <ele>9</ele>
        <time>2022-10-19T19:24:19Z</time>
      </trkpt>
      <trkpt lat="47.20872" lon="-1.41933">
        <ele>8</ele>
        <time>2022-10-19T19:24:26Z</time>
      </trkpt>
      <trkpt lat="47.20845" lon="-1.41929">
        <ele>8</ele>
        <time>2022-10-19T19:24:31Z</time>
      </trkpt>
      <trkpt lat="47.20821" lon="-1.4194">
        <ele>8</ele>
        <time>2022-10-19T19:24:35Z</time>
      </trkpt>
      <trkpt lat="47.20776" lon="-1.41984">
        <ele>8</ele>
        <time>2022-10-19T19:24:45Z</time>
      </trkpt>
      <trkpt lat="47.20749" lon="-1.42003">
        <ele>8</ele>
        <time>2022-10-19T19:24:50Z</time>
      </trkpt>
      <trkpt lat="47.20682" lon="-1.42059">
        <ele>9</ele>
        <time>2022-10-19T19:25:04Z</time>
      </trkpt>
      <trkpt lat="47.20633" lon="-1.42122">
        <ele>10</ele>
        <time>2022-10-19T19:25:16Z</time>
      </trkpt>
      <trkpt lat="47.20467" lon="-1.42419">
        <ele>18</ele>
        <time>2022-10-19T19:26:02Z</time>
      </trkpt>
      <trkpt lat="47.20419" lon="-1.42476">
        <ele>18</ele>
        <time>2022-10-19T19:26:13Z</time>
      </trkpt>
      <trkpt lat="47.20357" lon="-1.42543">
        <ele>18</ele>
        <time>2022-10-19T19:26:27Z</time>
      </trkpt>
      <trkpt lat="47.20282" lon="-1.42613">
        <ele>20</ele>
        <time>2022-10-19T19:26:43Z</time>
      </trkpt>
      <trkpt lat="47.20221" lon="-1.42681">
        <ele>23</ele>
        <time>2022-10-19T19:26:56Z</time>
      </trkpt>
      <trkpt lat="47.20206" lon="-1.42712">
        <ele>24</ele>
        <time>2022-10-19T19:27:01Z</time>
      </trkpt>
      <trkpt lat="47.202" lon="-1.42761">
        <ele>25</ele>
        <time>2022-10-19T19:27:07Z</time>
      </trkpt>
      <trkpt lat="47.20184" lon="-1.42779">
        <ele>26</ele>
        <time>2022-10-19T19:27:10Z</time>
      </trkpt>
      <trkpt lat="47.20057" lon="-1.42832">
        <ele>28</ele>
        <time>2022-10-19T19:27:34Z</time>
      </trkpt>
      <trkpt lat="47.2" lon="-1.42852">
        <ele>27</ele>
        <time>2022-10-19T19:27:44Z</time>
      </trkpt>
      <trkpt lat="47.19965" lon="-1.42876">
        <ele>26</ele>
        <time>2022-10-19T19:27:51Z</time>
      </trkpt>
      <trkpt lat="47.19937" lon="-1.42899">
        <ele>25</ele>
        <time>2022-10-19T19:27:57Z</time>
      </trkpt>
      <trkpt lat="47.19922" lon="-1.42927">
        <ele>24</ele>
        <time>2022-10-19T19:28:01Z</time>
      </trkpt>
      <trkpt lat="47.19921" lon="-1.42979">
        <ele>21</ele>
        <time>2022-10-19T19:28:07Z</time>
      </trkpt>
      <trkpt lat="47.19918" lon="-1.43006">
        <ele>20</ele>
        <time>2022-10-19T19:28:11Z</time>
      </trkpt>
      <trkpt lat="47.19911" lon="-1.43018">
        <ele>20</ele>
        <time>2022-10-19T19:28:13Z</time>
      </trkpt>
      <trkpt lat="47.19895" lon="-1.43019">
        <ele>20</ele>
        <time>2022-10-19T19:28:16Z</time>
      </trkpt>
      <trkpt lat="47.19886" lon="-1.43024">
        <ele>20</ele>
        <time>2022-10-19T19:28:17Z</time>
      </trkpt>
      <trkpt lat="47.19887" lon="-1.43072">
        <ele>20</ele>
        <time>2022-10-19T19:28:23Z</time>
      </trkpt>
      <trkpt lat="47.19879" lon="-1.43082">
        <ele>20</ele>
        <time>2022-10-19T19:28:25Z</time>
      </trkpt>
      <trkpt lat="47.19862" lon="-1.43079">
        <ele>20</ele>
        <time>2022-10-19T19:28:28Z</time>
      </trkpt>
      <trkpt lat="47.1981" lon="-1.43076">
        <ele>22</ele>
        <time>2022-10-19T19:28:37Z</time>
      </trkpt>
      <trkpt lat="47.19793" lon="-1.43084">
        <ele>22</ele>
        <time>2022-10-19T19:28:40Z</time>
      </trkpt>
      <trkpt lat="47.19782" lon="-1.43085">
        <ele>22</ele>
        <time>2022-10-19T19:28:42Z</time>
      </trkpt>
      <trkpt lat="47.19694" lon="-1.43175">
        <ele>25</ele>
        <time>2022-10-19T19:29:01Z</time>
      </trkpt>
      <trkpt lat="47.19662" lon="-1.43196">
        <ele>26</ele>
        <time>2022-10-19T19:29:08Z</time>
      </trkpt>
      <trkpt lat="47.1964" lon="-1.43204">
        <ele>27</ele>
        <time>2022-10-19T19:29:12Z</time>
      </trkpt>
      <trkpt lat="47.19626" lon="-1.43216">
        <ele>28</ele>
        <time>2022-10-19T19:29:15Z</time>
      </trkpt>
      <trkpt lat="47.19489" lon="-1.43303">
        <ele>32</ele>
        <time>2022-10-19T19:29:41Z</time>
      </trkpt>
      <trkpt lat="47.19422" lon="-1.43362">
        <ele>33</ele>
        <time>2022-10-19T19:29:55Z</time>
      </trkpt>
      <trkpt lat="47.1938" lon="-1.43395">
        <ele>33</ele>
        <time>2022-10-19T19:30:03Z</time>
      </trkpt>
      <trkpt lat="47.19341" lon="-1.43422">
        <ele>34</ele>
        <time>2022-10-19T19:30:11Z</time>
      </trkpt>
      <trkpt lat="47.19289" lon="-1.43451">
        <ele>37</ele>
        <time>2022-10-19T19:30:21Z</time>
      </trkpt>
      <trkpt lat="47.19253" lon="-1.43479">
        <ele>38</ele>
        <time>2022-10-19T19:30:28Z</time>
      </trkpt>
      <trkpt lat="47.19213" lon="-1.435">
        <ele>38</ele>
        <time>2022-10-19T19:30:36Z</time>
      </trkpt>
      <trkpt lat="47.19137" lon="-1.43531">
        <ele>40</ele>
        <time>2022-10-19T19:30:50Z</time>
      </trkpt>
      <trkpt lat="47.19119" lon="-1.43536">
        <ele>41</ele>
        <time>2022-10-19T19:30:53Z</time>
      </trkpt>
      <trkpt lat="47.19063" lon="-1.43542">
        <ele>44</ele>
        <time>2022-10-19T19:31:03Z</time>
      </trkpt>
      <trkpt lat="47.19041" lon="-1.43549">
        <ele>45</ele>
        <time>2022-10-19T19:31:07Z</time>
      </trkpt>
      <trkpt lat="47.1897" lon="-1.43539">
        <ele>48</ele>
        <time>2022-10-19T19:31:20Z</time>
      </trkpt>
      <trkpt lat="47.18947" lon="-1.43545">
        <ele>49</ele>
        <time>2022-10-19T19:31:24Z</time>
      </trkpt>
      <trkpt lat="47.18898" lon="-1.43571">
        <ele>50</ele>
        <time>2022-10-19T19:31:33Z</time>
      </trkpt>
      <trkpt lat="47.18853" lon="-1.43604">
        <ele>51</ele>
        <time>2022-10-19T19:31:42Z</time>
      </trkpt>
      <trkpt lat="47.18765" lon="-1.43702">
        <ele>49</ele>
        <time>2022-10-19T19:32:02Z</time>
      </trkpt>
      <trkpt lat="47.18667" lon="-1.43763">
        <ele>49</ele>
        <time>2022-10-19T19:32:21Z</time>
      </trkpt>
      <trkpt lat="47.18485" lon="-1.43885">
        <ele>44</ele>
        <time>2022-10-19T19:32:56Z</time>
      </trkpt>
      <trkpt lat="47.18431" lon="-1.43924">
        <ele>42</ele>
        <time>2022-10-19T19:33:07Z</time>
      </trkpt>
      <trkpt lat="47.18372" lon="-1.43955">
        <ele>41</ele>
        <time>2022-10-19T19:33:18Z</time>
      </trkpt>
      <trkpt lat="47.18249" lon="-1.44027">
        <ele>37</ele>
        <time>2022-10-19T19:33:42Z</time>
      </trkpt>
      <trkpt lat="47.18222" lon="-1.44053">
        <ele>36</ele>
        <time>2022-10-19T19:33:47Z</time>
      </trkpt>
      <trkpt lat="47.18204" lon="-1.44091">
        <ele>36</ele>
        <time>2022-10-19T19:33:53Z</time>
      </trkpt>
      <trkpt lat="47.18171" lon="-1.44172">
        <ele>36</ele>
        <time>2022-10-19T19:34:05Z</time>
      </trkpt>
      <trkpt lat="47.18074" lon="-1.44433">
        <ele>29</ele>
        <time>2022-10-19T19:34:40Z</time>
      </trkpt>
      <trkpt lat="47.18045" lon="-1.44485">
        <ele>28</ele>
        <time>2022-10-19T19:34:49Z</time>
      </trkpt>
      <trkpt lat="47.17952" lon="-1.44597">
        <ele>27</ele>
        <time>2022-10-19T19:35:10Z</time>
      </trkpt>
      <trkpt lat="47.17912" lon="-1.44628">
        <ele>27</ele>
        <time>2022-10-19T19:35:18Z</time>
      </trkpt>
      <trkpt lat="47.17878" lon="-1.44643">
        <ele>27</ele>
        <time>2022-10-19T19:35:24Z</time>
      </trkpt>
      <trkpt lat="47.17761" lon="-1.44621">
        <ele>27</ele>
        <time>2022-10-19T19:35:45Z</time>
      </trkpt>
      <trkpt lat="47.17734" lon="-1.44625">
        <ele>27</ele>
        <time>2022-10-19T19:35:50Z</time>
      </trkpt>
      <trkpt lat="47.17699" lon="-1.44644">
        <ele>27</ele>
        <time>2022-10-19T19:35:57Z</time>
      </trkpt>
      <trkpt lat="47.17474" lon="-1.4482">
        <ele>34</ele>
        <time>2022-10-19T19:36:42Z</time>
      </trkpt>
      <trkpt lat="47.17428" lon="-1.44862">
        <ele>34</ele>
        <time>2022-10-19T19:36:52Z</time>
      </trkpt>
      <trkpt lat="47.17398" lon="-1.4492">
        <ele>32</ele>
        <time>2022-10-19T19:37:01Z</time>
      </trkpt>
      <trkpt lat="47.17271" lon="-1.45336">
        <ele>31</ele>
        <time>2022-10-19T19:37:56Z</time>
      </trkpt>
      <trkpt lat="47.17265" lon="-1.45387">
        <ele>32</ele>
        <time>2022-10-19T19:38:02Z</time>
      </trkpt>
      <trkpt lat="47.17264" lon="-1.45563">
        <ele>33</ele>
        <time>2022-10-19T19:38:23Z</time>
      </trkpt>
      <trkpt lat="47.17267" lon="-1.45599">
        <ele>33</ele>
        <time>2022-10-19T19:38:28Z</time>
      </trkpt>
      <trkpt lat="47.17275" lon="-1.45613">
        <ele>33</ele>
        <time>2022-10-19T19:38:30Z</time>
      </trkpt>
      <trkpt lat="47.17278" lon="-1.45632">
        <ele>33</ele>
        <time>2022-10-19T19:38:32Z</time>
      </trkpt>
      <trkpt lat="47.1727" lon="-1.45641">
        <ele>33</ele>
        <time>2022-10-19T19:38:34Z</time>
      </trkpt>
      <trkpt lat="47.17257" lon="-1.4564">
        <ele>33</ele>
        <time>2022-10-19T19:38:36Z</time>
      </trkpt>
      <trkpt lat="47.17237" lon="-1.45627">
        <ele>33</ele>
        <time>2022-10-19T19:38:40Z</time>
      </trkpt>
      <trkpt lat="47.1721" lon="-1.45621">
        <ele>34</ele>
        <time>2022-10-19T19:38:45Z</time>
      </trkpt>
      <trkpt lat="47.17185" lon="-1.45622">
        <ele>35</ele>
        <time>2022-10-19T19:38:50Z</time>
      </trkpt>
      <trkpt lat="47.17156" lon="-1.45628">
        <ele>36</ele>
        <time>2022-10-19T19:38:55Z</time>
      </trkpt>
      <trkpt lat="47.17104" lon="-1.45647">
        <ele>36</ele>
        <time>2022-10-19T19:39:04Z</time>
      </trkpt>
      <trkpt lat="47.17077" lon="-1.45661">
        <ele>36</ele>
        <time>2022-10-19T19:39:09Z</time>
      </trkpt>
      <trkpt lat="47.16929" lon="-1.45759">
        <ele>40</ele>
        <time>2022-10-19T19:39:38Z</time>
      </trkpt>
      <trkpt lat="47.16904" lon="-1.45782">
        <ele>41</ele>
        <time>2022-10-19T19:39:44Z</time>
      </trkpt>
      <trkpt lat="47.1689" lon="-1.45803">
        <ele>41</ele>
        <time>2022-10-19T19:39:47Z</time>
      </trkpt>
      <trkpt lat="47.16869" lon="-1.45804">
        <ele>41</ele>
        <time>2022-10-19T19:39:51Z</time>
      </trkpt>
      <trkpt lat="47.16849" lon="-1.45814">
        <ele>41</ele>
        <time>2022-10-19T19:39:55Z</time>
      </trkpt>
      <trkpt lat="47.1663" lon="-1.45963">
        <ele>37</ele>
        <time>2022-10-19T19:40:38Z</time>
      </trkpt>
      <trkpt lat="47.16557" lon="-1.46047">
        <ele>36</ele>
        <time>2022-10-19T19:40:54Z</time>
      </trkpt>
      <trkpt lat="47.16548" lon="-1.46082">
        <ele>36</ele>
        <time>2022-10-19T19:40:59Z</time>
      </trkpt>
      <trkpt lat="47.16535" lon="-1.46095">
        <ele>36</ele>
        <time>2022-10-19T19:41:01Z</time>
      </trkpt>
      <trkpt lat="47.16519" lon="-1.46094">
        <ele>35</ele>
        <time>2022-10-19T19:41:04Z</time>
      </trkpt>
      <trkpt lat="47.16503" lon="-1.46098">
        <ele>35</ele>
        <time>2022-10-19T19:41:07Z</time>
      </trkpt>
      <trkpt lat="47.16405" lon="-1.46206">
        <ele>37</ele>
        <time>2022-10-19T19:41:29Z</time>
      </trkpt>
      <trkpt lat="47.16368" lon="-1.4626">
        <ele>37</ele>
        <time>2022-10-19T19:41:38Z</time>
      </trkpt>
      <trkpt lat="47.16337" lon="-1.46322">
        <ele>37</ele>
        <time>2022-10-19T19:41:47Z</time>
      </trkpt>
      <trkpt lat="47.16311" lon="-1.46402">
        <ele>37</ele>
        <time>2022-10-19T19:41:58Z</time>
      </trkpt>
      <trkpt lat="47.16304" lon="-1.46433">
        <ele>36</ele>
        <time>2022-10-19T19:42:02Z</time>
      </trkpt>
      <trkpt lat="47.16288" lon="-1.4658">
        <ele>32</ele>
        <time>2022-10-19T19:42:20Z</time>
      </trkpt>
      <trkpt lat="47.16273" lon="-1.46791">
        <ele>26</ele>
        <time>2022-10-19T19:42:46Z</time>
      </trkpt>
      <trkpt lat="47.16279" lon="-1.46805">
        <ele>25</ele>
        <time>2022-10-19T19:42:48Z</time>
      </trkpt>
      <trkpt lat="47.1628" lon="-1.46825">
        <ele>24</ele>
        <time>2022-10-19T19:42:50Z</time>
      </trkpt>
      <trkpt lat="47.16265" lon="-1.46859">
        <ele>23</ele>
        <time>2022-10-19T19:42:55Z</time>
      </trkpt>
      <trkpt lat="47.16258" lon="-1.46948">
        <ele>22</ele>
        <time>2022-10-19T19:43:06Z</time>
      </trkpt>
      <trkpt lat="47.16256" lon="-1.47019">
        <ele>22</ele>
        <time>2022-10-19T19:43:15Z</time>
      </trkpt>
      <trkpt lat="47.16259" lon="-1.47072">
        <ele>21</ele>
        <time>2022-10-19T19:43:21Z</time>
      </trkpt>
      <trkpt lat="47.16265" lon="-1.47118">
        <ele>20</ele>
        <time>2022-10-19T19:43:27Z</time>
      </trkpt>
      <trkpt lat="47.16274" lon="-1.4716">
        <ele>18</ele>
        <time>2022-10-19T19:43:32Z</time>
      </trkpt>
      <trkpt lat="47.16319" lon="-1.47309">
        <ele>15</ele>
        <time>2022-10-19T19:43:52Z</time>
      </trkpt>
      <trkpt lat="47.16331" lon="-1.47332">
        <ele>14</ele>
        <time>2022-10-19T19:43:55Z</time>
      </trkpt>
      <trkpt lat="47.16333" lon="-1.47347">
        <ele>14</ele>
        <time>2022-10-19T19:43:57Z</time>
      </trkpt>
      <trkpt lat="47.16328" lon="-1.47369">
        <ele>13</ele>
        <time>2022-10-19T19:44:00Z</time>
      </trkpt>
      <trkpt lat="47.16328" lon="-1.47392">
        <ele>12</ele>
        <time>2022-10-19T19:44:03Z</time>
      </trkpt>
      <trkpt lat="47.16461" lon="-1.48001">
        <ele>6</ele>
        <time>2022-10-19T19:45:20Z</time>
      </trkpt>
      <trkpt lat="47.16523" lon="-1.48261">
        <ele>10</ele>
        <time>2022-10-19T19:45:53Z</time>
      </trkpt>
      <trkpt lat="47.1651" lon="-1.4831">
        <ele>12</ele>
        <time>2022-10-19T19:46:00Z</time>
      </trkpt>
      <trkpt lat="47.16509" lon="-1.48358">
        <ele>13</ele>
        <time>2022-10-19T19:46:06Z</time>
      </trkpt>
      <trkpt lat="47.16519" lon="-1.48422">
        <ele>15</ele>
        <time>2022-10-19T19:46:14Z</time>
      </trkpt>
      <trkpt lat="47.16537" lon="-1.48511">
        <ele>15</ele>
        <time>2022-10-19T19:46:25Z</time>
      </trkpt>
      <trkpt lat="47.16541" lon="-1.48551">
        <ele>15</ele>
        <time>2022-10-19T19:46:30Z</time>
      </trkpt>
      <trkpt lat="47.16541" lon="-1.48576">
        <ele>15</ele>
        <time>2022-10-19T19:46:33Z</time>
      </trkpt>
      <trkpt lat="47.16529" lon="-1.48675">
        <ele>16</ele>
        <time>2022-10-19T19:46:45Z</time>
      </trkpt>
      <trkpt lat="47.1651" lon="-1.4879">
        <ele>16</ele>
        <time>2022-10-19T19:46:59Z</time>
      </trkpt>
      <trkpt lat="47.16489" lon="-1.48822">
        <ele>17</ele>
        <time>2022-10-19T19:47:05Z</time>
      </trkpt>
      <trkpt lat="47.16469" lon="-1.48877">
        <ele>17</ele>
        <time>2022-10-19T19:47:12Z</time>
      </trkpt>
      <trkpt lat="47.16454" lon="-1.48901">
        <ele>17</ele>
        <time>2022-10-19T19:47:16Z</time>
      </trkpt>
      <trkpt lat="47.16417" lon="-1.48945">
        <ele>18</ele>
        <time>2022-10-19T19:47:24Z</time>
      </trkpt>
      <trkpt lat="47.16359" lon="-1.4903">
        <ele>18</ele>
        <time>2022-10-19T19:47:39Z</time>
      </trkpt>
      <trkpt lat="47.16271" lon="-1.49124">
        <ele>20</ele>
        <time>2022-10-19T19:47:58Z</time>
      </trkpt>
      <trkpt lat="47.16185" lon="-1.49206">
        <ele>22</ele>
        <time>2022-10-19T19:48:17Z</time>
      </trkpt>
      <trkpt lat="47.16146" lon="-1.49282">
        <ele>22</ele>
        <time>2022-10-19T19:48:28Z</time>
      </trkpt>
      <trkpt lat="47.16043" lon="-1.49421">
        <ele>21</ele>
        <time>2022-10-19T19:48:53Z</time>
      </trkpt>
      <trkpt lat="47.15704" lon="-1.50078">
        <ele>27</ele>
        <time>2022-10-19T19:50:33Z</time>
      </trkpt>
      <trkpt lat="47.15679" lon="-1.50118">
        <ele>27</ele>
        <time>2022-10-19T19:50:39Z</time>
      </trkpt>
      <trkpt lat="47.15612" lon="-1.50187">
        <ele>27</ele>
        <time>2022-10-19T19:50:54Z</time>
      </trkpt>
      <trkpt lat="47.15541" lon="-1.50251">
        <ele>29</ele>
        <time>2022-10-19T19:51:09Z</time>
      </trkpt>
      <trkpt lat="47.15513" lon="-1.50267">
        <ele>29</ele>
        <time>2022-10-19T19:51:14Z</time>
      </trkpt>
      <trkpt lat="47.15429" lon="-1.50307">
        <ele>28</ele>
        <time>2022-10-19T19:51:30Z</time>
      </trkpt>
      <trkpt lat="47.15405" lon="-1.50328">
        <ele>28</ele>
        <time>2022-10-19T19:51:35Z</time>
      </trkpt>
      <trkpt lat="47.15396" lon="-1.50375">
        <ele>28</ele>
        <time>2022-10-19T19:51:41Z</time>
      </trkpt>
      <trkpt lat="47.15415" lon="-1.50453">
        <ele>27</ele>
        <time>2022-10-19T19:51:51Z</time>
      </trkpt>
      <trkpt lat="47.15437" lon="-1.50514">
        <ele>26</ele>
        <time>2022-10-19T19:51:59Z</time>
      </trkpt>
      <trkpt lat="47.15467" lon="-1.50554">
        <ele>26</ele>
        <time>2022-10-19T19:52:06Z</time>
      </trkpt>
      <trkpt lat="47.15499" lon="-1.50634">
        <ele>25</ele>
        <time>2022-10-19T19:52:17Z</time>
      </trkpt>
      <trkpt lat="47.15526" lon="-1.50737">
        <ele>24</ele>
        <time>2022-10-19T19:52:31Z</time>
      </trkpt>
      <trkpt lat="47.15555" lon="-1.50793">
        <ele>20</ele>
        <time>2022-10-19T19:52:39Z</time>
      </trkpt>
      <trkpt lat="47.1558" lon="-1.50834">
        <ele>16</ele>
        <time>2022-10-19T19:52:46Z</time>
      </trkpt>
      <trkpt lat="47.15624" lon="-1.50885">
        <ele>14</ele>
        <time>2022-10-19T19:52:56Z</time>
      </trkpt>
      <trkpt lat="47.15674" lon="-1.50938">
        <ele>11</ele>
        <time>2022-10-19T19:53:07Z</time>
      </trkpt>
      <trkpt lat="47.15692" lon="-1.50969">
        <ele>11</ele>
        <time>2022-10-19T19:53:12Z</time>
      </trkpt>
      <trkpt lat="47.15879" lon="-1.51706">
        <ele>25</ele>
        <time>2022-10-19T19:54:47Z</time>
      </trkpt>
      <trkpt lat="47.15901" lon="-1.51775">
        <ele>25</ele>
        <time>2022-10-19T19:54:56Z</time>
      </trkpt>
      <trkpt lat="47.15964" lon="-1.51941">
        <ele>28</ele>
        <time>2022-10-19T19:55:19Z</time>
      </trkpt>
      <trkpt lat="47.15991" lon="-1.52022">
        <ele>26</ele>
        <time>2022-10-19T19:55:30Z</time>
      </trkpt>
      <trkpt lat="47.16011" lon="-1.5205">
        <ele>26</ele>
        <time>2022-10-19T19:55:35Z</time>
      </trkpt>
      <trkpt lat="47.15998" lon="-1.5208">
        <ele>26</ele>
        <time>2022-10-19T19:55:39Z</time>
      </trkpt>
      <trkpt lat="47.15849" lon="-1.52202">
        <ele>27</ele>
        <time>2022-10-19T19:56:10Z</time>
      </trkpt>
      <trkpt lat="47.15697" lon="-1.52279">
        <ele>28</ele>
        <time>2022-10-19T19:56:38Z</time>
      </trkpt>
      <trkpt lat="47.15615" lon="-1.52307">
        <ele>30</ele>
        <time>2022-10-19T19:56:53Z</time>
      </trkpt>
      <trkpt lat="47.155" lon="-1.52341">
        <ele>29</ele>
        <time>2022-10-19T19:57:14Z</time>
      </trkpt>
      <trkpt lat="47.15491" lon="-1.52371">
        <ele>30</ele>
        <time>2022-10-19T19:57:18Z</time>
      </trkpt>
      <trkpt lat="47.15499" lon="-1.52426">
        <ele>31</ele>
        <time>2022-10-19T19:57:25Z</time>
      </trkpt>
      <trkpt lat="47.15529" lon="-1.52504">
        <ele>31</ele>
        <time>2022-10-19T19:57:36Z</time>
      </trkpt>
      <trkpt lat="47.1555" lon="-1.52664">
        <ele>28</ele>
        <time>2022-10-19T19:57:56Z</time>
      </trkpt>
      <trkpt lat="47.15558" lon="-1.52708">
        <ele>28</ele>
        <time>2022-10-19T19:58:01Z</time>
      </trkpt>
      <trkpt lat="47.15676" lon="-1.53001">
        <ele>22</ele>
        <time>2022-10-19T19:58:42Z</time>
      </trkpt>
      <trkpt lat="47.1575" lon="-1.53125">
        <ele>23</ele>
        <time>2022-10-19T19:59:02Z</time>
      </trkpt>
      <trkpt lat="47.15767" lon="-1.53162">
        <ele>23</ele>
        <time>2022-10-19T19:59:08Z</time>
      </trkpt>
      <trkpt lat="47.1578" lon="-1.53206">
        <ele>25</ele>
        <time>2022-10-19T19:59:13Z</time>
      </trkpt>
      <trkpt lat="47.15783" lon="-1.53242">
        <ele>25</ele>
        <time>2022-10-19T19:59:18Z</time>
      </trkpt>
      <trkpt lat="47.15782" lon="-1.53296">
        <ele>26</ele>
        <time>2022-10-19T19:59:24Z</time>
      </trkpt>
      <trkpt lat="47.15766" lon="-1.53357">
        <ele>27</ele>
        <time>2022-10-19T19:59:32Z</time>
      </trkpt>
      <trkpt lat="47.15739" lon="-1.53401">
        <ele>28</ele>
        <time>2022-10-19T19:59:39Z</time>
      </trkpt>
      <trkpt lat="47.1567" lon="-1.53486">
        <ele>27</ele>
        <time>2022-10-19T19:59:55Z</time>
      </trkpt>
      <trkpt lat="47.15616" lon="-1.53565">
        <ele>28</ele>
        <time>2022-10-19T20:00:09Z</time>
      </trkpt>
      <trkpt lat="47.15543" lon="-1.53712">
        <ele>27</ele>
        <time>2022-10-19T20:00:31Z</time>
      </trkpt>
      <trkpt lat="47.1555" lon="-1.53741">
        <ele>27</ele>
        <time>2022-10-19T20:00:35Z</time>
      </trkpt>
      <trkpt lat="47.15626" lon="-1.53812">
        <ele>26</ele>
        <time>2022-10-19T20:00:51Z</time>
      </trkpt>
      <trkpt lat="47.1566" lon="-1.53857">
        <ele>27</ele>
        <time>2022-10-19T20:00:59Z</time>
      </trkpt>
      <trkpt lat="47.15676" lon="-1.53865">
        <ele>28</ele>
        <time>2022-10-19T20:01:02Z</time>
      </trkpt>
      <trkpt lat="47.15679" lon="-1.53946">
        <ele>28</ele>
        <time>2022-10-19T20:01:12Z</time>
      </trkpt>
      <trkpt lat="47.15699" lon="-1.54025">
        <ele>29</ele>
        <time>2022-10-19T20:01:22Z</time>
      </trkpt>
      <trkpt lat="47.15735" lon="-1.54126">
        <ele>30</ele>
        <time>2022-10-19T20:01:36Z</time>
      </trkpt>
      <trkpt lat="47.15755" lon="-1.54136">
        <ele>31</ele>
        <time>2022-10-19T20:01:39Z</time>
      </trkpt>
      <trkpt lat="47.1576" lon="-1.5415">
        <ele>32</ele>
        <time>2022-10-19T20:01:41Z</time>
      </trkpt>
      <trkpt lat="47.15762" lon="-1.54181">
        <ele>32</ele>
        <time>2022-10-19T20:01:45Z</time>
      </trkpt>
      <trkpt lat="47.15751" lon="-1.54198">
        <ele>31</ele>
        <time>2022-10-19T20:01:48Z</time>
      </trkpt>
      <trkpt lat="47.15735" lon="-1.54234">
        <ele>30</ele>
        <time>2022-10-19T20:01:53Z</time>
      </trkpt>
      <trkpt lat="47.15731" lon="-1.54282">
        <ele>29</ele>
        <time>2022-10-19T20:01:59Z</time>
      </trkpt>
      <trkpt lat="47.1573" lon="-1.5436">
        <ele>29</ele>
        <time>2022-10-19T20:02:08Z</time>
      </trkpt>
      <trkpt lat="47.15737" lon="-1.54459">
        <ele>30</ele>
        <time>2022-10-19T20:02:21Z</time>
      </trkpt>
      <trkpt lat="47.15758" lon="-1.54564">
        <ele>32</ele>
        <time>2022-10-19T20:02:34Z</time>
      </trkpt>
      <trkpt lat="47.15821" lon="-1.54815">
        <ele>28</ele>
        <time>2022-10-19T20:03:06Z</time>
      </trkpt>
      <trkpt lat="47.15871" lon="-1.55032">
        <ele>27</ele>
        <time>2022-10-19T20:03:34Z</time>
      </trkpt>
      <trkpt lat="47.15914" lon="-1.55189">
        <ele>29</ele>
        <time>2022-10-19T20:03:54Z</time>
      </trkpt>
      <trkpt lat="47.15998" lon="-1.55533">
        <ele>32</ele>
        <time>2022-10-19T20:04:39Z</time>
      </trkpt>
      <trkpt lat="47.1602" lon="-1.5556">
        <ele>32</ele>
        <time>2022-10-19T20:04:44Z</time>
      </trkpt>
      <trkpt lat="47.16043" lon="-1.5556">
        <ele>32</ele>
        <time>2022-10-19T20:04:48Z</time>
      </trkpt>
      <trkpt lat="47.16119" lon="-1.55511">
        <ele>32</ele>
        <time>2022-10-19T20:05:03Z</time>
      </trkpt>
      <trkpt lat="47.16134" lon="-1.55524">
        <ele>32</ele>
        <time>2022-10-19T20:05:06Z</time>
      </trkpt>
      <trkpt lat="47.16159" lon="-1.556">
        <ele>32</ele>
        <time>2022-10-19T20:05:16Z</time>
      </trkpt>
      <trkpt lat="47.16185" lon="-1.55739">
        <ele>31</ele>
        <time>2022-10-19T20:05:33Z</time>
      </trkpt>
      <trkpt lat="47.16193" lon="-1.55846">
        <ele>33</ele>
        <time>2022-10-19T20:05:46Z</time>
      </trkpt>
      <trkpt lat="47.16215" lon="-1.55937">
        <ele>32</ele>
        <time>2022-10-19T20:05:58Z</time>
      </trkpt>
      <trkpt lat="47.16291" lon="-1.56214">
        <ele>30</ele>
        <time>2022-10-19T20:06:34Z</time>
      </trkpt>
      <trkpt lat="47.16359" lon="-1.56448">
        <ele>29</ele>
        <time>2022-10-19T20:07:05Z</time>
      </trkpt>
      <trkpt lat="47.16384" lon="-1.56515">
        <ele>28</ele>
        <time>2022-10-19T20:07:14Z</time>
      </trkpt>
      <trkpt lat="47.16544" lon="-1.56792">
        <ele>27</ele>
        <time>2022-10-19T20:07:58Z</time>
      </trkpt>
      <trkpt lat="47.16622" lon="-1.56936">
        <ele>27</ele>
        <time>2022-10-19T20:08:20Z</time>
      </trkpt>
      <trkpt lat="47.16739" lon="-1.57167">
        <ele>30</ele>
        <time>2022-10-19T20:08:55Z</time>
      </trkpt>
      <trkpt lat="47.16783" lon="-1.57242">
        <ele>30</ele>
        <time>2022-10-19T20:09:07Z</time>
      </trkpt>
      <trkpt lat="47.16824" lon="-1.57304">
        <ele>31</ele>
        <time>2022-10-19T20:09:18Z</time>
      </trkpt>
      <trkpt lat="47.1702" lon="-1.57467">
        <ele>34</ele>
        <time>2022-10-19T20:09:58Z</time>
      </trkpt>
      <trkpt lat="47.17051" lon="-1.57508">
        <ele>34</ele>
        <time>2022-10-19T20:10:05Z</time>
      </trkpt>
      <trkpt lat="47.17028" lon="-1.57545">
        <ele>33</ele>
        <time>2022-10-19T20:10:11Z</time>
      </trkpt>
      <trkpt lat="47.17001" lon="-1.5762">
        <ele>32</ele>
        <time>2022-10-19T20:10:21Z</time>
      </trkpt>
      <trkpt lat="47.16992" lon="-1.57694">
        <ele>32</ele>
        <time>2022-10-19T20:10:31Z</time>
      </trkpt>
      <trkpt lat="47.16988" lon="-1.57771">
        <ele>34</ele>
        <time>2022-10-19T20:10:40Z</time>
      </trkpt>
      <trkpt lat="47.16977" lon="-1.57824">
        <ele>36</ele>
        <time>2022-10-19T20:10:47Z</time>
      </trkpt>
      <trkpt lat="47.16962" lon="-1.57864">
        <ele>35</ele>
        <time>2022-10-19T20:10:52Z</time>
      </trkpt>
      <trkpt lat="47.16957" lon="-1.57889">
        <ele>35</ele>
        <time>2022-10-19T20:10:55Z</time>
      </trkpt>
      <trkpt lat="47.16964" lon="-1.57908">
        <ele>35</ele>
        <time>2022-10-19T20:10:58Z</time>
      </trkpt>
      <trkpt lat="47.16989" lon="-1.5792">
        <ele>35</ele>
        <time>2022-10-19T20:11:03Z</time>
      </trkpt>
      <trkpt lat="47.17003" lon="-1.57939">
        <ele>34</ele>
        <time>2022-10-19T20:11:06Z</time>
      </trkpt>
      <trkpt lat="47.17004" lon="-1.57974">
        <ele>33</ele>
        <time>2022-10-19T20:11:10Z</time>
      </trkpt>
      <trkpt lat="47.16998" lon="-1.58017">
        <ele>31</ele>
        <time>2022-10-19T20:11:16Z</time>
      </trkpt>
      <trkpt lat="47.17" lon="-1.58072">
        <ele>29</ele>
        <time>2022-10-19T20:11:22Z</time>
      </trkpt>
      <trkpt lat="47.17019" lon="-1.58219">
        <ele>28</ele>
        <time>2022-10-19T20:11:40Z</time>
      </trkpt>
      <trkpt lat="47.1704" lon="-1.58358">
        <ele>31</ele>
        <time>2022-10-19T20:11:58Z</time>
      </trkpt>
      <trkpt lat="47.17063" lon="-1.58395">
        <ele>30</ele>
        <time>2022-10-19T20:12:04Z</time>
      </trkpt>
      <trkpt lat="47.17075" lon="-1.58453">
        <ele>30</ele>
        <time>2022-10-19T20:12:11Z</time>
      </trkpt>
      <trkpt lat="47.17086" lon="-1.58468">
        <ele>29</ele>
        <time>2022-10-19T20:12:14Z</time>
      </trkpt>
      <trkpt lat="47.17106" lon="-1.58472">
        <ele>29</ele>
        <time>2022-10-19T20:12:17Z</time>
      </trkpt>
      <trkpt lat="47.17167" lon="-1.58474">
        <ele>30</ele>
        <time>2022-10-19T20:12:28Z</time>
      </trkpt>
      <trkpt lat="47.1726" lon="-1.58487">
        <ele>30</ele>
        <time>2022-10-19T20:12:45Z</time>
      </trkpt>
      <trkpt lat="47.17417" lon="-1.5851">
        <ele>29</ele>
        <time>2022-10-19T20:13:13Z</time>
      </trkpt>
      <trkpt lat="47.17475" lon="-1.58524">
        <ele>28</ele>
        <time>2022-10-19T20:13:23Z</time>
      </trkpt>
      <trkpt lat="47.17516" lon="-1.58544">
        <ele>27</ele>
        <time>2022-10-19T20:13:31Z</time>
      </trkpt>
      <trkpt lat="47.17658" lon="-1.58622">
        <ele>27</ele>
        <time>2022-10-19T20:13:58Z</time>
      </trkpt>
      <trkpt lat="47.17701" lon="-1.58628">
        <ele>27</ele>
        <time>2022-10-19T20:14:06Z</time>
      </trkpt>
      <trkpt lat="47.17744" lon="-1.5863">
        <ele>26</ele>
        <time>2022-10-19T20:14:13Z</time>
      </trkpt>
      <trkpt lat="47.17763" lon="-1.58622">
        <ele>26</ele>
        <time>2022-10-19T20:14:17Z</time>
      </trkpt>
      <trkpt lat="47.17775" lon="-1.58653">
        <ele>26</ele>
        <time>2022-10-19T20:14:21Z</time>
      </trkpt>
      <trkpt lat="47.17828" lon="-1.58719">
        <ele>26</ele>
        <time>2022-10-19T20:14:33Z</time>
      </trkpt>
      <trkpt lat="47.17846" lon="-1.58747">
        <ele>26</ele>
        <time>2022-10-19T20:14:38Z</time>
      </trkpt>
      <trkpt lat="47.17845" lon="-1.5876">
        <ele>26</ele>
        <time>2022-10-19T20:14:40Z</time>
      </trkpt>
      <trkpt lat="47.17805" lon="-1.58864">
        <ele>26</ele>
        <time>2022-10-19T20:14:54Z</time>
      </trkpt>
      <trkpt lat="47.17821" lon="-1.5891">
        <ele>26</ele>
        <time>2022-10-19T20:15:00Z</time>
      </trkpt>
      <trkpt lat="47.1783" lon="-1.58923">
        <ele>26</ele>
        <time>2022-10-19T20:15:03Z</time>
      </trkpt>
      <trkpt lat="47.17827" lon="-1.58944">
        <ele>26</ele>
        <time>2022-10-19T20:15:05Z</time>
      </trkpt>
      <trkpt lat="47.17811" lon="-1.58987">
        <ele>25</ele>
        <time>2022-10-19T20:15:11Z</time>
      </trkpt>
      <trkpt lat="47.17828" lon="-1.59004">
        <ele>25</ele>
        <time>2022-10-19T20:15:15Z</time>
      </trkpt>
      <trkpt lat="47.1785" lon="-1.59021">
        <ele>24</ele>
        <time>2022-10-19T20:15:19Z</time>
      </trkpt>
      <trkpt lat="47.17865" lon="-1.59039">
        <ele>24</ele>
        <time>2022-10-19T20:15:23Z</time>
      </trkpt>
      <trkpt lat="47.17858" lon="-1.59061">
        <ele>23</ele>
        <time>2022-10-19T20:15:26Z</time>
      </trkpt>
    </trkseg>
  </trk>
</gpx>